ftp/pub/palmer/observations_modified/2017/June/AR170629_BASE.txt

Download

Sample DateTime	Unit Id	WS Avg 2min	WD Avg 2min	WGS 10min	WGD 10min	Air Temp	Rel Humidity	Dew Point	Pyranometer	Quantum	Air Pressure	Snow Level	Rainfall	PW Current	Visibility	CBase 1	CBase 2	CBase 3	Vert Vis
2017/06/29 00:00:00	BASE	12.78	213	15.84	210	-6.6	71	-11.0	0	0	962.8	NA	0.0000		9999	3050	0	0	0
2017/06/29 00:01:00	BASE	12.56	210	14.92	218	-6.6	71	-11.0	0	0	962.9	NA	0.0000		9999	3150	0	0	0
2017/06/29 00:02:01	BASE	12.60	208	14.76	221	-6.5	70	-11.0	0	0	962.8	NA	0.0000		9999	3380	0	0	0
2017/06/29 00:03:01	BASE	12.73	211	15.69	213	-6.5	70	-11.1	0	0	962.8	NA	0.0000		9999	3310	4170	0	0
2017/06/29 00:04:01	BASE	13.25	213	15.69	213	-6.6	69	-11.3	0	0	962.9	NA	0.0000		9999	3710	0	0	0
2017/06/29 00:05:00	BASE	12.22	212	15.69	213	-6.6	69	-11.3	0	0	962.9	NA	0.0000	-SN	9999	3940	0	0	0
2017/06/29 00:06:00	BASE	11.72	211	15.69	213	-6.6	69	-11.3	0	0	962.9	NA	0.0000	-SN	9999	2990	0	0	0
2017/06/29 00:07:01	BASE	13.13	212	15.69	213	-6.6	70	-11.3	0	0	962.9	NA	0.0000	-SN	9999	3840	0	0	0
2017/06/29 00:08:01	BASE	12.94	215	15.69	213	-6.7	69	-11.4	0	0	962.9	NA	0.0000	-SN	9999	4690	0	0	0
2017/06/29 00:09:00	BASE	12.79	215	15.69	213	-6.7	70	-11.3	0	0	962.9	NA	0.0000	-SN	9999	3050	0	0	0
2017/06/29 00:10:00	BASE	12.32	220	15.69	213	-6.7	70	-11.2	0	0	962.9	NA	0.0000	-SN	9999	3540	0	0	0
2017/06/29 00:11:00	BASE	11.26	226	15.69	213	-6.7	71	-11.2	0	0	962.9	NA	0.0000	-SN	9999	2890	0	0	0
2017/06/29 00:12:01	BASE	11.52	223	15.69	213	-6.7	71	-11.1	0	0	962.9	NA	0.0000	-SN	9999	2760	0	0	0
2017/06/29 00:13:01	BASE	11.63	219	15.48	210	-6.7	71	-11.1	0	0	963.0	NA	0.0000	-SN	9999	4430	0	0	0
2017/06/29 00:14:01	BASE	10.56	219	15.48	210	-6.7	72	-10.9	0	0	963.0	NA	0.0000	-SN	9999	2690	4530	0	0
2017/06/29 00:15:01	BASE	10.62	218	15.48	210	-6.8	73	-10.8	0	0	963.0	NA	0.0000	-SN	9999	2620	4130	0	0
2017/06/29 00:16:01	BASE	11.32	218	15.02	212	-6.8	74	-10.7	0	0	963.0	NA	0.0000	-SN	9999	3350	0	0	0
2017/06/29 00:17:01	BASE	11.66	219	14.76	209	-6.7	74	-10.6	0	0	963.0	NA	0.0000	-SN	8000	3770	0	0	0
2017/06/29 00:18:01	BASE	11.52	222	14.76	209	-6.7	74	-10.5	0	0	963.0	NA	0.0000	-SN	8000	4100	5350	0	0
2017/06/29 00:19:01	BASE	11.81	229	14.15	210	-6.8	74	-10.7	0	0	963.0	NA	0.0000	-SN	9000	5250	0	0	0
2017/06/29 00:20:01	BASE	11.73	230	14.15	210	-6.8	72	-11.0	0	0	963.1	NA	0.0000	-SN	9999	2690	0	0	0
2017/06/29 00:21:01	BASE	11.91	217	14.97	201	-6.8	72	-11.1	0	0	963.0	NA	0.0000	-SN	9999	2530	0	0	0
2017/06/29 00:22:01	BASE	13.63	205	15.28	202	-6.9	72	-11.1	0	0	963.0	NA	0.0000	-SN	9000	390	0	0	0
2017/06/29 00:23:01	BASE	14.28	206	15.84	212	-6.9	73	-11.0	0	0	963.1	NA	0.0000	-SN	6000	300	0	0	0
2017/06/29 00:24:01	BASE	13.48	211	15.84	212	-7.0	75	-10.7	0	0	963.2	NA	0.0000	-SN	5000	0	0	0	4130
2017/06/29 00:25:01	BASE	12.38	214	15.84	212	-7.1	77	-10.4	0	0	963.2	NA	0.0000	-SN	6000	2230	0	0	0
2017/06/29 00:26:01	BASE	11.42	219	15.84	212	-7.2	79	-10.2	0	0	963.2	NA	0.0000	-SN	6000	230	2260	0	0
2017/06/29 00:27:01	BASE	11.08	224	15.84	212	-7.3	81	-9.9	0	0	963.3	NA	0.0000	-SN	3700	0	0	0	2820
2017/06/29 00:28:01	BASE	10.55	223	15.84	212	-7.4	84	-9.7	0	0	963.4	NA	0.0000	-SN	3800	300	0	0	0
2017/06/29 00:29:01	BASE	10.87	224	15.84	212	-7.4	85	-9.4	0	0	963.4	NA	0.0000	-SN BR	4500	0	0	0	2490
2017/06/29 00:30:01	BASE	11.85	232	15.84	212	-7.4	88	-9.1	0	0	963.4	NA	0.0000	-SN BR	3000	0	0	0	2820
2017/06/29 00:31:01	BASE	11.35	237	15.84	212	-7.4	90	-8.8	0	0	963.4	NA	0.0000	-SN BR	2200	0	0	0	2620
2017/06/29 00:32:01	BASE	10.24	235	15.84	212	-7.5	91	-8.6	0	0	963.5	NA	0.0000	-SN BR	2100	0	0	0	2360
2017/06/29 00:33:01	BASE	9.50	232	13.99	212	-7.4	92	-8.5	0	0	963.5	NA	0.0000	-SN BR	2500	0	0	0	2070
2017/06/29 00:34:01	BASE	10.43	231	13.43	215	-7.4	93	-8.4	0	0	963.4	NA	0.0000	-SN BR	3800	330	0	0	0
2017/06/29 00:35:01	BASE	11.33	232	13.43	215	-7.5	93	-8.5	0	0	963.5	NA	0.0000	-SN BR	8000	0	0	0	3120
2017/06/29 00:36:01	BASE	11.79	231	14.51	234	-7.6	93	-8.6	0	0	963.5	NA	0.0000	-SN BR	7000	300	1080	0	0
2017/06/29 00:37:01	BASE	12.50	227	14.51	234	-7.6	93	-8.6	0	0	963.5	NA	0.0000	-SN BR	6000	0	0	0	3020
2017/06/29 00:38:01	BASE	13.08	219	15.59	217	-7.6	93	-8.6	0	0	963.6	NA	0.0000	-SN BR	4500	0	0	0	2660
2017/06/29 00:39:01	BASE	12.24	224	15.59	217	-7.5	93	-8.5	0	0	963.7	NA	0.0000	-SN BR	3500	0	0	0	2950
2017/06/29 00:40:01	BASE	10.93	234	15.59	217	-7.4	93	-8.4	0	0	963.7	NA	0.0000	-SN BR	4400	0	0	0	3250
2017/06/29 00:41:01	BASE	11.23	235	15.59	217	-7.4	93	-8.3	0	0	963.7	NA	0.0000	-SN BR	8000	360	2560	0	0
2017/06/29 00:42:01	BASE	11.45	235	15.59	217	-7.4	93	-8.4	0	0	963.6	NA	0.0000	-SN BR	9999	2360	0	0	0
2017/06/29 00:43:01	BASE	11.46	236	15.59	217	-7.5	92	-8.5	0	0	963.6	NA	0.0000	-SN BR	9999	0	0	0	790
2017/06/29 00:44:01	BASE	11.88	232	15.59	217	-7.6	92	-8.7	0	0	963.6	NA	0.0000	-SN BR	9999	5320	0	0	0
2017/06/29 00:45:01	BASE	11.95	225	15.59	217	-7.6	90	-9.0	0	0	963.7	NA	0.0000	-SN BR	9999	0	0	0	6330
2017/06/29 00:46:01	BASE	10.95	218	15.59	217	-7.6	88	-9.3	0	0	963.7	NA	0.0000	-SN BR	9999	0	0	0	5710
2017/06/29 00:47:01	BASE	11.50	216	15.59	217	-7.6	86	-9.6	0	0	963.7	NA	0.0000	-SN BR	9999	7380	0	0	0
2017/06/29 00:48:01	BASE	12.78	216	14.56	227	-7.5	84	-9.8	0	0	963.7	NA	0.0000	-SN	9999	3250	0	0	0
2017/06/29 00:49:01	BASE	11.97	216	14.56	227	-7.5	82	-10.0	0	0	963.7	NA	0.0000	-SN	9999	7280	0	0	0
2017/06/29 00:50:01	BASE	10.54	218	14.56	227	-7.4	81	-10.1	0	0	963.7	NA	0.0000	-SN	9999	5640	0	0	0
2017/06/29 00:51:01	BASE	11.19	218	14.56	227	-7.3	80	-10.1	0	0	963.7	NA	0.0000		9999	5450	0	0	0
2017/06/29 00:52:01	BASE	12.06	217	14.56	227	-7.3	79	-10.3	0	0	963.7	NA	0.0000		9999	4690	0	0	0
2017/06/29 00:53:01	BASE	12.37	220	14.92	215	-7.2	78	-10.4	0	0	963.7	NA	0.0000		9999	4430	0	0	0
2017/06/29 00:54:01	BASE	13.24	218	14.92	215	-7.1	77	-10.5	0	0	963.7	NA	0.0000		9999	4070	0	0	0
2017/06/29 00:55:01	BASE	12.55	216	14.92	215	-7.1	76	-10.7	0	0	963.7	NA	0.0000		9999	3670	4760	0	0
2017/06/29 00:56:01	BASE	12.10	219	14.92	215	-7.0	74	-10.8	0	0	963.7	NA	0.0000		9999	5090	0	0	0
2017/06/29 00:57:01	BASE	12.61	218	16.51	212	-7.0	74	-10.9	0	0	963.7	NA	0.0000		9999	4820	0	0	0
2017/06/29 00:58:01	BASE	13.80	215	16.51	212	-7.0	73	-11.1	0	0	963.7	NA	0.0000		9999	4560	0	0	0
2017/06/29 00:59:01	BASE	14.16	218	16.51	212	-7.0	72	-11.1	0	0	963.6	NA	0.0000		9999	4430	0	0	0
2017/06/29 01:00:01	BASE	14.68	218	17.29	211	-7.0	72	-11.2	0	0	963.6	NA	0.0000		9999	4300	0	0	0
2017/06/29 01:01:01	BASE	15.55	215	17.29	211	-7.0	72	-11.2	0	0	963.6	NA	0.0000		9999	4630	0	0	0
2017/06/29 01:02:01	BASE	14.06	213	17.29	211	-7.1	72	-11.3	0	0	963.7	NA	0.0000	-SN	9999	4330	0	0	0
2017/06/29 01:03:01	BASE	12.94	212	17.29	211	-7.1	71	-11.4	0	0	963.7	NA	0.0000	-SN	9999	4490	0	0	0
2017/06/29 01:04:01	BASE	11.90	211	17.29	211	-7.1	70	-11.6	0	0	963.8	NA	0.0000	-SN	9999	4230	0	0	0
2017/06/29 01:05:01	BASE	11.43	206	17.29	211	-7.0	69	-11.8	0	0	963.7	NA	0.0000	-SN	9999	3280	0	0	0
2017/06/29 01:06:01	BASE	11.34	202	17.29	211	-7.0	66	-12.3	0	0	963.8	NA	0.0000	-SN	9999	2170	0	0	0
2017/06/29 01:07:01	BASE	11.19	204	17.29	211	-7.0	64	-12.7	0	0	963.8	NA	0.0000	-SN	9999	2070	0	0	0
2017/06/29 01:08:01	BASE	11.55	205	17.29	211	-7.0	62	-13.0	0	0	963.8	NA	0.0000	-SN	9999	1120	0	0	0
2017/06/29 01:09:01	BASE	10.71	203	17.29	211	-7.0	60	-13.4	0	0	963.8	NA	0.0000	-SN	9999	0	0	0	5680
2017/06/29 01:10:01	BASE	9.79	207	16.98	225	-7.0	60	-13.6	0	0	963.9	NA	0.0000	-SN	9999	4720	0	0	0
2017/06/29 01:11:01	BASE	9.04	218	15.54	208	-7.0	61	-13.3	0	0	963.9	NA	0.0000	-SN	9999	4490	0	0	0
2017/06/29 01:12:01	BASE	8.94	224	15.54	208	-7.0	61	-13.2	0	0	963.9	NA	0.0000		9999	3840	0	0	0
2017/06/29 01:13:01	BASE	10.68	218	13.94	209	-7.0	62	-13.0	0	0	963.9	NA	0.0000		9999	3740	0	0	0
2017/06/29 01:14:01	BASE	12.01	210	13.94	209	-6.9	63	-12.8	0	0	963.9	NA	0.0000		9999	4460	0	0	0
2017/06/29 01:15:01	BASE	11.16	210	13.94	209	-6.9	64	-12.6	0	0	964.0	NA	0.0000	-SN	9999	4630	0	0	0
2017/06/29 01:16:01	BASE	10.50	208	13.94	209	-7.0	64	-12.7	0	0	964.0	NA	0.0000	-SN	9999	3280	0	0	0
2017/06/29 01:17:01	BASE	11.10	207	13.94	209	-7.0	64	-12.7	0	0	963.9	NA	0.0000	-SN	9999	4100	0	0	0
2017/06/29 01:18:01	BASE	11.56	207	13.94	209	-7.0	64	-12.7	0	0	963.9	NA	0.0000	-SN	9999	4170	5450	0	0
2017/06/29 01:19:01	BASE	11.14	209	13.94	209	-7.0	64	-12.6	0	0	964.0	NA	0.0000	-SN	9999	5770	0	0	0
2017/06/29 01:20:01	BASE	10.80	214	13.94	209	-7.0	64	-12.6	0	0	964.0	NA	0.0000		9999	6370	0	0	0
2017/06/29 01:21:01	BASE	10.91	217	13.94	209	-7.0	64	-12.6	0	0	964.1	NA	0.0000		9999	3670	6330	0	0
2017/06/29 01:22:01	BASE	10.60	226	13.94	209	-7.0	64	-12.6	0	0	964.1	NA	0.0000		9999	3510	0	0	0
2017/06/29 01:23:01	BASE	10.56	234	13.38	203	-7.0	65	-12.6	0	0	964.1	NA	0.0000		9999	0	0	0	5940
2017/06/29 01:24:01	BASE	10.79	232	13.07	208	-7.2	66	-12.5	0	0	964.1	NA	0.0000	-SN	9000	0	0	0	5710
2017/06/29 01:25:01	BASE	11.44	233	13.58	241	-7.2	68	-12.2	0	0	964.1	NA	0.0000	-SN	6000	360	3580	0	0
2017/06/29 01:26:01	BASE	12.85	234	15.69	235	-7.3	71	-11.7	0	0	964.1	NA	0.0000	-SN	4700	330	0	0	0
2017/06/29 01:27:01	BASE	12.91	229	15.69	235	-7.4	75	-11.2	0	0	964.2	NA	0.0000	-SN	5000	260	0	0	0
2017/06/29 01:28:01	BASE	12.85	226	15.69	235	-7.6	78	-10.7	0	0	964.2	NA	0.0000	-SN	5000	0	0	0	3840
2017/06/29 01:29:01	BASE	12.30	225	15.69	235	-7.7	81	-10.4	0	0	964.3	NA	0.0000	-SN	8000	0	0	0	4820
2017/06/29 01:30:01	BASE	11.53	226	15.69	235	-7.8	82	-10.4	0	0	964.3	NA	0.0000	-SN	7000	690	0	0	0
2017/06/29 01:31:01	BASE	11.84	228	15.69	235	-7.9	81	-10.6	0	0	964.3	NA	0.0000	-SN	9000	4040	0	0	0
2017/06/29 01:32:01	BASE	11.33	225	15.69	235	-8.0	80	-10.9	0	0	964.4	NA	0.0000	-SN	9000	4860	0	0	0
2017/06/29 01:33:01	BASE	10.39	221	15.69	235	-7.9	77	-11.1	0	0	964.4	NA	0.0000	-SN	9999	3350	0	0	0
2017/06/29 01:34:01	BASE	9.91	223	15.69	235	-7.8	76	-11.4	0	0	964.3	NA	0.0000	-SN	9999	3510	5020	0	0
2017/06/29 01:35:01	BASE	10.67	225	15.69	235	-7.7	74	-11.5	0	0	964.3	NA	0.0000	-SN	9999	3080	0	0	0
2017/06/29 01:36:01	BASE	11.25	227	14.82	230	-7.6	73	-11.5	0	0	964.3	NA	0.0000	-SN	9999	3150	0	0	0
2017/06/29 01:37:01	BASE	11.00	234	14.82	230	-7.5	73	-11.6	0	0	964.3	NA	0.0000	-SN	9999	3020	0	0	0
2017/06/29 01:38:01	BASE	10.30	240	13.53	230	-7.4	72	-11.6	0	0	964.3	NA	0.0000	-SN	9999	3310	0	0	0
2017/06/29 01:39:01	BASE	10.09	242	13.53	230	-7.4	71	-11.7	0	0	964.3	NA	0.0000	-SN	9999	3450	0	0	0
2017/06/29 01:40:01	BASE	10.99	242	13.48	233	-7.4	70	-11.9	0	0	964.3	NA	0.0000		9999	5280	0	0	0
2017/06/29 01:41:01	BASE	11.51	237	13.38	240	-7.4	68	-12.3	0	0	964.4	NA	0.0000		9999	5220	0	0	0
2017/06/29 01:42:01	BASE	10.81	227	13.38	240	-7.4	67	-12.5	0	0	964.5	NA	0.0000		9999	6990	0	0	0
2017/06/29 01:43:01	BASE	10.30	222	13.38	240	-7.4	65	-12.8	0	0	964.5	NA	0.0000		9999	7050	0	0	0
2017/06/29 01:44:01	BASE	10.76	222	13.38	240	-7.4	64	-12.9	0	0	964.5	NA	0.0000		9999	3710	0	0	0
2017/06/29 01:45:01	BASE	11.33	223	13.79	223	-7.3	65	-12.8	0	0	964.4	NA	0.0000		9999	3770	0	0	0
2017/06/29 01:46:01	BASE	12.46	222	14.56	222	-7.3	67	-12.4	0	0	964.4	NA	0.0000		9999	3080	4490	0	0
2017/06/29 01:47:01	BASE	13.69	223	15.59	226	-7.3	70	-11.9	0	0	964.4	NA	0.0000		9999	4660	0	0	0
2017/06/29 01:48:01	BASE	13.78	227	15.59	226	-7.4	74	-11.3	0	0	964.4	NA	0.0000		9000	4760	0	0	0
2017/06/29 01:49:01	BASE	13.08	226	15.59	226	-7.5	78	-10.7	0	0	964.5	NA	0.0000		9000	1350	1840	0	0
2017/06/29 01:50:01	BASE	12.72	220	15.59	226	-7.6	81	-10.3	0	0	964.6	NA	0.0000		8000	5120	0	0	0
2017/06/29 01:51:01	BASE	13.03	218	15.59	226	-7.7	83	-10.1	0	0	964.7	NA	0.0000	HZ	7000	0	0	0	1940
2017/06/29 01:52:01	BASE	13.22	216	15.59	226	-7.9	85	-10.0	0	0	964.7	NA	0.0000	-SN BR	6000	230	0	0	0
2017/06/29 01:53:01	BASE	12.25	219	15.59	226	-7.9	86	-9.9	0	0	964.7	NA	0.0000	-SN BR	8000	1020	0	0	0
2017/06/29 01:54:01	BASE	12.02	220	15.59	226	-8.0	86	-9.9	0	0	964.8	NA	0.0000	-SN BR	8000	0	0	0	3610
2017/06/29 01:55:01	BASE	12.16	215	15.59	226	-8.1	87	-9.8	0	0	964.8	NA	0.0000	-SN BR	8000	390	0	0	0
2017/06/29 01:56:01	BASE	11.80	211	15.59	226	-8.1	87	-9.8	0	0	964.8	NA	0.0000	-SN BR	8000	560	0	0	0
2017/06/29 01:57:01	BASE	11.81	212	15.43	233	-8.0	87	-9.8	0	0	964.8	NA	0.0000	-SN BR	8000	1250	0	0	0
2017/06/29 01:58:01	BASE	11.38	217	14.82	211	-8.0	87	-9.9	0	0	964.9	NA	0.0000	-SN BR	9999	2070	0	0	0
2017/06/29 01:59:01	BASE	10.49	218	14.82	211	-8.0	86	-10.0	0	0	964.8	NA	0.0000	-SN BR	9999	0	0	0	4300
2017/06/29 02:00:01	BASE	9.24	218	14.82	211	-8.1	85	-10.1	0	0	964.9	NA	0.0000	-SN BR	9999	0	0	0	5350
2017/06/29 02:01:01	BASE	8.25	218	14.10	215	-8.1	85	-10.2	0	0	964.9	NA	0.0000	-SN BR	9999	6960	0	0	0
2017/06/29 02:02:01	BASE	8.12	218	14.04	215	-8.2	84	-10.4	0	0	964.9	NA	0.0000	-SN BR	9999	6860	0	0	0
2017/06/29 02:03:01	BASE	8.35	219	14.04	215	-8.2	84	-10.5	0	0	964.9	NA	0.0000	-SN	9999	7050	0	0	0
2017/06/29 02:04:01	BASE	9.06	220	12.96	213	-8.1	83	-10.5	0	0	964.9	NA	0.0000	-SN	9999	0	0	0	1570
2017/06/29 02:05:01	BASE	9.66	220	12.91	212	-8.1	82	-10.6	0	0	965.0	NA	0.0000	-SN	9999	0	0	0	2100
2017/06/29 02:06:01	BASE	9.21	220	12.76	217	-8.0	81	-10.8	0	0	965.0	NA	0.0000	-SN	9000	3220	6730	0	0
2017/06/29 02:07:01	BASE	8.22	217	12.04	219	-8.0	80	-10.8	0	0	965.0	NA	0.0000	-SN	9000	2560	6430	0	0
2017/06/29 02:08:01	BASE	8.18	215	11.21	231	-7.9	79	-10.9	0	0	965.0	NA	0.0000	-SN	9000	6500	0	0	0
2017/06/29 02:09:01	BASE	8.40	218	11.21	231	-7.8	78	-11.0	0	0	965.0	NA	0.0000	-SN	9000	6500	0	0	0
2017/06/29 02:10:01	BASE	8.41	226	11.21	231	-7.8	78	-11.0	0	0	965.0	NA	0.0000	-SN	9000	6400	0	0	0
2017/06/29 02:11:01	BASE	8.72	225	11.21	231	-7.7	77	-11.1	0	0	965.0	NA	0.0000	HZ	9000	0	0	0	0
2017/06/29 02:12:01	BASE	9.36	223	11.63	222	-7.7	75	-11.3	0	0	965.1	NA	0.0000	HZ	9999	3740	0	0	0
2017/06/29 02:13:01	BASE	10.97	229	12.96	230	-7.6	73	-11.5	0	0	965.0	NA	0.0000	HZ	9999	4000	0	0	0
2017/06/29 02:14:01	BASE	11.24	230	13.27	229	-7.6	70	-12.1	0	0	965.1	NA	0.0000	HZ	9999	0	0	0	0
2017/06/29 02:15:01	BASE	10.43	228	13.27	229	-7.6	67	-12.7	0	0	965.2	NA	0.0000	HZ	9999	0	0	0	0
2017/06/29 02:16:01	BASE	10.10	227	13.27	229	-7.6	64	-13.2	0	0	965.1	NA	0.0000	HZ	9999	0	0	0	0
2017/06/29 02:17:01	BASE	10.15	223	13.27	229	-7.6	61	-13.8	0	0	965.1	NA	0.0000	HZ	9999	0	0	0	0
2017/06/29 02:18:01	BASE	10.70	218	13.27	229	-7.5	59	-14.3	0	0	965.1	NA	0.0000	HZ	9999	0	0	0	0
2017/06/29 02:19:01	BASE	10.78	217	13.27	229	-7.4	58	-14.3	0	0	965.2	NA	0.0000	HZ	9999	5840	0	0	0
2017/06/29 02:20:01	BASE	11.02	220	13.38	214	-7.3	58	-14.2	0	0	965.1	NA	0.0000	HZ	9999	3900	4660	0	0
2017/06/29 02:21:01	BASE	10.90	228	13.38	214	-7.2	59	-14.0	0	0	965.2	NA	0.0000	HZ	9000	4000	6070	0	0
2017/06/29 02:22:01	BASE	9.83	233	13.38	214	-7.2	60	-13.7	0	0	965.2	NA	0.0000	HZ	9000	5680	0	0	0
2017/06/29 02:23:01	BASE	9.04	234	13.38	214	-7.2	61	-13.4	0	0	965.2	NA	0.0000	HZ	9000	5450	0	0	0
2017/06/29 02:24:01	BASE	10.02	231	13.74	231	-7.1	62	-13.3	0	0	965.1	NA	0.0000	HZ	9000	5770	0	0	0
2017/06/29 02:25:01	BASE	11.10	226	13.74	231	-7.2	61	-13.4	0	0	965.2	NA	0.0000	HZ	9000	6100	0	0	0
2017/06/29 02:26:01	BASE	10.76	225	13.74	231	-7.2	61	-13.5	0	0	965.1	NA	0.0000	HZ	9000	5710	0	0	0
2017/06/29 02:27:01	BASE	10.03	223	13.74	231	-7.2	60	-13.6	0	0	965.2	NA	0.0000	HZ	9000	5580	0	0	0
2017/06/29 02:28:01	BASE	8.72	217	13.74	231	-7.2	60	-13.6	0	0	965.3	NA	0.0000	HZ	9000	5250	0	0	0
2017/06/29 02:29:01	BASE	8.83	214	13.74	231	-7.2	60	-13.8	0	0	965.2	NA	0.0000	HZ	9000	4990	0	0	0
2017/06/29 02:30:01	BASE	9.10	216	13.74	231	-7.2	60	-13.7	0	0	965.3	NA	0.0000	HZ	9000	4360	0	0	0
2017/06/29 02:31:01	BASE	8.61	217	13.74	231	-7.1	60	-13.5	0	0	965.2	NA	0.0000	HZ	9000	5150	0	0	0
2017/06/29 02:32:01	BASE	9.56	216	13.74	231	-7.1	60	-13.6	0	0	965.2	NA	0.0000	HZ	9000	5090	0	0	0
2017/06/29 02:33:01	BASE	10.23	216	13.74	231	-7.1	59	-13.7	0	0	965.2	NA	0.0000	HZ	9000	4860	0	0	0
2017/06/29 02:34:01	BASE	9.92	222	13.12	226	-7.1	59	-13.8	0	0	965.2	NA	0.0000	HZ	9000	4300	0	0	0
2017/06/29 02:35:01	BASE	9.93	226	13.12	226	-7.1	58	-14.0	0	0	965.1	NA	0.0000	HZ	9000	5120	0	0	0
2017/06/29 02:36:01	BASE	10.19	222	12.50	214	-7.1	58	-14.1	0	0	965.1	NA	0.0000	HZ	9000	4860	0	0	0
2017/06/29 02:37:01	BASE	10.47	217	12.50	214	-7.1	57	-14.1	0	0	965.2	NA	0.0000	HZ	9000	4400	5510	0	0
2017/06/29 02:38:01	BASE	10.54	219	12.50	214	-7.1	57	-14.1	0	0	965.1	NA	0.0000	HZ	9000	4170	4920	5510	0
2017/06/29 02:39:01	BASE	10.51	222	12.55	224	-7.1	57	-14.2	0	0	965.1	NA	0.0000	HZ	8000	5350	0	0	0
2017/06/29 02:40:01	BASE	9.93	226	12.55	224	-7.1	58	-14.1	0	0	965.1	NA	0.0000	HZ	9000	4560	0	0	0
2017/06/29 02:41:01	BASE	9.42	230	12.55	224	-7.1	58	-14.0	0	0	965.1	NA	0.0000	HZ	8000	4230	0	0	0
2017/06/29 02:42:01	BASE	9.25	229	12.55	224	-7.1	59	-13.9	0	0	965.1	NA	0.0000	HZ	8000	4230	0	0	0
2017/06/29 02:43:01	BASE	9.77	225	12.81	215	-7.2	59	-13.9	0	0	965.1	NA	0.0000	-SN	9000	5050	0	0	0
2017/06/29 02:44:01	BASE	10.40	225	12.81	215	-7.1	59	-13.7	0	0	965.0	NA	0.0000	-SN	9000	4040	0	0	0
2017/06/29 02:45:01	BASE	11.00	218	13.32	209	-7.1	61	-13.5	0	0	965.0	NA	0.0000	-SN	8000	3870	0	0	0
2017/06/29 02:46:00	BASE	11.27	205	13.32	209	-7.2	61	-13.3	0	0	965.0	NA	0.0000	-SN	9000	3870	0	0	0
2017/06/29 02:47:00	BASE	11.05	202	13.32	209	-7.2	63	-13.1	0	0	965.0	NA	0.0000	-SN	9000	4130	4990	0	0
2017/06/29 02:48:00	BASE	11.21	204	13.32	209	-7.2	65	-12.7	0	0	965.1	NA	0.0000	-SN	8000	4820	0	0	0
2017/06/29 02:49:00	BASE	10.92	205	13.32	209	-7.2	67	-12.3	0	0	965.1	NA	0.0000	-SN	8000	4660	0	0	0
2017/06/29 02:50:00	BASE	10.84	203	13.32	209	-7.2	68	-12.1	0	0	965.1	NA	0.0000	-SN	8000	3080	4860	0	0
2017/06/29 02:51:00	BASE	10.80	200	13.32	209	-7.2	70	-11.8	0	0	965.1	NA	0.0000	-SN	8000	5150	0	0	0
2017/06/29 02:52:00	BASE	10.21	200	13.32	209	-7.2	71	-11.6	0	0	965.2	NA	0.0000	-SN	8000	5680	0	0	0
2017/06/29 02:53:00	BASE	10.21	204	13.32	209	-7.3	72	-11.4	0	0	965.2	NA	0.0000	-SN	8000	5810	0	0	0
2017/06/29 02:54:00	BASE	9.87	205	13.32	209	-7.3	73	-11.4	0	0	965.3	NA	0.0000	-SN	8000	4990	0	0	0
2017/06/29 02:55:00	BASE	9.65	201	12.91	205	-7.4	73	-11.3	0	0	965.3	NA	0.0000	-SN	8000	5480	0	0	0
2017/06/29 02:56:00	BASE	10.40	200	12.91	205	-7.5	73	-11.4	0	0	965.3	NA	0.0000	-SN	8000	5250	0	0	0
2017/06/29 02:57:00	BASE	10.03	198	12.91	205	-7.5	74	-11.4	0	0	965.3	NA	0.0000	-SN	8000	5320	0	0	0
2017/06/29 02:58:00	BASE	9.62	191	12.04	198	-7.6	74	-11.5	0	0	965.3	NA	0.0000	-SN	8000	5220	0	0	0
2017/06/29 02:59:00	BASE	8.84	191	12.04	198	-7.6	74	-11.5	0	0	965.4	NA	0.0000	HZ	8000	5020	0	0	0
2017/06/29 03:00:00	BASE	8.19	194	12.04	198	-7.7	75	-11.4	0	0	965.4	NA	0.0000	HZ	7000	5090	0	0	0
2017/06/29 03:01:00	BASE	9.15	195	11.78	202	-7.7	75	-11.3	0	0	965.4	NA	0.0000	HZ	7000	5150	0	0	0
2017/06/29 03:02:00	BASE	9.68	196	11.78	202	-7.7	76	-11.3	0	0	965.4	NA	0.0000	HZ	7000	5320	0	0	0
2017/06/29 03:03:00	BASE	9.14	194	11.78	202	-7.7	77	-11.1	0	0	965.4	NA	0.0000	HZ	8000	5540	0	0	0
2017/06/29 03:04:00	BASE	8.50	191	11.78	202	-7.8	78	-10.9	0	0	965.4	NA	0.0000	HZ	7000	5540	0	0	0
2017/06/29 03:05:00	BASE	8.35	188	11.78	202	-7.8	79	-10.9	0	0	965.4	NA	0.0000	HZ	7000	5480	0	0	0
2017/06/29 03:06:00	BASE	8.46	192	10.75	194	-7.9	79	-10.9	0	0	965.5	NA	0.0000	HZ	7000	5580	0	0	0
2017/06/29 03:07:00	BASE	8.27	195	10.75	194	-7.8	79	-10.8	0	0	965.5	NA	0.0000	HZ	7000	5680	0	0	0
2017/06/29 03:08:00	BASE	8.30	194	10.75	194	-7.8	79	-10.8	0	0	965.4	NA	0.0000	HZ	7000	5250	0	0	0
2017/06/29 03:09:00	BASE	8.34	195	10.75	194	-7.8	79	-10.8	0	0	965.4	NA	0.0000	HZ	8000	5220	0	0	0
2017/06/29 03:10:00	BASE	8.32	194	10.75	194	-7.8	78	-10.9	0	0	965.4	NA	0.0000	HZ	7000	5250	0	0	0
2017/06/29 03:11:00	BASE	8.97	196	10.75	194	-7.8	78	-10.9	0	0	965.4	NA	0.0000	HZ	7000	5120	0	0	0
2017/06/29 03:12:00	BASE	9.38	197	10.29	194	-7.8	78	-11.0	0	0	965.4	NA	0.0000	HZ	8000	4950	0	0	0
2017/06/29 03:13:00	BASE	8.95	196	10.29	194	-7.8	77	-11.1	0	0	965.4	NA	0.0000	HZ	8000	4890	0	0	0
2017/06/29 03:14:00	BASE	8.74	198	10.29	194	-7.9	77	-11.2	0	0	965.4	NA	0.0000	HZ	8000	5180	0	0	0
2017/06/29 03:15:00	BASE	8.50	202	10.29	194	-7.9	77	-11.3	0	0	965.4	NA	0.0000	HZ	7000	5180	0	0	0
2017/06/29 03:16:00	BASE	8.33	204	10.29	194	-7.9	77	-11.3	0	0	965.4	NA	0.0000	HZ	7000	5150	0	0	0
2017/06/29 03:17:00	BASE	8.63	204	10.29	194	-7.9	77	-11.3	0	0	965.4	NA	0.0000	HZ	8000	5020	0	0	0
2017/06/29 03:18:00	BASE	8.16	205	10.29	194	-7.9	77	-11.2	0	0	965.4	NA	0.0000	HZ	8000	5120	0	0	0
2017/06/29 03:19:00	BASE	7.56	205	10.29	194	-7.9	78	-11.1	0	0	965.4	NA	0.0000	HZ	7000	5180	0	0	0
2017/06/29 03:20:00	BASE	7.81	209	10.29	194	-7.9	78	-11.0	0	0	965.4	NA	0.0000	HZ	8000	5350	0	0	0
2017/06/29 03:21:00	BASE	8.20	207	10.08	202	-7.9	78	-11.0	0	0	965.4	NA	0.0000	HZ	8000	5280	0	0	0
2017/06/29 03:22:00	BASE	8.12	206	10.08	202	-7.9	79	-10.9	0	0	965.4	NA	0.0000	HZ	8000	5380	0	0	0
2017/06/29 03:23:00	BASE	7.96	208	10.08	202	-7.9	79	-10.9	0	0	965.4	NA	0.0000	HZ	7000	5250	0	0	0
2017/06/29 03:24:00	BASE	7.39	205	9.52	216	-7.9	79	-10.9	0	0	965.4	NA	0.0000	HZ	7000	1510	5220	0	0
2017/06/29 03:25:00	BASE	7.68	206	9.62	204	-7.9	80	-10.8	0	0	965.4	NA	0.0000	HZ	7000	1510	5350	0	0
2017/06/29 03:26:00	BASE	8.01	209	9.62	204	-7.9	80	-10.8	0	0	965.4	NA	0.0000	HZ	7000	5250	0	0	0
2017/06/29 03:27:00	BASE	7.33	211	9.62	204	-7.9	80	-10.7	0	0	965.4	NA	0.0000	HZ	7000	5450	0	0	0
2017/06/29 03:28:00	BASE	6.87	204	9.62	204	-7.8	81	-10.6	0	0	965.4	NA	0.0000	HZ	7000	5180	0	0	0
2017/06/29 03:29:00	BASE	6.79	194	9.62	204	-7.8	80	-10.6	0	0	965.4	NA	0.0000	HZ	6000	5180	0	0	0
2017/06/29 03:30:00	BASE	7.37	195	9.62	204	-7.8	79	-10.8	0	0	965.4	NA	0.0000	HZ	6000	2100	5120	0	0
2017/06/29 03:31:00	BASE	7.71	198	9.62	204	-7.9	78	-11.0	0	0	965.3	NA	0.0000	HZ	7000	0	0	0	0
2017/06/29 03:32:00	BASE	7.11	198	9.62	204	-7.9	77	-11.2	0	0	965.4	NA	0.0000	HZ	7000	5090	0	0	0
2017/06/29 03:33:00	BASE	6.64	206	9.62	204	-7.9	76	-11.4	0	0	965.3	NA	0.0000	HZ	7000	5150	0	0	0
2017/06/29 03:34:00	BASE	6.20	211	9.62	204	-7.9	76	-11.5	0	0	965.4	NA	0.0000	HZ	7000	5150	0	0	0
2017/06/29 03:35:00	BASE	5.62	210	9.05	208	-7.9	75	-11.5	0	0	965.4	NA	0.0000	HZ	7000	5250	0	0	0
2017/06/29 03:36:00	BASE	5.47	208	8.39	196	-7.9	75	-11.6	0	0	965.3	NA	0.0000	HZ	8000	5350	0	0	0
2017/06/29 03:37:00	BASE	5.39	203	8.39	196	-8.0	74	-11.7	0	0	965.3	NA	0.0000	HZ	7000	5150	0	0	0
2017/06/29 03:38:00	BASE	5.25	195	8.39	196	-8.0	74	-11.9	0	0	965.3	NA	0.0000	HZ	8000	5090	0	0	0
2017/06/29 03:39:00	BASE	4.90	196	8.39	196	-7.9	73	-12.0	0	0	965.3	NA	0.0000	HZ	7000	5090	0	0	0
2017/06/29 03:40:00	BASE	4.72	203	8.23	204	-7.9	72	-12.0	0	0	965.3	NA	0.0000	HZ	7000	4890	0	0	0
2017/06/29 03:41:00	BASE	5.18	205	7.56	214	-7.9	72	-12.1	0	0	965.3	NA	0.0000	HZ	7000	5090	0	0	0
2017/06/29 03:42:00	BASE	6.09	205	7.56	200	-7.8	72	-12.0	0	0	965.2	NA	0.0000	HZ	8000	5180	0	0	0
2017/06/29 03:43:00	BASE	6.56	203	7.56	200	-7.7	71	-12.1	0	0	965.2	NA	0.0000	HZ	7000	5250	0	0	0
2017/06/29 03:44:00	BASE	6.39	205	7.56	200	-7.7	70	-12.2	0	0	965.2	NA	0.0000	HZ	7000	4990	0	0	0
2017/06/29 03:45:00	BASE	6.45	207	7.56	200	-7.7	69	-12.5	0	0	965.1	NA	0.0000	HZ	7000	5150	0	0	0
2017/06/29 03:46:00	BASE	6.70	206	7.56	200	-7.7	67	-12.7	0	0	965.2	NA	0.0000	HZ	7000	5020	0	0	0
2017/06/29 03:47:00	BASE	6.07	203	7.56	200	-7.6	66	-12.8	0	0	965.2	NA	0.0000	HZ	8000	5180	0	0	0
2017/06/29 03:48:00	BASE	5.55	205	7.56	200	-7.6	67	-12.8	0	0	965.2	NA	0.0000	HZ	8000	5090	0	0	0
2017/06/29 03:49:00	BASE	5.57	208	7.56	200	-7.6	67	-12.7	0	0	965.2	NA	0.0000	HZ	8000	5150	0	0	0
2017/06/29 03:50:00	BASE	5.54	207	7.56	200	-7.6	66	-12.8	0	0	965.2	NA	0.0000	HZ	8000	5120	0	0	0
2017/06/29 03:51:00	BASE	5.29	207	7.56	200	-7.6	66	-12.8	0	0	965.2	NA	0.0000	HZ	8000	4920	0	0	0
2017/06/29 03:52:00	BASE	4.58	207	7.41	204	-7.6	66	-12.8	0	0	965.2	NA	0.0000	HZ	8000	4920	0	0	0
2017/06/29 03:53:00	BASE	4.16	212	7.41	204	-7.6	66	-12.8	0	0	965.3	NA	0.0000	HZ	7000	5020	0	0	0
2017/06/29 03:54:00	BASE	4.45	214	7.41	204	-7.6	66	-12.8	0	0	965.3	NA	0.0000	HZ	8000	5320	0	0	0
2017/06/29 03:55:00	BASE	4.96	219	7.15	204	-7.5	66	-12.7	0	0	965.3	NA	0.0000	HZ	8000	5120	0	0	0
2017/06/29 03:56:00	BASE	5.23	226	6.53	211	-7.5	67	-12.6	0	0	965.3	NA	0.0000	HZ	8000	5120	0	0	0
2017/06/29 03:57:00	BASE	5.14	217	6.53	211	-7.5	67	-12.5	0	0	965.4	NA	0.0000	HZ	8000	4950	0	0	0
2017/06/29 03:58:00	BASE	5.47	208	6.64	213	-7.4	67	-12.6	0	0	965.4	NA	0.0000	HZ	7000	4950	0	0	0
2017/06/29 03:59:00	BASE	5.50	213	6.64	213	-7.4	66	-12.7	0	0	965.3	NA	0.0000	HZ	8000	4950	0	0	0
2017/06/29 04:00:00	BASE	4.55	214	6.64	213	-7.4	65	-12.8	0	0	965.3	NA	0.0000	HZ	8000	5120	0	0	0
2017/06/29 04:01:00	BASE	5.06	213	6.74	222	-7.4	65	-12.9	0	0	965.3	NA	0.0000	HZ	7000	5180	0	0	0
2017/06/29 04:02:00	BASE	5.79	217	6.74	222	-7.4	64	-13.1	0	0	965.3	NA	0.0000	HZ	8000	5250	0	0	0
2017/06/29 04:03:00	BASE	5.39	220	6.74	222	-7.4	64	-13.1	0	0	965.2	NA	0.0000	HZ	8000	5220	0	0	0
2017/06/29 04:04:00	BASE	5.75	210	7.25	196	-7.4	64	-13.0	0	0	965.2	NA	0.0000	HZ	8000	5280	0	0	0
2017/06/29 04:05:00	BASE	6.27	204	7.82	194	-7.3	63	-13.2	0	0	965.2	NA	0.0000	HZ	8000	5150	0	0	0
2017/06/29 04:06:00	BASE	5.87	215	7.82	194	-7.3	62	-13.3	0	0	965.2	NA	0.0000	HZ	7000	5090	0	0	0
2017/06/29 04:07:00	BASE	5.23	216	7.82	194	-7.3	62	-13.4	0	0	965.2	NA	0.0000	HZ	8000	5120	0	0	0
2017/06/29 04:08:00	BASE	5.73	208	7.82	194	-7.3	61	-13.5	0	0	965.2	NA	0.0000	HZ	8000	5050	0	0	0
2017/06/29 04:09:00	BASE	5.77	203	7.82	194	-7.4	61	-13.7	0	0	965.2	NA	0.0000	HZ	7000	5150	0	0	0
2017/06/29 04:10:00	BASE	5.18	204	7.82	194	-7.4	60	-13.8	0	0	965.2	NA	0.0000	HZ	7000	5180	0	0	0
2017/06/29 04:11:00	BASE	5.25	210	7.82	194	-7.4	61	-13.7	0	0	965.2	NA	0.0000	HZ	7000	5120	0	0	0
2017/06/29 04:12:00	BASE	5.46	210	7.82	194	-7.4	61	-13.7	0	0	965.3	NA	0.0000	HZ	8000	5180	0	0	0
2017/06/29 04:13:00	BASE	5.53	210	7.82	194	-7.4	61	-13.7	0	0	965.3	NA	0.0000	HZ	7000	5150	0	0	0
2017/06/29 04:14:00	BASE	6.18	209	7.82	194	-7.4	61	-13.7	0	0	965.3	NA	0.0000	HZ	7000	4990	0	0	0
2017/06/29 04:15:00	BASE	6.39	205	7.72	208	-7.3	60	-13.8	0	0	965.3	NA	0.0000	HZ	7000	5150	0	0	0
2017/06/29 04:16:00	BASE	5.17	210	7.72	208	-7.4	60	-13.9	0	0	965.3	NA	0.0000	HZ	7000	5180	0	0	0
2017/06/29 04:17:00	BASE	4.52	218	7.72	208	-7.4	59	-14.0	0	0	965.3	NA	0.0000	HZ	9000	5050	0	0	0
2017/06/29 04:18:00	BASE	4.48	217	7.72	208	-7.4	59	-14.0	0	0	965.3	NA	0.0000	HZ	9999	5090	0	0	0
2017/06/29 04:19:00	BASE	4.79	221	7.72	208	-7.4	60	-13.9	0	0	965.2	NA	0.0000	HZ	9999	5150	0	0	0
2017/06/29 04:20:00	BASE	5.28	218	7.72	208	-7.4	60	-13.8	0	0	965.3	NA	0.0000	HZ	9999	5120	0	0	0
2017/06/29 04:21:00	BASE	5.40	197	7.72	208	-7.4	60	-13.8	0	0	965.3	NA	0.0000	HZ	9999	4990	0	0	0
2017/06/29 04:22:00	BASE	5.26	189	7.72	208	-7.4	59	-14.0	0	0	965.2	NA	0.0000	HZ	9999	4990	0	0	0
2017/06/29 04:23:00	BASE	4.92	201	7.72	208	-7.4	59	-14.1	0	0	965.2	NA	0.0000		9999	4920	0	0	0
2017/06/29 04:24:00	BASE	4.70	220	6.69	210	-7.4	58	-14.2	0	0	965.2	NA	0.0000		9999	4890	0	0	0
2017/06/29 04:25:00	BASE	4.37	228	6.48	189	-7.4	59	-14.2	0	0	965.3	NA	0.0000		9999	4990	0	0	0
2017/06/29 04:26:00	BASE	3.95	227	6.48	189	-7.5	59	-14.2	0	0	965.3	NA	0.0000		9999	4920	0	0	0
2017/06/29 04:27:00	BASE	3.50	223	6.48	189	-7.5	59	-14.0	0	0	965.3	NA	0.0000		9999	4820	0	0	0
2017/06/29 04:28:00	BASE	3.42	224	6.48	189	-7.5	60	-13.9	0	0	965.3	NA	0.0000		9999	4760	0	0	0
2017/06/29 04:29:00	BASE	3.87	228	6.48	189	-7.5	60	-13.9	0	0	965.2	NA	0.0000		9999	4660	0	0	0
2017/06/29 04:30:00	BASE	4.10	222	6.48	189	-7.5	60	-13.9	0	0	965.2	NA	0.0000		9999	4790	0	0	0
2017/06/29 04:31:00	BASE	4.05	220	6.02	191	-7.5	61	-13.8	0	0	965.2	NA	0.0000		9999	4760	0	0	0
2017/06/29 04:32:00	BASE	3.75	221	5.61	221	-7.4	61	-13.7	0	0	965.3	NA	0.0000		9999	4720	0	0	0
2017/06/29 04:33:00	BASE	3.51	223	5.45	229	-7.4	61	-13.7	0	0	965.3	NA	0.0000		9999	4720	0	0	0
2017/06/29 04:34:00	BASE	4.13	218	5.45	218	-7.4	60	-13.8	0	0	965.3	NA	0.0000		9999	4760	0	0	0
2017/06/29 04:35:00	BASE	4.68	204	5.45	218	-7.4	60	-13.8	0	0	965.3	NA	0.0000		9999	4790	0	0	0
2017/06/29 04:36:00	BASE	4.04	198	5.45	218	-7.4	59	-13.9	0	0	965.3	NA	0.0000		9999	4590	0	0	0
2017/06/29 04:37:00	BASE	3.98	198	5.45	218	-7.3	59	-14.1	0	0	965.2	NA	0.0000		9999	4560	0	0	0
2017/06/29 04:38:00	BASE	4.58	205	5.45	218	-7.3	58	-14.2	0	0	965.2	NA	0.0000		9999	4460	0	0	0
2017/06/29 04:39:00	BASE	4.35	209	5.45	218	-7.3	57	-14.3	0	0	965.2	NA	0.0000		9999	4460	0	0	0
2017/06/29 04:40:00	BASE	3.50	204	5.45	218	-7.3	57	-14.4	0	0	965.2	NA	0.0000		9999	4400	0	0	0
2017/06/29 04:41:00	BASE	3.04	205	5.45	218	-7.3	57	-14.4	0	0	965.2	NA	0.0000		9999	4400	0	0	0
2017/06/29 04:42:00	BASE	3.29	204	5.45	218	-7.3	57	-14.3	0	0	965.2	NA	0.0000		9999	4360	0	0	0
2017/06/29 04:43:00	BASE	3.66	201	5.45	218	-7.3	57	-14.3	0	0	965.2	NA	0.0000		9999	4300	0	0	0
2017/06/29 04:44:00	BASE	3.64	204	5.30	206	-7.3	57	-14.3	0	0	965.2	NA	0.0000		9999	4460	0	0	0
2017/06/29 04:45:00	BASE	3.35	200	5.30	206	-7.3	57	-14.3	0	0	965.2	NA	0.0000		9999	4430	0	0	0
2017/06/29 04:46:00	BASE	3.29	208	5.30	206	-7.3	57	-14.3	0	0	965.1	NA	0.0000		9999	4460	0	0	0
2017/06/29 04:47:00	BASE	3.22	227	5.20	211	-7.3	58	-14.2	0	0	965.1	NA	0.0000		9999	4530	0	0	0
2017/06/29 04:48:00	BASE	2.80	227	4.68	212	-7.3	58	-14.1	0	0	965.1	NA	0.0000		9999	4630	0	0	0
2017/06/29 04:49:00	BASE	2.14	226	4.68	212	-7.4	59	-14.0	0	0	965.1	NA	0.0000		9999	4590	0	0	0
2017/06/29 04:50:00	BASE	1.79	232	4.68	212	-7.4	60	-13.8	0	0	965.1	NA	0.0000		9999	4560	0	0	0
2017/06/29 04:51:00	BASE	1.78	224	4.68	212	-7.5	61	-13.7	0	0	965.1	NA	0.0000		9999	4490	0	0	0
2017/06/29 04:52:00	BASE	2.31	204	4.68	212	-7.5	61	-13.7	0	0	965.1	NA	0.0000		9999	4490	0	0	0
2017/06/29 04:53:00	BASE	2.75	192	4.12	208	-7.5	61	-13.7	0	0	965.2	NA	0.0000		9999	4590	0	0	0
2017/06/29 04:54:00	BASE	2.91	199	3.76	233	-7.4	61	-13.7	0	0	965.2	NA	0.0000		9999	4560	0	0	0
2017/06/29 04:55:00	BASE	3.02	198	3.76	233	-7.4	60	-13.8	0	0	965.2	NA	0.0000		9999	4630	0	0	0
2017/06/29 04:56:00	BASE	2.82	191	3.55	220	-7.3	59	-13.9	0	0	965.2	NA	0.0000		9999	4590	0	0	0
2017/06/29 04:57:00	BASE	2.42	204	3.45	201	-7.3	59	-13.9	0	0	965.2	NA	0.0000		9999	4460	0	0	0
2017/06/29 04:58:00	BASE	1.31	209	3.45	201	-7.3	60	-13.7	0	0	965.2	NA	0.0000		9999	4330	0	0	0
2017/06/29 04:59:00	BASE	1.04	191	3.45	201	-7.3	61	-13.5	0	0	965.3	NA	0.0000		9999	4230	0	0	0
2017/06/29 05:00:00	BASE	1.55	180	3.45	201	-7.4	63	-13.3	0	0	965.3	NA	0.0000		9999	4400	0	0	0
2017/06/29 05:01:00	BASE	1.70	197	3.45	201	-7.4	64	-13.1	0	0	965.3	NA	0.0000		9999	4630	0	0	0
2017/06/29 05:02:00	BASE	2.02	212	3.45	201	-7.4	64	-13.0	0	0	965.3	NA	0.0000		9999	4530	0	0	0
2017/06/29 05:03:00	BASE	2.39	213	3.45	201	-7.4	64	-13.1	0	0	965.3	NA	0.0000		9999	4530	0	0	0
2017/06/29 05:04:00	BASE	2.44	210	3.40	180	-7.4	63	-13.2	0	0	965.3	NA	0.0000		9999	4490	0	0	0
2017/06/29 05:05:00	BASE	2.37	210	2.93	214	-7.3	62	-13.4	0	0	965.3	NA	0.0000		9999	4460	0	0	0
2017/06/29 05:06:00	BASE	2.12	216	2.93	214	-7.3	61	-13.5	0	0	965.3	NA	0.0000		9999	4330	0	0	0
2017/06/29 05:07:00	BASE	1.07	236	2.93	214	-7.3	61	-13.6	0	0	965.3	NA	0.0000		9999	4400	0	0	0
2017/06/29 05:08:00	BASE	0.17	254	2.93	214	-7.3	61	-13.6	0	0	965.3	NA	0.0000		9999	4270	0	0	0
2017/06/29 05:09:00	BASE	0.57	223	2.93	214	-7.3	61	-13.6	0	0	965.2	NA	0.0000		9999	4100	0	0	0
2017/06/29 05:10:00	BASE	1.31	187	2.93	214	-7.3	61	-13.5	0	0	965.2	NA	0.0000		9999	3870	0	0	0
2017/06/29 05:11:00	BASE	1.61	190	2.93	214	-7.3	62	-13.4	0	0	965.2	NA	0.0000		9999	3870	0	0	0
2017/06/29 05:12:00	BASE	1.79	202	2.93	214	-7.3	62	-13.4	0	0	965.2	NA	0.0000		9999	3870	0	0	0
2017/06/29 05:13:00	BASE	1.56	200	2.68	219	-7.3	62	-13.4	0	0	965.2	NA	0.0000		9999	3840	0	0	0
2017/06/29 05:14:00	BASE	0.90	201	2.68	219	-7.3	62	-13.4	0	0	965.2	NA	0.0000		9999	3810	0	0	0
2017/06/29 05:15:00	BASE	0.75	203	2.31	212	-7.3	62	-13.3	0	0	965.2	NA	0.0000		9999	3740	0	0	0
2017/06/29 05:16:00	BASE	1.27	186	2.26	180	-7.3	62	-13.3	0	0	965.2	NA	0.0000		9999	3740	0	0	0
2017/06/29 05:17:00	BASE	1.61	177	2.26	180	-7.3	62	-13.3	0	0	965.3	NA	0.0000		9999	3810	0	0	0
2017/06/29 05:18:00	BASE	1.32	178	2.26	180	-7.3	62	-13.3	0	0	965.3	NA	0.0000		9999	3670	0	0	0
2017/06/29 05:19:00	BASE	0.59	180	2.11	209	-7.3	63	-13.3	0	0	965.3	NA	0.0000		9999	4230	0	0	0
2017/06/29 05:20:00	BASE	0.09	196	2.11	209	-7.4	63	-13.2	0	0	965.3	NA	0.0000		9999	4300	0	0	0
2017/06/29 05:21:00	BASE	0.05	193	2.11	209	-7.4	63	-13.2	0	0	965.3	NA	0.0000		9999	4270	0	0	0
2017/06/29 05:22:00	BASE	0.41	168	2.11	209	-7.4	63	-13.2	0	0	965.2	NA	0.0000		9999	3900	0	0	0
2017/06/29 05:23:00	BASE	1.09	160	2.01	183	-7.4	64	-13.1	0	0	965.2	NA	0.0000		9999	3840	0	0	0
2017/06/29 05:24:00	BASE	1.38	160	2.01	183	-7.4	63	-13.2	0	0	965.2	NA	0.0000		9999	4170	0	0	0
2017/06/29 05:25:00	BASE	1.14	158	2.01	183	-7.4	63	-13.2	0	0	965.2	NA	0.0000		9999	3940	0	0	0
2017/06/29 05:26:00	BASE	0.73	162	2.01	183	-7.4	63	-13.3	0	0	965.2	NA	0.0000		9999	3870	0	0	0
2017/06/29 05:27:00	BASE	0.24	163	1.70	162	-7.4	62	-13.3	0	0	965.2	NA	0.0000		9999	4170	0	0	0
2017/06/29 05:28:00	BASE	0.00	146	1.70	162	-7.4	62	-13.4	0	0	965.2	NA	0.0000		9999	3970	0	0	0
2017/06/29 05:29:00	BASE	0.00	133	1.70	162	-7.4	62	-13.4	0	0	965.2	NA	0.0000		9999	3840	4360	0	0
2017/06/29 05:30:00	BASE	0.00	127	1.70	162	-7.4	63	-13.4	0	0	965.2	NA	0.0000		9999	3670	0	0	0
2017/06/29 05:31:00	BASE	0.00	120	1.70	162	-7.5	63	-13.3	0	0	965.2	NA	0.0000		9999	4170	0	0	0
2017/06/29 05:32:00	BASE	0.00	120	1.70	162	-7.5	63	-13.4	0	0	965.2	NA	0.0000		9999	4000	0	0	0
2017/06/29 05:33:00	BASE	0.00	116	1.49	155	-7.5	62	-13.4	0	0	965.2	NA	0.0000		9999	3770	0	0	0
2017/06/29 05:34:00	BASE	0.00	105	1.39	162	-7.5	62	-13.4	0	0	965.2	NA	0.0000		9999	4130	0	0	0
2017/06/29 05:35:00	BASE	0.00	102	1.29	166	-7.4	62	-13.5	0	0	965.1	NA	0.0000		9999	3900	4660	0	0
2017/06/29 05:36:00	BASE	0.00	100	M	M	-7.4	61	-13.6	0	0	965.1	NA	0.0000		9999	4460	0	0	0
2017/06/29 05:37:00	BASE	0.00	109	M	M	-7.4	61	-13.6	0	0	965.1	NA	0.0000		9999	3870	0	0	0
2017/06/29 05:38:00	BASE	0.00	128	M	M	-7.4	61	-13.6	0	0	965.1	NA	0.0000		9999	4430	0	0	0
2017/06/29 05:39:00	BASE	0.16	157	1.34	190	-7.4	61	-13.6	0	0	965.1	NA	0.0000		9999	4400	5020	0	0
2017/06/29 05:40:00	BASE	0.65	186	1.44	193	-7.4	61	-13.6	0	0	965.0	NA	0.0000		9999	4230	4950	0	0
2017/06/29 05:41:00	BASE	0.53	194	1.44	193	-7.4	62	-13.5	0	0	964.9	NA	0.0000		9999	4170	4820	0	0
2017/06/29 05:42:00	BASE	0.05	192	1.44	193	-7.4	62	-13.4	0	0	964.9	NA	0.0000		9999	4690	0	0	0
2017/06/29 05:43:00	BASE	0.00	187	1.44	193	-7.4	63	-13.3	0	0	964.9	NA	0.0000		9999	3870	4530	0	0
2017/06/29 05:44:00	BASE	0.00	184	1.44	193	-7.5	63	-13.3	0	0	964.9	NA	0.0000		9999	3810	4560	0	0
2017/06/29 05:45:00	BASE	0.00	184	1.44	193	-7.5	63	-13.3	0	0	964.8	NA	0.0000		9999	4430	0	0	0
2017/06/29 05:46:00	BASE	0.00	184	1.44	193	-7.5	63	-13.3	0	0	964.8	NA	0.0000		9999	4330	0	0	0
2017/06/29 05:47:00	BASE	0.00	184	1.44	193	-7.6	63	-13.4	0	0	964.8	NA	0.0000		9999	3840	4360	0	0
2017/06/29 05:48:00	BASE	0.00	183	1.44	193	-7.6	63	-13.4	0	0	964.8	NA	0.0000		9999	4270	0	0	0
2017/06/29 05:49:00	BASE	0.00	168	1.44	193	-7.6	63	-13.4	0	0	964.8	NA	0.0000		9999	4270	0	0	0
2017/06/29 05:50:00	BASE	0.00	37	1.08	188	-7.6	63	-13.5	0	0	964.8	NA	0.0000		9999	4300	0	0	0
2017/06/29 05:51:00	BASE	0.00	26	M	M	-7.6	62	-13.5	0	0	964.8	NA	0.0000		9999	4300	0	0	0
2017/06/29 05:52:00	BASE	0.00	43	M	M	-7.5	62	-13.5	0	0	964.8	NA	0.0000		9999	4300	0	0	0
2017/06/29 05:53:00	BASE	0.00	67	M	M	-7.5	62	-13.6	0	0	964.8	NA	0.0000		9999	4300	0	0	0
2017/06/29 05:54:00	BASE	0.14	73	1.18	68	-7.5	61	-13.6	0	0	964.8	NA	0.0000		9999	3710	4130	0	0
2017/06/29 05:55:00	BASE	0.37	64	1.18	57	-7.5	61	-13.7	0	0	964.9	NA	0.0000		9999	3870	0	0	0
2017/06/29 05:56:00	BASE	0.96	59	1.65	69	-7.5	61	-13.7	0	0	964.9	NA	0.0000		9999	3740	4270	0	0
2017/06/29 05:57:00	BASE	1.56	65	1.85	67	-7.5	61	-13.7	0	0	964.9	NA	0.0000		9999	3610	0	0	0
2017/06/29 05:58:00	BASE	1.80	65	2.06	61	-7.6	62	-13.5	0	0	964.9	NA	0.0000		9999	4170	0	0	0
2017/06/29 05:59:00	BASE	2.03	60	2.31	53	-7.6	63	-13.4	0	0	964.9	NA	0.0000		9999	4170	0	0	0
2017/06/29 06:00:00	BASE	2.21	56	2.47	56	-7.6	64	-13.3	0	0	965.0	NA	0.0000		9999	4000	0	0	0
2017/06/29 06:01:00	BASE	2.26	52	2.52	47	-7.7	65	-13.1	0	0	965.0	NA	0.0000		9999	4170	0	0	0
2017/06/29 06:02:00	BASE	2.45	41	3.29	21	-7.6	65	-13.0	0	0	964.9	NA	0.0000		9999	4000	0	0	0
2017/06/29 06:03:00	BASE	2.73	27	3.45	18	-7.6	65	-13.0	0	0	964.9	NA	0.0000		9999	4040	0	0	0
2017/06/29 06:04:00	BASE	3.06	22	3.65	24	-7.6	66	-12.9	0	0	964.9	NA	0.0000		9999	3810	0	0	0
2017/06/29 06:05:00	BASE	3.33	22	3.65	24	-7.5	66	-12.8	0	0	964.8	NA	0.0000		9999	3610	0	0	0
2017/06/29 06:06:00	BASE	3.21	20	3.65	24	-7.5	66	-12.8	0	0	964.9	NA	0.0000		9999	3900	0	0	0
2017/06/29 06:07:00	BASE	3.17	21	3.65	24	-7.5	66	-12.8	0	0	964.8	NA	0.0000		9999	3900	0	0	0
2017/06/29 06:08:00	BASE	3.26	20	3.65	24	-7.6	66	-12.9	0	0	964.8	NA	0.0000		9999	3770	0	0	0
2017/06/29 06:09:00	BASE	3.34	19	3.65	24	-7.6	65	-12.9	0	0	964.9	NA	0.0000		9999	3900	0	0	0
2017/06/29 06:10:00	BASE	3.50	19	4.01	20	-7.6	66	-12.9	0	0	964.9	NA	0.0000		9999	3870	0	0	0
2017/06/29 06:11:00	BASE	3.84	20	4.37	16	-7.6	66	-12.9	0	0	964.8	NA	0.0000		9999	3870	0	0	0
2017/06/29 06:12:00	BASE	4.24	21	4.68	30	-7.7	66	-12.8	0	0	964.8	NA	0.0000		9999	3840	0	0	0
2017/06/29 06:13:00	BASE	4.53	23	4.94	21	-7.7	66	-12.9	0	0	964.8	NA	0.0000		9999	3900	0	0	0
2017/06/29 06:14:00	BASE	4.92	25	5.56	30	-7.7	66	-12.9	0	0	964.7	NA	0.0000		9999	3810	0	0	0
2017/06/29 06:15:00	BASE	5.21	26	5.61	28	-7.7	66	-13.0	0	0	964.7	NA	0.0000		9999	3840	0	0	0
2017/06/29 06:16:00	BASE	5.22	27	5.61	28	-7.7	65	-13.2	0	0	964.6	NA	0.0000		9999	3870	0	0	0
2017/06/29 06:17:00	BASE	5.10	29	5.61	28	-7.7	65	-13.2	0	0	964.6	NA	0.0000		9999	3840	0	0	0
2017/06/29 06:18:00	BASE	5.10	29	5.61	28	-7.7	65	-13.2	0	0	964.6	NA	0.0000		9999	3840	0	0	0
2017/06/29 06:19:00	BASE	5.28	30	5.61	27	-7.7	64	-13.3	0	0	964.6	NA	0.0000		9999	3740	0	0	0
2017/06/29 06:20:00	BASE	5.37	32	5.66	33	-7.7	64	-13.3	0	0	964.6	NA	0.0000		9999	3710	0	0	0
2017/06/29 06:21:00	BASE	5.22	34	5.66	33	-7.7	64	-13.3	0	0	964.6	NA	0.0000		9999	3770	0	0	0
2017/06/29 06:22:00	BASE	5.00	37	5.66	33	-7.7	64	-13.2	0	0	964.6	NA	0.0000		9999	3710	0	0	0
2017/06/29 06:23:00	BASE	4.84	38	5.66	33	-7.7	65	-13.2	0	0	964.6	NA	0.0000		9999	7350	0	0	0
2017/06/29 06:24:00	BASE	4.44	39	5.66	33	-7.6	65	-13.1	0	0	964.6	NA	0.0000		9999	6990	0	0	0
2017/06/29 06:25:00	BASE	4.39	39	5.66	33	-7.6	65	-13.1	0	0	964.5	NA	0.0000		9999	6690	0	0	0
2017/06/29 06:26:00	BASE	4.55	38	5.66	33	-7.5	64	-13.1	0	0	964.6	NA	0.0000		9999	6460	0	0	0
2017/06/29 06:27:00	BASE	4.37	38	5.66	33	-7.5	64	-13.1	0	0	964.6	NA	0.0000		9999	6040	0	0	0
2017/06/29 06:28:00	BASE	4.71	36	5.66	33	-7.5	64	-13.1	0	0	964.6	NA	0.0000		9999	5770	0	0	0
2017/06/29 06:29:00	BASE	5.17	31	5.71	31	-7.5	64	-13.0	0	0	964.6	NA	0.0000		9999	5640	0	0	0
2017/06/29 06:30:00	BASE	5.14	32	5.71	31	-7.4	64	-13.0	0	0	964.6	NA	0.0000		9999	5510	0	0	0
2017/06/29 06:31:00	BASE	5.27	32	6.17	32	-7.4	65	-12.9	0	0	964.5	NA	0.0000		9999	5250	0	0	0
2017/06/29 06:32:00	BASE	5.56	32	6.17	32	-7.4	65	-12.9	0	0	964.5	NA	0.0000		9999	5150	0	0	0
2017/06/29 06:33:00	BASE	5.46	34	6.17	32	-7.4	64	-12.9	0	0	964.5	NA	0.0000		9999	5480	0	0	0
2017/06/29 06:34:00	BASE	5.54	34	6.17	37	-7.4	64	-13.0	0	0	964.5	NA	0.0000		9999	5410	0	0	0
2017/06/29 06:35:00	BASE	5.46	33	6.17	37	-7.4	64	-13.1	0	0	964.5	NA	0.0000		9999	5640	0	0	0
2017/06/29 06:36:01	BASE	5.04	30	6.17	37	-7.4	63	-13.2	0	0	964.5	NA	0.0000		9999	5870	0	0	0
2017/06/29 06:37:00	BASE	4.97	29	6.17	37	-7.4	64	-13.1	0	0	964.6	NA	0.0000		9999	5740	0	0	0
2017/06/29 06:38:00	BASE	4.87	25	6.17	37	-7.3	64	-13.0	0	0	964.6	NA	0.0000		9999	5540	0	0	0
2017/06/29 06:39:00	BASE	4.94	21	6.17	37	-7.3	64	-13.0	0	0	964.5	NA	0.0000		9999	5220	0	0	0
2017/06/29 06:40:00	BASE	5.01	22	6.17	37	-7.3	64	-13.1	0	0	964.5	NA	0.0000		9999	5090	0	0	0
2017/06/29 06:41:00	BASE	5.00	25	6.17	37	-7.3	63	-13.1	0	0	964.5	NA	0.0000		9999	5020	0	0	0
2017/06/29 06:42:00	BASE	5.30	27	6.17	37	-7.3	63	-13.1	0	0	964.5	NA	0.0000		9999	4890	0	0	0
2017/06/29 06:43:00	BASE	5.13	27	6.17	37	-7.2	62	-13.3	0	0	964.5	NA	0.0000		9999	4760	0	0	0
2017/06/29 06:44:00	BASE	5.02	28	6.02	24	-7.2	62	-13.2	0	0	964.5	NA	0.0000		9999	4530	0	0	0
2017/06/29 06:45:00	BASE	5.24	28	6.02	24	-7.2	62	-13.2	0	0	964.5	NA	0.0000		9999	4330	0	0	0
2017/06/29 06:46:00	BASE	5.22	27	6.02	24	-7.2	62	-13.2	0	0	964.5	NA	0.0000		9999	4040	0	0	0
2017/06/29 06:47:00	BASE	4.86	25	6.02	24	-7.2	62	-13.3	0	0	964.5	NA	0.0000		9999	3740	0	0	0
2017/06/29 06:48:00	BASE	4.35	22	6.02	24	-7.2	62	-13.2	0	0	964.5	NA	0.0000		9999	3540	0	0	0
2017/06/29 06:49:00	BASE	4.55	24	6.02	24	-7.2	62	-13.2	0	0	964.5	NA	0.0000		9999	3480	0	0	0
2017/06/29 06:50:00	BASE	4.66	25	6.02	24	-7.2	62	-13.2	0	0	964.5	NA	0.0000		9999	5410	0	0	0
2017/06/29 06:51:00	BASE	4.31	25	5.81	25	-7.2	62	-13.2	0	0	964.5	NA	0.0000		9999	5540	0	0	0
2017/06/29 06:52:00	BASE	4.25	29	5.81	25	-7.1	62	-13.1	0	0	964.5	NA	0.0000		9999	5580	0	0	0
2017/06/29 06:53:00	BASE	4.39	31	5.81	25	-7.1	63	-13.1	0	0	964.5	NA	0.0000		9999	5320	0	0	0
2017/06/29 06:54:00	BASE	4.61	30	5.81	25	-7.1	62	-13.1	0	0	964.5	NA	0.0000		9999	5050	0	0	0
2017/06/29 06:55:00	BASE	4.81	32	5.71	31	-7.0	62	-13.1	0	0	964.5	NA	0.0000		9999	4790	0	0	0
2017/06/29 06:56:00	BASE	4.67	34	5.50	26	-7.0	62	-13.0	0	0	964.5	NA	0.0000		9999	4530	0	0	0
2017/06/29 06:57:00	BASE	4.74	36	5.56	37	-6.9	63	-12.9	0	0	964.4	NA	0.0000		9999	7710	0	0	0
2017/06/29 06:58:00	BASE	5.19	36	5.71	32	-6.9	63	-12.8	0	0	964.3	NA	0.0000		9999	7640	0	0	0
2017/06/29 06:59:00	BASE	5.37	33	5.71	32	-6.9	64	-12.7	0	0	964.3	NA	0.0000		9999	7580	0	0	0
2017/06/29 07:00:00	BASE	5.50	31	6.02	36	-6.9	64	-12.5	0	0	964.3	NA	0.0000		9999	6000	0	0	0
2017/06/29 07:01:00	BASE	5.65	30	6.02	36	-6.9	64	-12.5	0	0	964.2	NA	0.0000		9999	4860	0	0	0
2017/06/29 07:02:00	BASE	5.56	31	6.02	36	-6.9	64	-12.5	0	0	964.2	NA	0.0000		9999	4950	0	0	0
2017/06/29 07:03:00	BASE	5.65	29	6.48	24	-6.9	64	-12.6	0	0	964.2	NA	0.0000		9999	4950	0	0	0
2017/06/29 07:04:00	BASE	5.34	25	6.48	24	-6.9	64	-12.7	0	0	964.2	NA	0.0000		9999	4690	0	0	0
2017/06/29 07:05:00	BASE	5.21	23	6.48	24	-6.9	64	-12.7	0	0	964.2	NA	0.0000		9999	4630	0	0	0
2017/06/29 07:06:00	BASE	5.67	23	6.48	24	-6.9	64	-12.7	0	0	964.2	NA	0.0000		9999	4360	0	0	0
2017/06/29 07:07:00	BASE	5.83	23	6.74	23	-6.9	63	-12.7	0	0	964.2	NA	0.0000		9999	4270	0	0	0
2017/06/29 07:08:00	BASE	5.84	24	6.74	23	-6.9	63	-12.8	0	0	964.2	NA	0.0000		9999	4130	0	0	0
2017/06/29 07:09:00	BASE	5.68	23	6.74	23	-6.8	63	-12.7	0	0	964.2	NA	0.0000		9999	4070	0	0	0
2017/06/29 07:10:00	BASE	6.01	23	6.74	25	-6.8	63	-12.7	0	0	964.2	NA	0.0000		9999	3870	0	0	0
2017/06/29 07:11:00	BASE	6.50	26	7.05	24	-6.8	63	-12.7	0	0	964.2	NA	0.0000		9999	3870	0	0	0
2017/06/29 07:12:00	BASE	6.33	25	7.05	24	-6.8	64	-12.6	0	0	964.2	NA	0.0000		9999	3870	0	0	0
2017/06/29 07:13:00	BASE	6.23	23	7.05	24	-6.8	64	-12.4	0	0	964.1	NA	0.0000		9999	3870	0	0	0
2017/06/29 07:14:00	BASE	6.46	23	7.05	24	-6.8	65	-12.4	0	0	964.1	NA	0.0000		9999	4000	0	0	0
2017/06/29 07:15:00	BASE	6.48	25	7.05	24	-6.8	65	-12.4	0	0	964.1	NA	0.0000		9999	4400	0	0	0
2017/06/29 07:16:00	BASE	6.48	28	7.31	33	-6.8	65	-12.2	0	0	964.1	NA	0.0000		9999	4590	0	0	0
2017/06/29 07:17:00	BASE	6.52	27	7.31	33	-6.8	66	-12.2	0	0	964.1	NA	0.0000		9999	4270	0	0	0
2017/06/29 07:18:00	BASE	6.56	25	7.31	26	-6.8	66	-12.1	0	0	964.0	NA	0.0000		9999	4040	0	0	0
2017/06/29 07:19:00	BASE	6.63	24	7.31	26	-6.8	66	-12.1	0	0	964.0	NA	0.0000		9999	3970	0	0	0
2017/06/29 07:20:00	BASE	6.50	23	7.31	26	-6.8	67	-12.0	0	0	964.0	NA	0.0000		9999	3900	0	0	0
2017/06/29 07:21:00	BASE	6.60	25	7.67	24	-6.8	67	-12.0	0	0	964.0	NA	0.0000		9999	0	0	0	4860
2017/06/29 07:22:00	BASE	6.73	28	7.82	30	-6.8	67	-12.0	0	0	963.9	NA	0.0000		9999	0	0	0	5450
2017/06/29 07:23:00	BASE	6.86	29	7.82	30	-6.8	67	-12.0	0	0	963.9	NA	0.0000		9999	4300	0	0	0
2017/06/29 07:24:00	BASE	6.91	28	7.82	30	-6.8	67	-11.9	0	0	963.9	NA	0.0000		9999	0	0	0	5180
2017/06/29 07:25:00	BASE	6.82	27	7.82	30	-6.8	67	-12.0	0	0	963.9	NA	0.0000		9999	0	0	0	4950
2017/06/29 07:26:00	BASE	6.57	28	7.82	30	-6.8	67	-11.9	0	0	963.9	NA	0.0000		9999	0	0	0	4590
2017/06/29 07:27:00	BASE	6.48	28	7.82	30	-6.8	67	-11.8	0	0	963.9	NA	0.0000		9999	0	0	0	4400
2017/06/29 07:28:00	BASE	6.62	28	7.82	30	-6.8	67	-11.8	0	0	963.9	NA	0.0000		9999	0	0	0	4270
2017/06/29 07:29:00	BASE	6.34	29	7.82	30	-6.7	68	-11.7	0	0	963.9	NA	0.0000		9999	0	0	0	4200
2017/06/29 07:30:00	BASE	6.37	29	7.82	30	-6.7	68	-11.6	0	0	963.9	NA	0.0000		9999	0	0	0	3970
2017/06/29 07:31:00	BASE	6.66	27	7.82	30	-6.7	68	-11.6	0	0	963.9	NA	0.0000		9999	3410	0	0	0
2017/06/29 07:32:00	BASE	6.89	26	7.72	41	-6.7	68	-11.6	0	0	963.9	NA	0.0000		9999	0	0	0	3640
2017/06/29 07:33:00	BASE	6.61	26	7.41	25	-6.7	68	-11.5	0	0	963.9	NA	0.0000		9999	0	0	0	3640
2017/06/29 07:34:00	BASE	6.48	26	7.61	24	-6.7	68	-11.5	0	0	963.9	NA	0.0000		9999	3310	0	0	0
2017/06/29 07:35:00	BASE	6.61	26	7.61	24	-6.7	68	-11.5	0	0	963.9	NA	0.0000		9999	0	0	0	3970
2017/06/29 07:36:00	BASE	6.35	24	7.61	24	-6.7	69	-11.4	0	0	963.9	NA	0.0000		9999	0	0	0	3900
2017/06/29 07:37:00	BASE	6.42	26	7.61	24	-6.7	70	-11.3	0	0	963.9	NA	0.0000		9999	0	0	0	4460
2017/06/29 07:38:00	BASE	6.91	30	7.67	31	-6.7	70	-11.2	0	0	963.8	NA	0.0000	-SN	8000	0	0	0	4630
2017/06/29 07:39:00	BASE	7.25	29	7.72	30	-6.7	71	-11.1	0	0	963.8	NA	0.0000	-SN	6000	0	0	0	4360
2017/06/29 07:40:00	BASE	7.20	29	8.08	29	-6.7	71	-11.0	0	0	963.8	NA	0.0000	-SN	5000	0	0	0	4130
2017/06/29 07:41:00	BASE	6.89	31	8.08	29	-6.7	72	-11.0	0	0	963.8	NA	0.0000	-SN	5000	0	0	0	4040
2017/06/29 07:42:00	BASE	6.58	31	8.08	29	-6.8	73	-10.9	0	0	963.7	NA	0.0000	-SN	6000	0	0	0	4170
2017/06/29 07:43:00	BASE	6.39	28	8.08	29	-6.8	73	-10.8	0	0	963.7	NA	0.0000	-SN	8000	0	0	0	4000
2017/06/29 07:44:00	BASE	6.24	28	8.08	29	-6.8	73	-10.8	0	0	963.7	NA	0.0000	-SN	9000	0	0	0	3710
2017/06/29 07:45:00	BASE	6.54	28	8.08	29	-6.7	74	-10.7	0	0	963.6	NA	0.0000	-SN	9000	0	0	0	3770
2017/06/29 07:46:00	BASE	6.64	27	8.08	29	-6.7	74	-10.6	0	0	963.6	NA	0.0000	-SN	9000	0	0	0	3970
2017/06/29 07:47:00	BASE	6.57	28	8.08	29	-6.6	73	-10.6	0	0	963.5	NA	0.0000	-SN	9000	0	0	0	4230
2017/06/29 07:48:00	BASE	6.56	29	8.08	29	-6.6	74	-10.5	0	0	963.5	NA	0.0000	-SN	7000	0	0	0	4200
2017/06/29 07:49:00	BASE	6.85	28	8.18	24	-6.6	74	-10.4	0	0	963.4	NA	0.0000	-SN	7000	0	0	0	3900
2017/06/29 07:50:00	BASE	7.43	28	8.18	24	-6.6	74	-10.4	0	0	963.4	NA	0.0000	-SN	7000	0	0	0	3610
2017/06/29 07:51:00	BASE	7.96	31	8.75	31	-6.6	75	-10.3	0	0	963.4	NA	0.0000	-SN	6000	0	0	0	3540
2017/06/29 07:52:00	BASE	8.30	32	8.75	34	-6.6	75	-10.3	0	0	963.4	NA	0.0000	-SN	5000	0	0	0	3480
2017/06/29 07:53:00	BASE	8.16	32	8.95	31	-6.6	75	-10.3	0	0	963.3	NA	0.0000	-SN	5000	0	0	0	3540
2017/06/29 07:54:00	BASE	8.15	32	8.95	31	-6.6	75	-10.3	0	0	963.3	NA	0.0000	-SN	6000	0	0	0	3710
2017/06/29 07:55:00	BASE	8.23	32	8.95	31	-6.6	75	-10.3	0	0	963.3	NA	0.0000	-SN	5000	390	0	0	0
2017/06/29 07:56:00	BASE	8.09	33	8.95	31	-6.6	75	-10.3	0	0	963.2	NA	0.0000	-SN	5000	0	0	0	3810
2017/06/29 07:57:00	BASE	7.47	32	8.95	31	-6.5	75	-10.3	0	0	963.2	NA	0.0000	-SN	6000	0	0	0	3840
2017/06/29 07:58:00	BASE	6.99	33	8.95	31	-6.5	75	-10.3	0	0	963.2	NA	0.0000	-SN	6000	0	0	0	3900
2017/06/29 07:59:00	BASE	7.09	33	8.95	31	-6.5	75	-10.3	0	0	963.1	NA	0.0000	-SN	5000	2070	0	0	0
2017/06/29 08:00:00	BASE	7.38	33	8.95	31	-6.5	74	-10.3	0	0	963.1	NA	0.0000	-SN	4400	0	0	0	3970
2017/06/29 08:01:00	BASE	7.43	32	8.95	31	-6.4	74	-10.3	0	0	963.1	NA	0.0000	-SN	4500	0	0	0	3940
2017/06/29 08:02:00	BASE	7.72	30	9.00	28	-6.4	74	-10.3	0	0	963.1	NA	0.0000	-SN	5000	390	0	0	0
2017/06/29 08:03:00	BASE	7.93	30	9.00	28	-6.4	74	-10.3	0	0	963.1	NA	0.0000	-SN	7000	0	0	0	4170
2017/06/29 08:04:00	BASE	8.03	29	9.00	28	-6.3	74	-10.2	0	0	963.1	NA	0.0000	-SN	7000	0	0	0	4070
2017/06/29 08:05:00	BASE	7.97	29	9.00	28	-6.3	75	-10.1	0	0	963.1	NA	0.0000	-SN	7000	0	0	0	4000
2017/06/29 08:06:00	BASE	7.55	29	9.00	28	-6.3	75	-10.0	0	0	963.1	NA	0.0000	-SN	8000	0	0	0	4000
2017/06/29 08:07:00	BASE	7.61	29	9.00	28	-6.2	75	-10.0	0	0	963.1	NA	0.0000	-SN	8000	620	0	0	0
2017/06/29 08:08:00	BASE	8.04	30	9.00	28	-6.2	75	-10.0	0	0	963.1	NA	0.0000	-SN	7000	390	0	0	0
2017/06/29 08:09:00	BASE	8.47	32	9.11	29	-6.2	75	-10.0	0	0	963.1	NA	0.0000	-SN	5000	0	0	0	3450
2017/06/29 08:10:00	BASE	8.40	32	9.11	29	-6.2	75	-10.0	0	0	963.1	NA	0.0000	-SN	4900	0	0	0	3410
2017/06/29 08:11:00	BASE	7.92	31	9.11	29	-6.2	75	-9.9	0	0	963.1	NA	0.0000	-SN	5000	0	0	0	3380
2017/06/29 08:12:00	BASE	7.54	29	9.11	29	-6.2	75	-9.9	0	0	963.1	NA	0.0000	-SN	5000	330	0	0	0
2017/06/29 08:13:00	BASE	7.05	29	9.11	29	-6.2	76	-9.8	0	0	963.1	NA	0.0000	-SN	5000	360	0	0	0
2017/06/29 08:14:00	BASE	6.73	29	9.11	29	-6.2	76	-9.7	0	0	963.1	NA	0.0000	-SN	6000	390	0	0	0
2017/06/29 08:15:00	BASE	6.89	30	9.11	29	-6.2	76	-9.7	0	0	963.1	NA	0.0000	-SN	6000	1410	0	0	0
2017/06/29 08:16:00	BASE	6.98	31	9.11	29	-6.1	75	-9.8	0	0	963.1	NA	0.0000	-SN	6000	0	0	0	3120
2017/06/29 08:17:00	BASE	6.47	30	9.11	29	-6.1	75	-9.8	0	0	963.2	NA	0.0000	-SN	6000	0	0	0	2920
2017/06/29 08:18:00	BASE	6.34	31	9.11	29	-6.0	75	-9.8	0	0	963.2	NA	0.0000	-SN	6000	0	0	0	2790
2017/06/29 08:19:00	BASE	6.12	32	8.95	35	-6.0	75	-9.8	0	0	963.2	NA	0.0000	-SN	6000	0	0	0	2690
2017/06/29 08:20:00	BASE	5.90	33	8.49	25	-6.0	75	-9.7	0	0	963.2	NA	0.0000	-SN	6000	0	0	0	2620
2017/06/29 08:21:00	BASE	6.37	35	8.28	30	-6.0	75	-9.7	0	0	963.2	NA	0.0000	-SN	6000	0	0	0	2620
2017/06/29 08:22:00	BASE	6.26	34	7.97	26	-6.0	75	-9.8	0	0	963.2	NA	0.0000	-SN	8000	0	0	0	2560
2017/06/29 08:23:00	BASE	6.08	35	7.97	26	-6.0	75	-9.8	0	0	963.1	NA	0.0000	-SN	8000	0	0	0	2430
2017/06/29 08:24:00	BASE	6.14	37	7.97	26	-6.0	75	-9.7	0	0	963.1	NA	0.0000	-SN	6000	0	0	0	2330
2017/06/29 08:25:00	BASE	6.29	41	7.97	26	-6.0	75	-9.7	0	0	963.1	NA	0.0000	-SN	5000	0	0	0	2330
2017/06/29 08:26:01	BASE	6.62	43	7.41	43	-6.0	75	-9.7	0	0	963.1	NA	0.0000	-SN	3900	0	0	0	2170
2017/06/29 08:27:00	BASE	7.00	44	7.92	43	-6.0	76	-9.6	0	0	963.0	NA	0.0000	-SN	3200	0	0	0	2070
2017/06/29 08:28:00	BASE	7.04	43	7.92	43	-6.0	76	-9.5	0	0	963.1	NA	0.0000	-SN	3100	0	0	0	2000
2017/06/29 08:29:00	BASE	6.84	41	7.92	43	-6.0	77	-9.4	0	0	963.1	NA	0.0000	-SN	3300	0	0	0	2030
2017/06/29 08:30:00	BASE	6.56	44	7.92	43	-6.0	77	-9.3	0	0	963.1	NA	0.0000	-SN	3800	0	0	0	2000
2017/06/29 08:31:00	BASE	6.25	46	7.92	43	-6.0	77	-9.3	0	0	963.1	NA	0.0000	-SN	4700	0	0	0	2100
2017/06/29 08:32:00	BASE	5.80	51	7.92	43	-5.9	77	-9.3	0	0	963.1	NA	0.0000	-SN	5000	0	0	0	2850
2017/06/29 08:33:00	BASE	5.35	58	7.92	43	-5.9	76	-9.4	0	0	963.1	NA	0.0000	-SN	5000	0	0	0	2890
2017/06/29 08:34:00	BASE	5.54	60	7.92	43	-6.0	76	-9.5	0	0	963.0	NA	0.0000	-SN	4500	0	0	0	3120
2017/06/29 08:35:00	BASE	5.50	57	7.92	43	-6.0	76	-9.6	0	0	962.9	NA	0.0000	-SN	5000	0	0	0	3220
2017/06/29 08:36:00	BASE	5.07	57	7.92	43	-6.0	75	-9.7	0	0	962.9	NA	0.0000	-SN	6000	0	0	0	3150
2017/06/29 08:37:00	BASE	4.74	60	7.82	40	-6.1	76	-9.7	0	0	962.9	NA	0.0000	-SN	6000	0	0	0	3050
2017/06/29 08:38:00	BASE	4.98	57	7.46	42	-6.1	75	-9.7	0	0	962.9	NA	0.0000	-SN	7000	0	0	0	3020
2017/06/29 08:39:00	BASE	5.74	50	6.84	38	-6.0	75	-9.7	0	0	962.9	NA	0.0000	-SN	6000	1540	0	0	0
2017/06/29 08:40:00	BASE	5.74	48	6.84	41	-6.0	75	-9.7	0	0	962.8	NA	0.0000	-SN	6000	0	0	0	2690
2017/06/29 08:41:00	BASE	6.26	49	8.18	47	-5.9	75	-9.7	0	0	962.8	NA	0.0000	-SN	7000	360	0	0	0
2017/06/29 08:42:00	BASE	7.23	45	8.49	39	-5.9	74	-9.7	0	0	962.7	NA	0.0000	-SN	6000	360	0	0	0
2017/06/29 08:43:00	BASE	7.35	39	8.49	39	-5.8	74	-9.7	0	0	962.7	NA	0.0000	-SN	8000	330	0	0	0
2017/06/29 08:44:00	BASE	7.22	38	8.49	39	-5.7	74	-9.6	0	0	962.7	NA	0.0000	-SN	6000	300	0	0	0
2017/06/29 08:45:00	BASE	6.88	39	8.49	39	-5.7	74	-9.5	0	0	962.6	NA	0.0000	-SN	4600	300	0	0	0
2017/06/29 08:46:00	BASE	6.56	40	8.49	39	-5.6	75	-9.3	0	0	962.6	NA	0.0000	-SN	4500	230	0	0	0
2017/06/29 08:47:00	BASE	6.65	41	8.49	39	-5.6	76	-9.2	0	0	962.5	NA	0.0000	-SN	3500	0	0	0	1710
2017/06/29 08:48:00	BASE	6.84	41	8.49	39	-5.7	77	-9.0	0	0	962.5	NA	0.0000	-SN	3300	0	0	0	1940
2017/06/29 08:49:00	BASE	7.05	41	8.49	39	-5.7	78	-8.9	0	0	962.4	NA	0.0000	-SN	3800	0	0	0	2100
2017/06/29 08:50:00	BASE	7.33	42	8.49	39	-5.7	78	-8.8	0	0	962.3	NA	0.0000	-SN	3700	0	0	0	2400
2017/06/29 08:51:00	BASE	7.45	39	8.49	34	-5.6	78	-8.9	0	0	962.3	NA	0.0000	-SN	4100	0	0	0	3580
2017/06/29 08:52:00	BASE	7.36	38	8.49	33	-5.6	77	-9.0	0	0	962.3	NA	0.0000	-SN	4500	0	0	0	3770
2017/06/29 08:53:00	BASE	7.67	37	8.75	28	-5.5	76	-9.1	0	0	962.2	NA	0.0000	-SN	5000	0	0	0	3810
2017/06/29 08:54:00	BASE	8.02	37	8.75	28	-5.4	74	-9.3	0	0	962.2	NA	0.0000	-SN	7000	0	0	0	4040
2017/06/29 08:55:00	BASE	7.65	37	8.75	28	-5.4	74	-9.3	0	0	962.1	NA	0.0000	-SN	9999	0	0	0	4330
2017/06/29 08:56:00	BASE	7.53	33	8.85	29	-5.3	73	-9.4	0	0	962.1	NA	0.0000	-SN	9999	0	0	0	4330
2017/06/29 08:57:00	BASE	8.39	29	9.62	29	-5.3	73	-9.4	0	0	962.0	NA	0.0000	-SN	9999	2920	0	0	0
2017/06/29 08:58:00	BASE	9.29	30	10.13	29	-5.3	72	-9.5	0	0	962.0	NA	0.0000	-SN	9999	2820	0	0	0
2017/06/29 08:59:00	BASE	9.42	31	10.13	29	-5.3	72	-9.5	0	0	962.0	NA	0.0000	-SN	9999	1670	0	0	0
2017/06/29 09:00:00	BASE	8.94	30	10.13	29	-5.2	72	-9.5	0	0	962.0	NA	0.0000	-SN	9999	2100	0	0	0
2017/06/29 09:01:00	BASE	8.44	30	10.13	29	-5.2	72	-9.5	0	0	962.0	NA	0.0000	-SN	9999	0	0	0	4070
2017/06/29 09:02:00	BASE	8.09	31	10.13	29	-5.2	71	-9.6	0	0	962.0	NA	0.0000	-SN	9999	0	0	0	4230
2017/06/29 09:03:00	BASE	7.91	31	10.13	29	-5.2	71	-9.6	0	0	962.0	NA	0.0000	-SN	9999	1540	0	0	0
2017/06/29 09:04:00	BASE	7.78	31	10.13	29	-5.2	71	-9.6	0	0	962.0	NA	0.0000	-SN	9999	2720	0	0	0
2017/06/29 09:05:00	BASE	7.43	30	10.13	29	-5.1	71	-9.6	0	0	962.1	NA	0.0000		9999	3080	0	0	0
2017/06/29 09:06:00	BASE	7.35	29	10.13	29	-5.1	71	-9.6	0	0	962.0	NA	0.0000		9999	3480	0	0	0
2017/06/29 09:07:00	BASE	7.32	30	10.13	29	-5.0	70	-9.6	0	0	962.0	NA	0.0000		9999	3280	0	0	0
2017/06/29 09:08:00	BASE	6.86	34	9.83	30	-5.0	70	-9.7	0	0	962.1	NA	0.0000		9999	3350	0	0	0
2017/06/29 09:09:00	BASE	6.02	36	9.21	31	-4.9	69	-9.7	0	0	962.1	NA	0.0000		9999	3280	0	0	0
2017/06/29 09:10:00	BASE	5.26	40	9.11	34	-4.9	69	-9.7	0	0	962.1	NA	0.0000		9999	3280	0	0	0
2017/06/29 09:11:00	BASE	5.12	47	8.75	32	-4.9	69	-9.8	0	0	962.1	NA	0.0000		9999	3310	0	0	0
2017/06/29 09:12:00	BASE	5.22	51	8.75	32	-4.9	68	-9.9	0	0	962.1	NA	0.0000		9999	3280	0	0	0
2017/06/29 09:13:00	BASE	4.80	54	8.13	32	-4.9	68	-9.9	0	0	962.1	NA	0.0000		9999	3250	0	0	0
2017/06/29 09:14:00	BASE	4.17	54	8.08	27	-4.9	68	-9.9	0	0	962.2	NA	0.0000		9999	3280	0	0	0
2017/06/29 09:15:00	BASE	3.98	47	8.08	27	-4.9	68	-10.0	0	0	962.1	NA	0.0000		9999	3310	0	0	0
2017/06/29 09:16:00	BASE	4.84	32	8.08	27	-4.8	67	-10.0	0	0	962.1	NA	0.0000		9999	3180	0	0	0
2017/06/29 09:17:00	BASE	4.84	25	7.51	29	-4.7	66	-10.0	0	0	962.2	NA	0.0000		9999	3180	0	0	0
2017/06/29 09:18:00	BASE	3.33	15	6.22	12	-4.6	66	-10.1	0	0	962.2	NA	0.0000		9999	3020	0	0	0
2017/06/29 09:19:00	BASE	1.85	359	6.22	12	-4.5	65	-10.1	0	0	962.2	NA	0.0000		9999	3020	0	0	0
2017/06/29 09:20:00	BASE	0.71	342	6.22	12	-4.4	65	-10.1	0	0	962.1	NA	0.0000		9999	3020	0	0	0
2017/06/29 09:21:00	BASE	0.10	319	6.22	12	-4.4	64	-10.1	0	0	962.1	NA	0.0000		9999	3050	0	0	0
2017/06/29 09:22:00	BASE	0.00	266	6.22	12	-4.4	64	-10.1	0	0	962.1	NA	0.0000		9999	2990	0	0	0
2017/06/29 09:23:00	BASE	0.23	235	6.22	12	-4.5	65	-10.1	0	0	962.1	NA	0.0000		9999	3050	0	0	0
2017/06/29 09:24:00	BASE	0.64	241	6.22	12	-4.5	65	-10.1	0	0	962.0	NA	0.0000		9999	3020	0	0	0
2017/06/29 09:25:00	BASE	1.16	232	6.22	12	-4.6	66	-10.0	0	0	961.9	NA	0.0000		9999	2950	0	0	0
2017/06/29 09:26:00	BASE	2.04	194	5.86	41	-4.6	66	-9.9	0	0	961.8	NA	0.0000		9999	3050	0	0	0
2017/06/29 09:27:00	BASE	2.70	147	3.34	139	-4.7	67	-9.8	0	0	961.7	NA	0.0000		9999	3150	0	0	0
2017/06/29 09:28:00	BASE	2.60	130	3.34	139	-4.9	69	-9.6	0	0	961.7	NA	0.0000		9999	3080	0	0	0
2017/06/29 09:29:00	BASE	2.39	119	3.34	139	-5.1	72	-9.4	0	0	961.7	NA	0.0000		9999	3150	0	0	0
2017/06/29 09:30:00	BASE	2.97	103	5.04	106	-5.3	74	-9.2	0	0	961.7	NA	0.0000		9999	3120	0	0	0
2017/06/29 09:31:00	BASE	4.23	108	6.28	126	-5.5	76	-9.0	0	0	961.7	NA	0.0000		9999	3080	0	0	0
2017/06/29 09:32:00	BASE	5.48	124	6.64	129	-5.5	77	-8.9	0	0	961.6	NA	0.0000		9999	3080	0	0	0
2017/06/29 09:33:00	BASE	5.71	132	6.64	129	-5.5	78	-8.8	0	0	961.7	NA	0.0000		9999	3050	0	0	0
2017/06/29 09:34:00	BASE	4.88	131	6.64	129	-5.5	78	-8.7	0	0	961.8	NA	0.0000		9999	3080	0	0	0
2017/06/29 09:35:00	BASE	4.38	127	6.64	129	-5.4	78	-8.6	0	0	961.8	NA	0.0000		9999	3020	0	0	0
2017/06/29 09:36:00	BASE	4.40	129	6.64	129	-5.3	78	-8.5	0	0	961.8	NA	0.0000		9999	3120	0	0	0
2017/06/29 09:37:00	BASE	4.48	132	6.64	129	-5.3	79	-8.5	0	0	961.7	NA	0.0000		9999	3120	0	0	0
2017/06/29 09:38:00	BASE	5.16	136	7.10	138	-5.3	79	-8.4	0	0	961.7	NA	0.0000		9999	3050	0	0	0
2017/06/29 09:39:00	BASE	6.10	131	8.95	126	-5.3	79	-8.3	0	0	961.6	NA	0.0000		9999	3020	0	0	0
2017/06/29 09:40:00	BASE	8.02	124	10.39	121	-5.5	81	-8.3	0	0	961.5	NA	0.0000		9999	2990	0	0	0
2017/06/29 09:41:00	BASE	9.30	124	10.55	127	-5.7	82	-8.2	0	0	961.4	NA	0.0000		9999	2990	0	0	0
2017/06/29 09:42:00	BASE	8.20	126	10.55	127	-5.8	84	-8.2	0	0	961.5	NA	0.0000		9999	2260	2950	0	0
2017/06/29 09:43:00	BASE	7.35	124	10.55	127	-5.9	85	-8.1	0	0	961.5	NA	0.0000		9999	2990	0	0	0
2017/06/29 09:44:00	BASE	7.45	122	10.55	127	-6.0	85	-8.1	0	0	961.4	NA	0.0000		9999	2990	0	0	0
2017/06/29 09:45:00	BASE	7.74	129	10.55	127	-6.0	85	-8.1	0	0	961.3	NA	0.0000		9999	2130	2950	0	0
2017/06/29 09:46:00	BASE	8.13	138	10.55	127	-5.9	84	-8.2	0	0	961.1	NA	0.0000		9999	2260	0	0	0
2017/06/29 09:47:00	BASE	8.12	142	10.55	127	-5.8	82	-8.3	0	0	961.1	NA	0.0000		9999	2100	0	0	0
2017/06/29 09:48:00	BASE	7.78	138	10.55	127	-5.7	81	-8.4	0	0	961.1	NA	0.0000		9999	2130	2920	0	0
2017/06/29 09:49:00	BASE	7.44	137	10.55	127	-5.5	80	-8.4	0	0	961.1	NA	0.0000		9999	2820	0	0	0
2017/06/29 09:50:00	BASE	6.13	133	10.55	127	-5.4	79	-8.4	0	0	961.1	NA	0.0000		9999	2070	2950	0	0
2017/06/29 09:51:00	BASE	4.56	131	9.31	140	-5.2	78	-8.4	0	0	961.2	NA	0.0000		9999	2330	0	0	0
2017/06/29 09:52:00	BASE	3.97	91	9.31	140	-5.0	76	-8.5	0	0	961.2	NA	0.0000		9999	2400	0	0	0
2017/06/29 09:53:00	BASE	2.99	39	9.31	140	-4.9	74	-8.7	0	0	961.2	NA	0.0000		9999	2170	3020	0	0
2017/06/29 09:54:00	BASE	1.90	37	9.31	140	-4.8	73	-8.8	0	0	961.2	NA	0.0000		9999	2850	0	0	0
2017/06/29 09:55:00	BASE	0.92	79	9.31	140	-4.7	73	-8.9	0	0	961.1	NA	0.0000		9999	2360	0	0	0
2017/06/29 09:56:00	BASE	0.54	158	9.31	140	-4.7	72	-8.9	0	0	961.0	NA	0.0000		9999	2850	0	0	0
2017/06/29 09:57:00	BASE	0.95	188	9.31	140	-4.7	72	-8.9	0	0	961.0	NA	0.0000		9999	3020	0	0	0
2017/06/29 09:58:00	BASE	0.46	238	7.82	137	-4.7	73	-8.8	0	0	961.1	NA	0.0000		9999	2990	0	0	0
2017/06/29 09:59:00	BASE	0.66	282	6.69	138	-4.6	72	-8.9	0	0	961.0	NA	0.0000		9999	3120	0	0	0
2017/06/29 10:00:00	BASE	1.12	335	4.99	47	-4.6	72	-8.9	0	0	961.0	NA	0.0000		9999	2990	0	0	0
2017/06/29 10:01:00	BASE	1.51	43	4.99	47	-4.5	71	-8.9	0	0	961.1	NA	0.0000		9999	2920	0	0	0
2017/06/29 10:02:00	BASE	2.93	65	5.30	71	-4.5	71	-8.9	0	0	961.1	NA	0.0000		9999	2720	3310	0	0
2017/06/29 10:03:00	BASE	3.25	63	5.30	71	-4.4	71	-8.9	0	0	961.1	NA	0.0000		9999	3150	0	0	0
2017/06/29 10:04:00	BASE	2.41	80	5.30	71	-4.3	71	-8.9	0	0	961.1	NA	0.0000		9999	3250	0	0	0
2017/06/29 10:05:00	BASE	1.80	110	5.30	71	-4.3	71	-8.8	0	0	961.0	NA	0.0000		9999	2330	3180	0	0
2017/06/29 10:06:00	BASE	2.41	88	5.30	71	-4.2	71	-8.8	0	0	961.0	NA	0.0000		9999	2430	3410	0	0
2017/06/29 10:07:00	BASE	3.02	82	5.30	71	-4.1	70	-8.8	0	0	961.0	NA	0.0000		9999	3250	0	0	0
2017/06/29 10:08:00	BASE	3.07	77	5.30	71	-4.0	69	-8.8	0	0	960.9	NA	0.0000		9999	2920	0	0	0
2017/06/29 10:09:00	BASE	3.50	64	5.30	71	-3.9	69	-8.8	0	0	960.9	NA	0.0000		9999	2990	0	0	0
2017/06/29 10:10:00	BASE	3.22	60	5.40	57	-3.8	68	-8.8	0	0	960.9	NA	0.0000		9999	3480	4070	0	0
2017/06/29 10:11:00	BASE	2.66	61	5.71	77	-3.8	68	-8.8	0	0	960.9	NA	0.0000		9999	2460	0	0	0
2017/06/29 10:12:00	BASE	4.53	77	7.46	66	-3.8	68	-8.8	0	0	960.7	NA	0.0000		9999	2690	0	0	0
2017/06/29 10:13:00	BASE	5.33	66	7.46	66	-3.8	68	-8.8	0	0	960.7	NA	0.0000		9999	3510	0	0	0
2017/06/29 10:14:00	BASE	3.40	53	7.46	66	-3.7	68	-8.8	0	0	960.6	NA	0.0000		9999	3450	0	0	0
2017/06/29 10:15:00	BASE	3.08	45	7.46	66	-3.7	68	-8.8	0	0	960.5	NA	0.0000		9999	3480	0	0	0
2017/06/29 10:16:00	BASE	3.66	52	7.46	66	-3.7	68	-8.7	0	0	960.5	NA	0.0000		9999	3350	0	0	0
2017/06/29 10:17:00	BASE	4.31	64	7.46	66	-3.6	68	-8.7	0	0	960.4	NA	0.0000		9999	3480	0	0	0
2017/06/29 10:18:00	BASE	4.25	47	7.46	66	-3.5	67	-8.7	0	0	960.5	NA	0.0000		9999	3640	0	0	0
2017/06/29 10:19:00	BASE	2.69	35	7.46	66	-3.4	67	-8.7	0	0	960.6	NA	0.0000		9999	3350	4100	0	0
2017/06/29 10:20:00	BASE	0.88	25	7.46	66	-3.3	66	-8.7	0	0	960.6	NA	0.0000		9999	3540	4950	0	0
2017/06/29 10:21:00	BASE	0.48	345	7.46	66	-3.3	66	-8.7	0	0	960.7	NA	0.0000		9999	2360	0	0	0
2017/06/29 10:22:00	BASE	1.81	320	6.53	43	-3.2	66	-8.7	0	0	960.7	NA	0.0000		9999	2430	0	0	0
2017/06/29 10:23:00	BASE	1.80	286	6.53	43	-3.2	67	-8.6	0	0	960.7	NA	0.0000		9999	2560	3080	0	0
2017/06/29 10:24:00	BASE	1.35	38	6.53	43	-3.3	67	-8.5	0	0	960.7	NA	0.0000		9999	2920	4070	0	0
2017/06/29 10:25:00	BASE	2.11	58	6.53	43	-3.3	67	-8.5	0	0	960.8	NA	0.0000		9999	3450	0	0	0
2017/06/29 10:26:00	BASE	1.26	86	6.53	43	-3.3	68	-8.5	0	0	960.8	NA	0.0000		9999	2950	0	0	0
2017/06/29 10:27:00	BASE	0.81	105	4.37	30	-3.4	68	-8.5	0	0	960.8	NA	0.0000		9999	3120	0	0	0
2017/06/29 10:28:00	BASE	1.67	98	3.91	296	-3.4	68	-8.6	0	0	960.8	NA	0.0000		9999	2890	0	0	0
2017/06/29 10:29:00	BASE	2.24	103	3.91	296	-3.5	68	-8.6	0	0	960.8	NA	0.0000		9999	2850	0	0	0
2017/06/29 10:30:00	BASE	2.27	102	3.91	296	-3.5	68	-8.6	0	0	960.7	NA	0.0000		9999	2590	0	0	0
2017/06/29 10:31:00	BASE	2.35	77	3.91	296	-3.5	69	-8.5	0	0	960.6	NA	0.0000		9999	2460	0	0	0
2017/06/29 10:32:00	BASE	2.73	61	4.22	56	-3.5	68	-8.5	0	0	960.5	NA	0.0000		9999	2530	0	0	0
2017/06/29 10:33:00	BASE	2.58	60	4.22	56	-3.4	68	-8.4	0	0	960.6	NA	0.0000		9999	2720	3250	0	0
2017/06/29 10:34:00	BASE	2.17	57	4.22	56	-3.2	67	-8.4	0	0	960.6	NA	0.0000		9999	2660	3350	0	0
2017/06/29 10:35:00	BASE	1.99	70	4.22	56	-3.1	67	-8.4	0	0	960.6	NA	0.0000		9999	2920	0	0	0
2017/06/29 10:36:00	BASE	1.38	103	4.22	56	-3.1	67	-8.4	0	0	960.6	NA	0.0000		9999	2490	0	0	0
2017/06/29 10:37:00	BASE	0.36	153	4.22	56	-3.1	67	-8.4	0	0	960.6	NA	0.0000		9999	2920	0	0	0
2017/06/29 10:38:00	BASE	0.14	140	4.22	56	-3.2	67	-8.4	0	0	960.6	NA	0.0000		9999	2720	3350	0	0
2017/06/29 10:39:00	BASE	1.66	74	4.22	56	-3.2	68	-8.3	0	0	960.6	NA	0.0000		9999	2590	0	0	0
2017/06/29 10:40:00	BASE	3.35	47	4.53	43	-3.3	69	-8.2	0	0	960.5	NA	0.0000		9999	3080	0	0	0
2017/06/29 10:41:00	BASE	3.05	30	4.53	43	-3.3	69	-8.1	0	0	960.4	NA	0.0000		9999	2460	0	0	0
2017/06/29 10:42:00	BASE	4.35	3	7.10	341	-3.3	70	-7.9	0	0	960.3	NA	0.0000		9999	2460	0	0	0
2017/06/29 10:43:00	BASE	6.29	344	7.61	331	-3.3	71	-7.8	0	0	960.2	NA	0.0000		9999	2430	0	0	0
2017/06/29 10:44:00	BASE	5.61	327	7.61	331	-3.2	71	-7.8	0	0	960.4	NA	0.0000		9999	2460	0	0	0
2017/06/29 10:45:00	BASE	5.22	337	9.41	354	-3.2	71	-7.7	0	0	960.4	NA	0.0000		9999	2300	0	0	0
2017/06/29 10:46:00	BASE	6.41	346	9.77	347	-3.2	71	-7.7	0	0	960.1	NA	0.0000		9999	2430	0	0	0
2017/06/29 10:47:00	BASE	6.34	332	9.77	347	-3.2	71	-7.7	0	0	960.1	NA	0.0000		9999	2760	0	0	0
2017/06/29 10:48:00	BASE	5.84	325	9.77	347	-3.2	72	-7.6	0	0	960.1	NA	0.0000		9999	2920	0	0	0
2017/06/29 10:49:00	BASE	6.39	330	10.60	3	-3.2	72	-7.5	0	0	960.2	NA	0.0000		9999	2920	0	0	0
2017/06/29 10:50:00	BASE	9.30	350	13.32	1	-3.1	73	-7.3	0	0	960.0	NA	0.0000		9999	2660	0	0	0
2017/06/29 10:51:00	BASE	12.09	354	13.48	347	-3.0	73	-7.2	0	0	959.9	NA	0.0000		9999	3180	0	0	0
2017/06/29 10:52:00	BASE	11.77	342	14.66	344	-3.0	73	-7.1	0	0	960.0	NA	0.0000	UP	9999	2530	0	0	0
2017/06/29 10:53:00	BASE	8.97	336	14.66	344	-3.0	73	-7.1	0	0	960.1	NA	0.0000	UP	9999	3050	0	0	0
2017/06/29 10:54:00	BASE	9.09	349	14.66	344	-3.0	74	-7.0	0	0	959.9	NA	0.0000	UP	9999	3020	0	0	0
2017/06/29 10:55:00	BASE	12.83	3	14.76	9	-3.1	74	-7.0	0	0	959.6	NA	0.0000	UP	9999	3120	0	0	0
2017/06/29 10:56:00	BASE	13.45	8	14.76	9	-3.1	75	-7.0	0	0	959.6	NA	0.0000	UP	9999	3150	0	0	0
2017/06/29 10:57:00	BASE	13.91	6	16.05	360	-3.1	76	-6.8	0	0	959.5	NA	0.0000	UP	9999	3080	0	0	0
2017/06/29 10:58:00	BASE	14.58	2	16.05	360	-3.1	77	-6.5	0	0	959.5	NA	0.0000	UP	9999	2850	0	0	0
2017/06/29 10:59:00	BASE	14.10	3	16.05	360	-3.1	78	-6.4	0	0	959.5	NA	0.0000	UP	9999	3180	0	0	0
2017/06/29 11:00:00	BASE	14.32	6	16.05	360	-3.1	78	-6.3	0	0	959.4	NA	0.0000	UP	9999	3480	0	0	0
2017/06/29 11:01:00	BASE	14.63	10	16.05	360	-3.1	79	-6.2	0	0	959.4	NA	0.0000	UP	9999	2200	0	0	0
2017/06/29 11:02:00	BASE	14.21	10	16.05	360	-3.1	79	-6.2	0	0	959.5	NA	0.0000	UP	9999	3020	0	0	0
2017/06/29 11:03:00	BASE	13.97	10	16.05	360	-3.1	79	-6.3	0	0	959.5	NA	0.0000	UP	9999	3900	0	0	0
2017/06/29 11:04:00	BASE	13.61	8	16.05	360	-3.1	79	-6.3	0	0	959.5	NA	0.0000	UP	9999	2100	0	0	0
2017/06/29 11:05:00	BASE	13.20	8	16.05	360	-3.0	79	-6.2	0	0	959.5	NA	0.0000	UP	9999	4200	0	0	0
2017/06/29 11:06:00	BASE	13.10	11	16.05	360	-3.0	78	-6.2	0	0	959.5	NA	0.0000	UP	9999	2430	0	0	0
2017/06/29 11:07:00	BASE	12.01	10	15.95	3	-3.0	78	-6.3	0	0	959.6	NA	0.0000	UP	9999	3840	0	0	0
2017/06/29 11:08:00	BASE	12.02	11	15.95	3	-3.0	78	-6.3	0	0	959.4	NA	0.0000	UP	9999	3310	0	0	0
2017/06/29 11:09:00	BASE	13.33	9	15.95	3	-3.0	78	-6.3	0	0	959.3	NA	0.0000	UP	9999	1280	0	0	0
2017/06/29 11:10:00	BASE	13.60	8	15.64	8	-3.0	77	-6.4	0	0	959.4	NA	0.0000	UP	9999	1610	0	0	0
2017/06/29 11:11:00	BASE	13.35	11	15.64	8	-3.0	77	-6.5	0	0	959.4	NA	0.0000	UP	9999	0	0	0	3610
2017/06/29 11:12:00	BASE	12.63	14	15.64	8	-3.0	77	-6.5	0	0	959.4	NA	0.0000	UP	9999	0	0	0	3120
2017/06/29 11:13:00	BASE	12.60	12	15.64	8	-3.0	77	-6.5	0	0	959.3	NA	0.0000	UP	9999	0	0	0	2560
2017/06/29 11:14:00	BASE	13.33	8	15.48	12	-3.0	77	-6.5	0	0	959.3	NA	0.0000	UP	9999	0	0	0	2530
2017/06/29 11:15:00	BASE	13.33	8	15.48	12	-3.0	76	-6.6	0	0	959.2	NA	0.0000	UP	9999	0	0	0	2660
2017/06/29 11:16:00	BASE	12.94	9	15.48	12	-3.0	76	-6.5	0	0	959.3	NA	0.0000	-SN	9999	0	0	0	2400
2017/06/29 11:17:00	BASE	12.16	8	15.48	12	-2.9	76	-6.5	0	0	959.3	NA	0.0000	-SN	9999	390	0	0	0
2017/06/29 11:18:00	BASE	11.76	10	15.18	10	-2.9	77	-6.5	0	0	959.3	NA	0.0000	-SN	7000	460	0	0	0
2017/06/29 11:19:00	BASE	11.88	13	14.97	3	-2.9	77	-6.4	0	0	959.3	NA	0.0000	-SN	7000	390	0	0	0
2017/06/29 11:20:00	BASE	11.74	14	14.56	4	-2.9	77	-6.4	0	0	959.3	NA	0.0000	-SN	8000	390	0	0	0
2017/06/29 11:21:00	BASE	11.90	14	14.56	4	-2.9	77	-6.3	0	0	959.2	NA	0.0000	-SN	9999	0	0	0	3150
2017/06/29 11:22:00	BASE	11.98	12	14.56	4	-2.9	77	-6.3	0	0	959.2	NA	0.0000	-SN	9999	360	0	0	0
2017/06/29 11:23:00	BASE	11.63	8	14.56	4	-2.9	77	-6.3	0	0	959.2	NA	0.0000	-SN	9999	390	0	0	0
2017/06/29 11:24:00	BASE	11.96	6	14.56	4	-2.8	77	-6.3	0	0	959.2	NA	0.0000	-SN	9000	360	0	0	0
2017/06/29 11:25:00	BASE	11.73	7	13.99	4	-2.8	77	-6.2	0	0	959.2	NA	0.0000	-SN	8000	390	0	0	0
2017/06/29 11:26:00	BASE	11.13	9	13.63	1	-2.8	77	-6.2	0	0	959.2	NA	0.0000	-SN	9999	390	0	0	0
2017/06/29 11:27:00	BASE	11.54	11	13.63	1	-2.8	77	-6.2	0	0	959.2	NA	0.0000	-SN	9999	690	0	0	0
2017/06/29 11:28:00	BASE	11.45	11	13.63	1	-2.8	77	-6.3	0	0	959.2	NA	0.0000	-SN	9999	850	0	0	0
2017/06/29 11:29:00	BASE	11.08	12	13.63	1	-2.8	77	-6.4	0	0	959.2	NA	0.0000	-SN	9999	1050	0	0	0
2017/06/29 11:30:00	BASE	11.10	13	13.63	1	-2.8	76	-6.5	0	0	959.2	NA	0.0000	-SN	9999	490	0	0	0
2017/06/29 11:31:00	BASE	10.96	11	13.63	1	-2.8	75	-6.5	0	0	959.1	NA	0.0000	-SN	8000	460	1380	0	0
2017/06/29 11:32:00	BASE	10.28	8	13.63	1	-2.7	75	-6.5	0	0	959.2	NA	0.0000	-SN	9999	520	0	0	0
2017/06/29 11:33:00	BASE	9.88	8	13.63	1	-2.7	75	-6.5	0	0	959.1	NA	0.0000	-SN	9999	750	0	0	0
2017/06/29 11:34:00	BASE	9.62	11	12.71	14	-2.6	75	-6.5	0	0	959.2	NA	0.0000	-SN	9999	1020	0	0	0
2017/06/29 11:35:00	BASE	9.25	13	12.71	14	-2.6	75	-6.4	0	0	959.1	NA	0.0000	-SN	8000	360	0	0	0
2017/06/29 11:36:00	BASE	9.22	11	12.71	14	-2.6	75	-6.3	0	0	959.1	NA	0.0000	-SN	6000	390	0	0	0
2017/06/29 11:37:00	BASE	9.04	9	12.30	16	-2.6	76	-6.3	0	0	959.1	NA	0.0000	-SN	8000	390	0	0	0
2017/06/29 11:38:00	BASE	8.74	10	11.83	9	-2.7	76	-6.3	0	0	959.1	NA	0.0000	-SN	6000	330	0	0	0
2017/06/29 11:39:00	BASE	8.83	12	11.83	9	-2.7	77	-6.2	0	0	959.1	NA	0.0000	-SN	4200	300	0	0	0
2017/06/29 11:40:00	BASE	9.24	13	11.57	13	-2.8	78	-6.1	0	0	959.1	NA	0.0000	-SN	3900	0	0	0	2560
2017/06/29 11:41:00	BASE	9.25	13	11.21	5	-2.8	78	-6.1	0	0	959.1	NA	0.0000	-SN	4400	0	0	0	2950
2017/06/29 11:42:00	BASE	8.91	12	11.21	5	-2.8	78	-6.0	0	0	959.1	NA	0.0000	-SN	9000	0	0	0	3120
2017/06/29 11:43:00	BASE	9.13	11	10.91	8	-2.8	78	-6.0	0	0	959.1	NA	0.0000	-SN	9999	0	0	0	3080
2017/06/29 11:44:00	BASE	8.99	11	10.91	8	-2.7	78	-6.0	0	0	959.1	NA	0.0000	-SN	9999	0	0	0	2990
2017/06/29 11:45:00	BASE	8.23	12	10.91	8	-2.7	78	-6.0	0	0	959.1	NA	0.0000	-SN	9999	0	0	0	2820
2017/06/29 11:46:00	BASE	8.15	13	10.91	8	-2.7	78	-6.0	0	0	959.1	NA	0.0000	-SN	9999	390	0	0	0
2017/06/29 11:47:00	BASE	8.78	14	10.91	8	-2.7	78	-6.0	0	0	959.1	NA	0.0000	-SN	9999	0	0	0	2690
2017/06/29 11:48:00	BASE	9.41	18	11.57	21	-2.6	77	-6.1	0	0	959.0	NA	0.0000	-SN	9999	0	0	0	2790
2017/06/29 11:49:00	BASE	9.42	17	11.57	21	-2.6	77	-6.1	0	0	959.0	NA	0.0000	-SN	9999	0	0	0	2820
2017/06/29 11:50:00	BASE	8.70	15	11.57	21	-2.6	77	-6.1	0	0	959.0	NA	0.0000	-SN	9000	0	0	0	2820
2017/06/29 11:51:00	BASE	8.22	12	11.57	21	-2.5	77	-6.1	0	0	959.0	NA	0.0000	-SN	9999	2430	0	0	0
2017/06/29 11:52:00	BASE	8.22	7	11.57	21	-2.5	77	-6.0	0	0	959.0	NA	0.0000	-SN	9999	2590	0	0	0
2017/06/29 11:53:00	BASE	8.05	6	11.57	21	-2.5	77	-6.0	0	0	959.0	NA	0.0000	-SN	9999	2460	0	0	0
2017/06/29 11:54:00	BASE	8.08	4	11.57	21	-2.4	76	-6.0	0	0	959.0	NA	0.0000	-SN	9999	2490	0	0	0
2017/06/29 11:55:00	BASE	7.96	2	11.57	21	-2.4	76	-6.0	0	0	959.1	NA	0.0000	-SN	9999	660	0	0	0
2017/06/29 11:56:00	BASE	7.72	5	11.57	21	-2.3	75	-6.1	0	0	959.1	NA	0.0000	-SN	9999	0	0	0	2920
2017/06/29 11:57:00	BASE	7.54	8	11.57	21	-2.2	75	-6.1	0	0	959.1	NA	0.0000	-SN	9999	0	0	0	2890
2017/06/29 11:58:00	BASE	5.97	7	10.55	16	-2.2	75	-6.0	0	0	959.2	NA	0.0000	-SN	7000	0	0	0	2790
2017/06/29 11:59:00	BASE	5.66	4	10.03	12	-2.1	75	-5.9	0	0	959.1	NA	0.0000	-SN	4900	390	0	0	0
2017/06/29 12:00:00	BASE	6.97	348	10.03	12	-2.1	76	-5.8	0	0	959.1	NA	0.0000	-SN	9999	0	0	0	2890
2017/06/29 12:01:00	BASE	6.75	321	9.77	15	-2.1	77	-5.6	0	0	959.1	NA	0.0000	-SN	9999	2400	0	0	0
2017/06/29 12:02:00	BASE	4.29	289	9.57	348	-2.2	78	-5.6	0	0	959.2	NA	0.0000	-SN	9999	430	0	0	0
2017/06/29 12:03:00	BASE	1.40	287	9.47	4	-2.4	78	-5.7	0	0	959.3	NA	0.0000	-SN	6000	430	0	0	0
2017/06/29 12:04:00	BASE	1.29	4	9.47	4	-2.6	79	-5.8	0	0	959.4	NA	0.0000	-SN	6000	390	0	0	0
2017/06/29 12:05:00	BASE	3.50	37	9.47	4	-2.7	79	-5.8	0	0	959.4	NA	0.0000	-SN	5000	360	0	0	0
2017/06/29 12:06:00	BASE	5.61	86	9.47	4	-2.9	80	-5.9	0	0	959.3	NA	0.0000	-SN	3700	390	0	0	0
2017/06/29 12:07:00	BASE	6.70	105	9.21	125	-3.2	81	-6.0	0	0	959.2	NA	0.0000	-SN	4000	2330	0	0	0
2017/06/29 12:08:00	BASE	7.46	113	9.21	125	-3.4	82	-6.0	0	0	959.1	NA	0.0000	-SN	5000	2360	0	0	0
2017/06/29 12:09:00	BASE	7.80	115	9.21	125	-3.6	83	-6.0	0	0	959.0	NA	0.0000	-SN	5000	2400	0	0	0
2017/06/29 12:10:00	BASE	7.83	113	10.49	99	-3.9	85	-6.1	0	0	959.1	NA	0.0000	-SN BR	4500	1870	2460	0	0
2017/06/29 12:11:00	BASE	6.58	103	10.49	99	-4.0	85	-6.1	0	0	959.3	NA	0.0000	-SN BR	6000	1480	0	0	0
2017/06/29 12:12:00	BASE	5.86	93	10.49	99	-3.9	85	-6.0	0	0	959.2	NA	0.0000	-SN BR	6000	750	0	0	0
2017/06/29 12:13:00	BASE	7.21	109	10.49	99	-3.9	86	-5.9	0	0	959.2	NA	0.0000	-SN BR	4000	2460	0	0	0
2017/06/29 12:14:00	BASE	7.67	111	10.49	99	-3.8	86	-5.8	0	0	959.0	NA	0.0000	-SN BR	3500	2490	0	0	0
2017/06/29 12:15:00	BASE	5.81	89	10.49	99	-3.7	86	-5.6	0	0	959.0	NA	0.0000	-SN BR	3400	2530	0	0	0
2017/06/29 12:16:00	BASE	6.65	88	10.96	101	-3.6	86	-5.5	0	0	959.1	NA	0.0000	-SN BR	3600	2560	0	0	0
2017/06/29 12:17:00	BASE	9.01	99	10.96	101	-3.6	86	-5.5	0	0	959.0	NA	0.0000	-SN BR	4000	2530	0	0	0
2017/06/29 12:18:00	BASE	8.96	104	10.96	101	-3.6	87	-5.5	0	0	958.9	NA	0.0000	-SN BR	5000	2230	0	0	0
2017/06/29 12:19:00	BASE	9.32	102	10.96	101	-3.6	86	-5.6	0	0	958.9	NA	0.0000	-SN BR	7000	1840	2460	0	0
2017/06/29 12:20:00	BASE	9.15	104	10.96	101	-3.7	86	-5.7	0	0	959.0	NA	0.0000	-SN BR	6000	1970	0	0	0
2017/06/29 12:21:00	BASE	8.94	97	11.73	89	-3.7	86	-5.7	0	0	959.0	NA	0.0000	-SN BR	9999	1710	0	0	0
2017/06/29 12:22:00	BASE	8.75	90	11.73	89	-3.7	86	-5.7	0	0	959.2	NA	0.0000	-SN BR	9999	1840	0	0	0
2017/06/29 12:23:00	BASE	6.37	97	11.73	89	-3.7	86	-5.8	0	0	959.2	NA	0.0000	-SN BR	8000	1940	0	0	0
2017/06/29 12:24:00	BASE	5.73	108	11.73	89	-3.8	86	-5.8	0	0	959.1	NA	0.0000	-SN BR	6000	2030	0	0	0
2017/06/29 12:25:00	BASE	7.92	110	11.73	89	-3.9	87	-5.8	0	0	958.9	NA	0.0000	-SN BR	9000	1800	0	0	0
2017/06/29 12:26:00	BASE	9.01	103	11.73	89	-3.9	87	-5.8	0	0	958.9	NA	0.0000	-SN BR	9999	1640	0	0	0
2017/06/29 12:27:00	BASE	8.18	72	11.73	89	-3.9	87	-5.7	0	0	959.2	NA	0.0000	-SN BR	9999	1510	0	0	0
2017/06/29 12:28:00	BASE	5.81	42	11.73	89	-3.8	87	-5.6	0	0	959.3	NA	0.0000	-SN BR	9999	1540	0	0	0
2017/06/29 12:29:00	BASE	3.27	61	11.73	89	-3.5	86	-5.5	0	0	959.3	NA	0.0000	-SN BR	9999	1440	0	0	0
2017/06/29 12:30:00	BASE	4.04	125	11.73	89	-3.4	85	-5.5	0	0	959.0	NA	0.0000	-SN	9999	1480	0	0	0
2017/06/29 12:31:00	BASE	5.58	94	11.57	88	-3.2	85	-5.5	0	0	959.1	NA	0.0000	-SN	9999	1570	0	0	0
2017/06/29 12:32:00	BASE	4.61	75	10.75	96	-3.2	84	-5.5	0	0	959.3	NA	0.0000	-SN	9999	1510	0	0	0
2017/06/29 12:33:00	BASE	4.26	113	10.75	96	-3.2	84	-5.6	0	0	959.3	NA	0.0000	-SN	9999	1570	0	0	0
2017/06/29 12:34:00	BASE	5.97	135	10.75	96	-3.4	84	-5.7	0	0	959.2	NA	0.0000	-SN	9999	1510	0	0	0
2017/06/29 12:35:00	BASE	6.66	141	10.75	96	-3.5	84	-5.8	0	0	959.3	NA	0.0000	-SN	9999	1710	0	0	0
2017/06/29 12:36:00	BASE	5.90	135	10.08	79	-3.6	85	-5.8	0	0	959.3	NA	0.0000	-SN	9999	720	1570	0	0
2017/06/29 12:37:00	BASE	5.63	125	8.64	144	-3.8	86	-5.8	0	0	959.3	NA	0.0000	-SN	9999	620	0	0	0
2017/06/29 12:38:00	BASE	5.73	116	8.64	144	-3.9	87	-5.8	0	0	959.2	NA	0.0000	-SN	9000	360	1440	0	0
2017/06/29 12:39:00	BASE	6.43	115	8.64	144	-3.9	87	-5.7	0	0	959.1	NA	0.0000	-SN	5000	360	0	0	0
2017/06/29 12:40:00	BASE	5.87	119	8.64	144	-3.8	87	-5.6	0	0	959.1	NA	0.0000	-SN BR	4400	390	0	0	0
2017/06/29 12:41:00	BASE	3.61	64	8.64	144	-3.7	87	-5.6	0	0	959.3	NA	0.0000	-SN BR	6000	2000	0	0	0
2017/06/29 12:42:00	BASE	2.44	348	8.64	144	-3.5	87	-5.4	0	0	959.4	NA	0.0000	-SN BR	9999	2170	0	0	0
2017/06/29 12:43:00	BASE	3.34	315	8.64	144	-3.3	86	-5.2	0	0	959.4	NA	0.0000	-SN BR	9999	2100	0	0	0
2017/06/29 12:44:00	BASE	3.81	290	8.18	124	-3.1	86	-5.1	0	0	959.4	NA	0.0000	-SN BR	9999	920	0	0	0
2017/06/29 12:45:00	BASE	2.87	270	8.18	124	-2.9	85	-5.0	0	0	959.5	NA	0.0000	-SN BR	9999	750	0	0	0
2017/06/29 12:46:00	BASE	2.00	247	8.18	124	-2.8	85	-5.0	0	0	959.5	NA	0.0000	-SN BR	9999	430	0	0	0
2017/06/29 12:47:00	BASE	1.73	240	8.18	124	-2.9	84	-5.2	0	0	959.5	NA	0.0000	-SN	9999	360	0	0	0
2017/06/29 12:48:00	BASE	1.91	235	8.18	124	-3.0	84	-5.3	0	0	959.5	NA	0.0000	-SN	9000	0	0	0	3050
2017/06/29 12:49:00	BASE	2.93	246	7.92	107	-3.1	84	-5.3	0	0	959.5	NA	0.0000	-SN	9000	0	0	0	2920
2017/06/29 12:50:00	BASE	4.03	254	5.81	327	-3.1	85	-5.3	0	0	959.5	NA	0.0000	-SN	9999	430	2760	0	0
2017/06/29 12:51:00	BASE	5.06	271	7.41	290	-3.1	85	-5.2	0	0	959.5	NA	0.0000	-SN	9999	330	2260	0	0
2017/06/29 12:52:00	BASE	5.50	302	7.41	290	-2.9	86	-4.9	0	0	959.6	NA	0.0000	-SN	9999	390	2300	0	0
2017/06/29 12:53:00	BASE	4.24	325	7.41	290	-2.6	86	-4.7	0	0	959.5	NA	0.0000	-SN	9999	950	1800	0	0
2017/06/29 12:54:00	BASE	5.29	328	9.98	306	-2.3	85	-4.5	0	0	959.5	NA	0.0000	-SN	9999	850	0	0	0
2017/06/29 12:55:00	BASE	7.25	319	9.98	306	-2.0	84	-4.3	0	0	959.5	NA	0.0000	-SN	9999	1080	0	0	0
2017/06/29 12:56:00	BASE	6.90	324	9.98	306	-1.8	83	-4.3	0	0	959.6	NA	0.0000	-SN	9999	820	0	0	0
2017/06/29 12:57:00	BASE	7.73	322	11.01	326	-1.7	82	-4.4	0	0	959.4	NA	0.0000	-SN	9999	720	0	0	0
2017/06/29 12:58:00	BASE	9.87	318	13.58	320	-1.7	82	-4.4	0	0	959.3	NA	0.0000	-SN	9999	690	0	0	0
2017/06/29 12:59:00	BASE	11.21	322	13.58	320	-1.6	82	-4.4	0	0	959.3	NA	0.0000		9999	390	1180	0	0
2017/06/29 13:00:00	BASE	10.50	327	13.58	320	-1.6	81	-4.3	0	0	959.4	NA	0.0000		9999	360	0	0	0
2017/06/29 13:01:00	BASE	10.05	330	13.58	320	-1.5	81	-4.4	0	0	959.3	NA	0.0000		9999	460	0	0	0
2017/06/29 13:02:00	BASE	9.89	329	13.58	320	-1.5	80	-4.4	0	0	959.4	NA	0.0000		9999	620	0	0	0
2017/06/29 13:03:00	BASE	8.78	326	13.58	320	-1.5	80	-4.5	0	0	959.4	NA	0.0000		9999	2070	0	0	0
2017/06/29 13:04:00	BASE	8.32	327	13.58	320	-1.5	79	-4.6	0	0	959.5	NA	0.0000		9999	1380	0	0	0
2017/06/29 13:05:00	BASE	8.25	332	13.58	320	-1.5	79	-4.7	0	0	959.5	NA	0.0000		9999	2000	0	0	0
2017/06/29 13:06:00	BASE	8.33	333	13.58	320	-1.5	79	-4.7	0	0	959.5	NA	0.0000		9999	980	0	0	0
2017/06/29 13:07:00	BASE	9.20	330	13.58	320	-1.6	79	-4.7	0	0	959.4	NA	0.0000		9999	920	0	0	0
2017/06/29 13:08:00	BASE	9.82	331	13.02	321	-1.6	79	-4.7	0	0	959.4	NA	0.0000		9999	690	0	0	0
2017/06/29 13:09:00	BASE	9.62	327	11.83	332	-1.6	80	-4.7	0	0	959.4	NA	0.0000		9999	590	0	0	0
2017/06/29 13:10:00	BASE	9.47	324	11.83	324	-1.6	80	-4.6	0	0	959.4	NA	0.0000		9999	620	0	0	0
2017/06/29 13:11:00	BASE	9.43	327	11.83	324	-1.6	80	-4.6	0	0	959.3	NA	0.0000		9999	1080	0	0	0
2017/06/29 13:12:00	BASE	9.27	331	11.83	324	-1.6	80	-4.6	0	0	959.4	NA	0.0000		9999	980	2130	0	0
2017/06/29 13:13:00	BASE	8.86	337	11.83	324	-1.6	81	-4.5	0	0	959.4	NA	0.0000		9999	1210	0	0	0
2017/06/29 13:14:00	BASE	9.41	340	11.83	324	-1.7	81	-4.6	0	0	959.4	NA	0.0000		9999	1050	0	0	0
2017/06/29 13:15:00	BASE	10.66	343	12.14	342	-1.8	82	-4.5	0	0	959.3	NA	0.0000		9999	1710	0	0	0
2017/06/29 13:16:00	BASE	10.92	346	12.14	342	-1.9	83	-4.4	0	0	959.4	NA	0.0000		9999	1800	0	0	0
2017/06/29 13:17:00	BASE	11.26	348	13.02	337	-2.1	85	-4.3	0	0	959.3	NA	0.0000		9999	1770	0	0	0
2017/06/29 13:18:00	BASE	11.69	350	13.02	337	-2.2	86	-4.2	0	0	959.4	NA	0.0000		9999	1610	0	0	0
2017/06/29 13:19:00	BASE	11.46	349	13.02	337	-2.3	87	-4.1	0	0	959.4	NA	0.0000		9999	1440	0	0	0
2017/06/29 13:20:00	BASE	10.79	350	13.02	337	-2.3	88	-4.1	0	0	959.5	NA	0.0000		9999	1310	0	0	0
2017/06/29 13:21:00	BASE	10.85	346	13.07	334	-2.3	87	-4.1	0	0	959.4	NA	0.0000		9999	1640	0	0	0
2017/06/29 13:22:00	BASE	11.47	340	13.07	334	-2.3	87	-4.2	0	0	959.4	NA	0.0000		9999	460	0	0	0
2017/06/29 13:23:00	BASE	11.60	342	13.63	348	-2.3	86	-4.3	0	0	959.4	NA	0.0000		9999	1180	2200	0	0
2017/06/29 13:24:00	BASE	11.83	343	13.63	348	-2.3	86	-4.4	0	0	959.4	NA	0.0000		9999	750	2030	0	0
2017/06/29 13:25:00	BASE	11.74	341	13.63	348	-2.3	85	-4.4	0	0	959.5	NA	0.0000		9999	390	0	0	0
2017/06/29 13:26:00	BASE	11.28	337	13.63	348	-2.3	85	-4.5	0	0	959.6	NA	0.0000		9999	2000	0	0	0
2017/06/29 13:27:00	BASE	10.38	335	13.63	348	-2.3	84	-4.6	0	0	959.6	NA	0.0000		9999	720	1970	0	0
2017/06/29 13:28:00	BASE	9.36	333	13.63	348	-2.2	84	-4.6	0	0	959.7	NA	0.0000		9999	750	0	0	0
2017/06/29 13:29:00	BASE	9.24	332	13.63	348	-2.2	84	-4.5	0	0	959.6	NA	0.0000		9999	750	0	0	0
2017/06/29 13:30:00	BASE	10.24	332	13.63	348	-2.2	84	-4.5	0	0	959.5	NA	0.0000		9999	980	0	0	0
2017/06/29 13:31:00	BASE	11.50	336	13.63	348	-2.2	84	-4.5	0	0	959.5	NA	0.0000		9999	590	0	0	0
2017/06/29 13:32:00	BASE	11.61	339	13.63	348	-2.1	84	-4.4	0	0	959.6	NA	0.0000		9999	890	1770	0	0
2017/06/29 13:33:00	BASE	10.36	337	13.32	346	-2.1	85	-4.4	0	0	959.6	NA	0.0000		9999	1670	0	0	0
2017/06/29 13:34:00	BASE	9.90	339	13.27	341	-2.1	85	-4.3	0	0	959.7	NA	0.0000		9999	1440	0	0	0
2017/06/29 13:35:00	BASE	9.31	338	13.27	341	-2.2	86	-4.2	0	0	959.7	NA	0.0000		9999	950	0	0	0
2017/06/29 13:36:00	BASE	8.52	334	13.27	341	-2.2	86	-4.2	0	0	959.7	NA	0.0000		9999	1610	0	0	0
2017/06/29 13:37:00	BASE	8.92	331	13.27	341	-2.2	87	-4.2	0	0	959.7	NA	0.0000		9999	1770	0	0	0
2017/06/29 13:38:00	BASE	9.44	328	13.27	341	-2.2	87	-4.1	0	0	959.8	NA	0.0000		9999	660	0	0	0
2017/06/29 13:39:00	BASE	9.58	319	13.27	341	-2.2	87	-4.1	0	0	959.8	NA	0.0000		9999	1510	0	0	0
2017/06/29 13:40:00	BASE	9.00	308	13.27	341	-2.2	86	-4.2	0	0	959.8	NA	0.0000		9999	1570	0	0	0
2017/06/29 13:41:00	BASE	8.20	303	13.17	337	-2.2	86	-4.2	0	0	959.9	NA	0.0000		9999	1640	0	0	0
2017/06/29 13:42:00	BASE	8.22	310	11.16	334	-2.2	86	-4.2	0	0	959.9	NA	0.0000		9999	1640	0	0	0
2017/06/29 13:43:00	BASE	8.34	319	11.16	334	-2.2	86	-4.2	0	0	960.0	NA	0.0000		9999	1640	0	0	0
2017/06/29 13:44:00	BASE	8.93	325	10.70	331	-2.1	86	-4.2	0	0	959.9	NA	0.0000		9999	1280	0	0	0
2017/06/29 13:45:00	BASE	9.89	324	11.42	316	-2.1	86	-4.2	0	0	959.9	NA	0.0000		9999	1350	0	0	0
2017/06/29 13:46:00	BASE	9.96	324	11.42	316	-2.0	86	-4.1	0	0	960.0	NA	0.0000		9999	1540	0	0	0
2017/06/29 13:47:00	BASE	8.97	325	11.42	316	-2.0	86	-4.0	0	0	960.1	NA	0.0000		9999	1610	0	0	0
2017/06/29 13:48:00	BASE	7.83	322	11.42	316	-2.0	86	-4.0	0	0	960.2	NA	0.0000		9999	1350	0	0	0
2017/06/29 13:49:00	BASE	6.65	327	11.42	316	-2.0	87	-3.9	0	0	960.2	NA	0.0000		9999	1510	0	0	0
2017/06/29 13:50:00	BASE	4.97	330	11.42	316	-2.1	87	-3.9	0	0	960.4	NA	0.0000		9999	1610	0	0	0
2017/06/29 13:51:00	BASE	4.55	333	11.42	316	-2.2	88	-3.9	0	0	960.4	NA	0.0000		9999	820	0	0	0
2017/06/29 13:52:00	BASE	5.94	336	11.42	316	-2.2	88	-3.9	0	0	960.3	NA	0.0000		9999	790	0	0	0
2017/06/29 13:53:00	BASE	6.84	330	11.42	316	-2.2	88	-3.9	0	0	960.3	NA	0.0000		9999	690	0	0	0
2017/06/29 13:54:00	BASE	7.03	325	11.42	316	-2.3	88	-3.9	0	0	960.3	NA	0.0000		9999	590	1770	0	0
2017/06/29 13:55:00	BASE	8.60	319	11.32	335	-2.3	89	-3.9	0	0	960.2	NA	0.0000		9999	690	0	0	0
2017/06/29 13:56:00	BASE	10.00	317	11.21	318	-2.3	89	-3.9	1	0	960.2	NA	0.0000		9999	1540	0	0	0
2017/06/29 13:57:00	BASE	9.06	320	11.21	318	-2.3	89	-3.9	1	0	960.3	NA	0.0000		9999	620	1640	0	0
2017/06/29 13:58:00	BASE	8.17	318	11.21	318	-2.3	89	-3.8	1	0	960.3	NA	0.0000		9999	590	3020	0	0
2017/06/29 13:59:00	BASE	8.48	320	11.21	318	-2.3	89	-3.8	1	0	960.3	NA	0.0000		9999	1570	0	0	0
2017/06/29 14:00:00	BASE	8.52	324	11.21	318	-2.3	89	-3.8	1	0	960.3	NA	0.0000		9999	620	2790	0	0
2017/06/29 14:01:00	BASE	8.16	325	11.21	318	-2.3	90	-3.8	1	0	960.3	NA	0.0000		9999	1710	2620	0	0
2017/06/29 14:02:00	BASE	7.96	324	11.21	318	-2.3	90	-3.7	1	0	960.3	NA	0.0000		9999	1670	0	0	0
2017/06/29 14:03:00	BASE	7.29	323	11.21	318	-2.3	90	-3.7	1	1	960.3	NA	0.0000		9999	720	1900	0	0
2017/06/29 14:04:00	BASE	6.98	325	11.21	318	-2.3	90	-3.7	1	1	960.3	NA	0.0000		9999	2430	0	0	0
2017/06/29 14:05:00	BASE	7.64	327	11.21	318	-2.3	90	-3.7	1	1	960.3	NA	0.0000		9999	520	0	0	0
2017/06/29 14:06:00	BASE	7.82	327	9.77	326	-2.3	90	-3.7	1	1	960.3	NA	0.0000		9999	750	0	0	0
2017/06/29 14:07:00	BASE	7.40	326	9.77	326	-2.3	90	-3.7	1	1	960.3	NA	0.0000		9999	1150	0	0	0
2017/06/29 14:08:00	BASE	6.66	327	9.77	326	-2.3	90	-3.7	1	1	960.3	NA	0.0000		9999	1310	0	0	0
2017/06/29 14:09:00	BASE	7.14	328	9.67	323	-2.3	89	-3.8	1	1	960.3	NA	0.0000		9999	980	2760	0	0
2017/06/29 14:10:00	BASE	7.87	326	9.67	323	-2.3	89	-3.8	1	1	960.3	NA	0.0000		9999	2000	0	0	0
2017/06/29 14:11:00	BASE	7.29	328	9.67	323	-2.3	89	-3.9	1	1	960.4	NA	0.0000		9999	1900	0	0	0
2017/06/29 14:12:00	BASE	7.02	333	9.67	323	-2.3	89	-3.8	1	1	960.4	NA	0.0000		9999	520	0	0	0
2017/06/29 14:13:00	BASE	7.39	331	9.67	323	-2.3	90	-3.7	1	1	960.4	NA	0.0000		9999	490	1770	0	0
2017/06/29 14:14:00	BASE	7.46	332	9.67	323	-2.2	91	-3.6	1	1	960.3	NA	0.0000		9999	330	1510	0	0
2017/06/29 14:15:00	BASE	8.15	339	9.67	348	-2.2	91	-3.5	1	1	960.3	NA	0.0000		9999	330	0	0	0
2017/06/29 14:16:00	BASE	9.04	342	10.65	340	-2.3	92	-3.4	1	1	960.2	NA	0.0000		9999	890	2030	0	0
2017/06/29 14:17:00	BASE	9.07	340	10.65	340	-2.3	92	-3.5	1	2	960.3	NA	0.0000		9999	620	0	0	0
2017/06/29 14:18:00	BASE	8.76	339	10.65	340	-2.4	92	-3.6	1	2	960.3	NA	0.0000		9999	1610	0	0	0
2017/06/29 14:19:00	BASE	9.18	339	10.96	331	-2.4	92	-3.6	1	2	960.2	NA	0.0000		9999	1670	2200	0	0
2017/06/29 14:20:00	BASE	9.35	338	10.96	331	-2.5	92	-3.7	1	2	960.2	NA	0.0000		9999	590	0	0	0
2017/06/29 14:21:00	BASE	9.03	338	10.96	331	-2.5	92	-3.7	1	2	960.3	NA	0.0000		9999	390	1900	0	0
2017/06/29 14:22:00	BASE	9.11	336	10.96	331	-2.4	92	-3.6	1	2	960.3	NA	0.0000		9999	360	1570	0	0
2017/06/29 14:23:00	BASE	9.23	338	10.96	331	-2.4	92	-3.5	1	2	960.3	NA	0.0000		9999	390	1710	0	0
2017/06/29 14:24:00	BASE	9.01	339	10.96	331	-2.4	93	-3.4	1	2	960.3	NA	0.0000		9999	520	1770	0	0
2017/06/29 14:25:00	BASE	8.79	338	10.96	331	-2.3	93	-3.2	1	2	960.4	NA	0.0000		9999	330	1770	0	0
2017/06/29 14:26:00	BASE	9.04	340	10.96	331	-2.2	94	-3.0	1	2	960.4	NA	0.0000		9999	300	1740	0	0
2017/06/29 14:27:00	BASE	8.79	342	10.96	331	-2.1	94	-2.9	1	2	960.4	NA	0.0000		9999	330	1770	0	0
2017/06/29 14:28:00	BASE	9.00	343	10.96	331	-2.1	95	-2.8	1	2	960.4	NA	0.0000		9999	360	1510	0	0
2017/06/29 14:29:00	BASE	9.13	344	10.65	346	-2.1	95	-2.8	1	2	960.4	NA	0.0000		9999	390	0	0	0
2017/06/29 14:30:00	BASE	9.08	343	10.65	332	-2.1	95	-2.8	1	2	960.4	NA	0.0000		9999	430	1740	0	0
2017/06/29 14:31:00	BASE	8.99	341	10.65	332	-2.2	95	-2.9	1	2	960.4	NA	0.0000		9999	330	0	0	0
2017/06/29 14:32:00	BASE	8.33	342	10.65	332	-2.2	95	-2.9	1	3	960.4	NA	0.0000		9999	390	0	0	0
2017/06/29 14:33:00	BASE	8.32	340	10.65	332	-2.3	95	-3.0	2	4	960.4	NA	0.0000		9999	1570	0	0	0
2017/06/29 14:34:00	BASE	8.46	340	10.65	332	-2.3	95	-3.0	2	4	960.4	NA	0.0000		9999	460	1510	0	0
2017/06/29 14:35:00	BASE	8.69	343	10.65	332	-2.4	95	-3.0	2	5	960.4	NA	0.0000		9999	430	3080	0	0
2017/06/29 14:36:00	BASE	9.08	344	10.65	332	-2.4	95	-3.1	2	5	960.4	NA	0.0000		9999	660	0	0	0
2017/06/29 14:37:00	BASE	8.88	343	10.65	332	-2.5	95	-3.1	2	5	960.4	NA	0.0000		9999	590	0	0	0
2017/06/29 14:38:00	BASE	8.90	340	10.65	332	-2.5	95	-3.2	2	5	960.3	NA	0.0000		9999	1480	2720	0	0
2017/06/29 14:39:00	BASE	9.05	340	10.65	332	-2.5	95	-3.2	2	6	960.3	NA	0.0000		9999	660	0	0	0
2017/06/29 14:40:00	BASE	8.71	338	10.13	341	-2.6	95	-3.3	2	6	960.3	NA	0.0000		9999	3080	0	0	0
2017/06/29 14:41:00	BASE	8.58	338	10.13	341	-2.6	95	-3.3	2	6	960.4	NA	0.0000		9999	1800	0	0	0
2017/06/29 14:42:00	BASE	8.38	341	10.13	341	-2.6	95	-3.3	2	6	960.4	NA	0.0000		9999	2530	0	0	0
2017/06/29 14:43:00	BASE	8.27	343	10.13	341	-2.6	94	-3.3	2	6	960.3	NA	0.0000		9999	2130	3180	0	0
2017/06/29 14:44:00	BASE	8.87	344	10.24	346	-2.5	94	-3.3	2	6	960.4	NA	0.0000		9999	2100	0	0	0
2017/06/29 14:45:00	BASE	9.41	343	10.24	346	-2.5	94	-3.3	3	6	960.4	NA	0.0000		9999	430	1710	0	0
2017/06/29 14:46:00	BASE	9.42	343	10.65	341	-2.4	94	-3.2	3	6	960.4	NA	0.0000		9999	330	2260	0	0
2017/06/29 14:47:00	BASE	9.38	341	10.65	341	-2.4	94	-3.2	3	6	960.3	NA	0.0000		9999	360	2400	0	0
2017/06/29 14:48:00	BASE	8.88	340	10.65	341	-2.3	94	-3.1	3	7	960.3	NA	0.0000		9999	1640	0	0	0
2017/06/29 14:49:00	BASE	8.23	339	10.65	341	-2.3	94	-3.1	3	7	960.4	NA	0.0000		9999	3640	0	0	0
2017/06/29 14:50:00	BASE	7.73	340	10.65	341	-2.2	94	-3.0	3	7	960.4	NA	0.0000		9999	1380	0	0	0
2017/06/29 14:51:00	BASE	7.87	340	10.65	341	-2.3	94	-3.1	4	7	960.4	NA	0.0000		9999	790	0	0	0
2017/06/29 14:52:00	BASE	8.40	340	10.65	341	-2.3	94	-3.1	4	8	960.4	NA	0.0000		9999	2100	0	0	0
2017/06/29 14:53:00	BASE	8.30	344	10.65	341	-2.3	94	-3.2	4	8	960.4	NA	0.0000		9999	1150	0	0	0
2017/06/29 14:54:00	BASE	8.01	342	10.65	341	-2.3	94	-3.2	4	8	960.4	NA	0.0000		9999	1310	0	0	0
2017/06/29 14:55:00	BASE	7.85	337	10.65	341	-2.3	93	-3.3	4	8	960.4	NA	0.0000		9999	560	0	0	0
2017/06/29 14:56:00	BASE	7.78	336	10.08	335	-2.3	93	-3.3	4	8	960.4	NA	0.0000		9999	890	0	0	0
2017/06/29 14:57:00	BASE	7.19	336	9.36	338	-2.4	93	-3.4	4	8	960.5	NA	0.0000		9999	460	0	0	0
2017/06/29 14:58:00	BASE	7.38	334	9.62	331	-2.4	93	-3.4	4	8	960.4	NA	0.0000		9999	330	0	0	0
2017/06/29 14:59:00	BASE	7.64	334	9.62	331	-2.3	93	-3.3	4	7	960.4	NA	0.0000		9999	330	1710	0	0
2017/06/29 15:00:00	BASE	7.64	337	9.77	332	-2.2	93	-3.2	4	7	960.4	NA	0.0000		9999	300	1670	0	0
2017/06/29 15:01:00	BASE	7.75	337	9.77	332	-2.1	93	-3.1	4	7	960.5	NA	0.0000		9999	300	1570	0	0
2017/06/29 15:02:00	BASE	7.33	334	9.77	332	-2.0	93	-3.0	4	7	960.5	NA	0.0000	UP	9999	300	0	0	0
2017/06/29 15:03:00	BASE	7.57	335	9.77	332	-1.9	93	-2.9	3	7	960.5	NA	0.0000	UP	9999	330	0	0	0
2017/06/29 15:04:00	BASE	7.95	333	9.77	332	-1.9	93	-2.9	3	6	960.5	NA	0.0000	UP	9999	330	0	0	0
2017/06/29 15:05:00	BASE	8.26	326	9.77	332	-1.9	93	-2.9	3	6	960.5	NA	0.0000	UP	9999	330	0	0	0
2017/06/29 15:06:00	BASE	8.09	323	9.77	332	-1.9	92	-3.0	4	7	960.6	NA	0.0000	UP	9999	230	0	0	0
2017/06/29 15:07:00	BASE	8.17	325	9.77	332	-2.0	92	-3.1	4	7	960.5	NA	0.0000	UP	9999	300	1510	0	0
2017/06/29 15:08:00	BASE	8.55	330	10.19	326	-2.1	92	-3.2	4	8	960.5	NA	0.0000	UP	9999	360	0	0	0
2017/06/29 15:09:00	BASE	8.97	331	11.21	330	-2.1	92	-3.2	4	8	960.4	NA	0.0000	UP	9999	300	2400	0	0
2017/06/29 15:10:00	BASE	9.67	326	11.57	320	-2.2	93	-3.2	5	10	960.5	NA	0.0000	UP	9999	230	1540	0	0
2017/06/29 15:11:00	BASE	10.08	319	11.94	315	-2.2	93	-3.2	5	11	960.4	NA	0.0000	UP	9999	690	0	0	0
2017/06/29 15:12:00	BASE	10.07	315	11.94	315	-2.2	93	-3.3	6	11	960.4	NA	0.0000	UP	9999	1800	0	0	0
2017/06/29 15:13:00	BASE	9.41	316	11.94	315	-2.2	92	-3.3	6	12	960.5	NA	0.0000	UP	9999	1770	2360	0	0
2017/06/29 15:14:00	BASE	8.67	316	11.94	315	-2.2	92	-3.3	6	13	960.5	NA	0.0000	UP	9999	1670	2430	0	0
2017/06/29 15:15:00	BASE	8.42	317	11.94	315	-2.3	92	-3.4	6	13	960.5	NA	0.0000	UP	9999	2400	0	0	0
2017/06/29 15:16:00	BASE	8.34	323	11.94	315	-2.3	92	-3.4	6	12	960.6	NA	0.0000	UP	9999	2300	0	0	0
2017/06/29 15:17:00	BASE	7.94	323	11.94	315	-2.3	92	-3.3	5	12	960.6	NA	0.0000	UP	9999	2200	0	0	0
2017/06/29 15:18:00	BASE	7.95	316	11.94	315	-2.3	93	-3.3	5	11	960.6	NA	0.0000	UP	9999	2300	0	0	0
2017/06/29 15:19:00	BASE	7.56	297	11.94	315	-2.3	92	-3.4	5	11	960.8	NA	0.0000	UP	9999	1970	0	0	0
2017/06/29 15:20:00	BASE	5.00	254	11.94	315	-2.4	92	-3.5	5	12	960.8	NA	0.0000		9999	1670	2300	0	0
2017/06/29 15:21:00	BASE	4.13	177	10.49	315	-2.5	92	-3.6	6	13	960.9	NA	0.0000		9999	950	0	0	0
2017/06/29 15:22:00	BASE	5.50	158	10.03	322	-2.8	92	-3.9	6	14	960.9	NA	0.0000		9999	950	0	0	0
2017/06/29 15:23:00	BASE	5.54	156	10.03	322	-3.0	92	-4.1	7	15	960.9	NA	0.0000		9999	1770	2760	0	0
2017/06/29 15:24:00	BASE	4.25	164	9.67	324	-3.2	93	-4.3	8	16	961.0	NA	0.0000		9999	2070	3250	0	0
2017/06/29 15:25:00	BASE	2.78	165	9.67	324	-3.4	93	-4.3	8	17	961.0	NA	0.0000		9999	3350	0	0	0
2017/06/29 15:26:00	BASE	1.91	163	9.41	314	-3.4	94	-4.3	7	16	961.0	NA	0.0000		9999	3510	0	0	0
2017/06/29 15:27:00	BASE	1.99	186	9.41	314	-3.4	94	-4.2	7	15	961.0	NA	0.0000		9999	3610	0	0	0
2017/06/29 15:28:00	BASE	2.55	185	7.92	299	-3.3	94	-4.1	6	14	961.0	NA	0.0000		9999	1180	0	0	0
2017/06/29 15:29:00	BASE	3.46	153	6.79	161	-3.2	94	-4.1	6	13	961.0	NA	0.0000		9999	2920	0	0	0
2017/06/29 15:30:00	BASE	4.47	134	6.79	161	-3.3	94	-4.1	5	11	961.0	NA	0.0000		9999	2820	0	0	0
2017/06/29 15:31:00	BASE	4.27	131	6.79	161	-3.3	93	-4.2	4	10	961.0	NA	0.0000		6000	2460	0	0	0
2017/06/29 15:32:00	BASE	4.11	133	5.81	142	-3.4	93	-4.4	4	9	961.1	NA	0.0000		5000	2360	0	0	0
2017/06/29 15:33:00	BASE	4.30	137	5.81	142	-3.6	93	-4.5	4	9	961.1	NA	0.0000	BR	5000	720	2260	0	0
2017/06/29 15:34:00	BASE	4.58	139	6.84	135	-3.7	94	-4.6	3	8	961.0	NA	0.0000	BR	5000	460	0	0	0
2017/06/29 15:35:00	BASE	5.48	135	6.89	138	-3.8	94	-4.6	3	7	961.0	NA	0.0000	BR	2900	360	0	0	0
2017/06/29 15:36:00	BASE	6.14	135	6.89	136	-3.8	94	-4.6	3	7	961.0	NA	0.0000	-SN BR	1300	300	1510	0	0
2017/06/29 15:37:00	BASE	6.01	138	6.89	136	-3.7	95	-4.5	3	7	961.1	NA	0.0000	-SN BR	0900	300	0	0	0
2017/06/29 15:38:00	BASE	5.71	137	6.89	136	-3.7	95	-4.4	3	7	961.1	NA	0.0000	-SN BR	0750	330	0	0	0
2017/06/29 15:39:00	BASE	5.77	136	6.89	136	-3.7	96	-4.3	3	7	961.1	NA	0.0000	-SN BR	0700	360	2430	0	0
2017/06/29 15:40:00	BASE	5.56	138	6.89	136	-3.7	96	-4.3	3	7	961.1	NA	0.0000	-SN BR	0650	360	0	0	0
2017/06/29 15:41:00	BASE	5.14	138	6.89	136	-3.8	97	-4.2	3	7	961.1	NA	0.0000	-SN BR	0650	330	0	0	0
2017/06/29 15:42:00	BASE	4.87	136	6.89	136	-3.8	97	-4.2	3	8	961.2	NA	0.0000	-SN BR	0600	360	0	0	0
2017/06/29 15:43:00	BASE	4.97	135	6.89	136	-3.8	97	-4.2	3	9	961.2	NA	0.0000	-SN FZFG	0550	2760	0	0	0
2017/06/29 15:44:00	BASE	5.11	134	6.89	136	-3.8	97	-4.2	3	9	961.1	NA	0.0000	-SN FZFG	0550	2030	2890	0	0
2017/06/29 15:45:00	BASE	5.17	132	6.89	136	-3.8	97	-4.2	3	10	961.1	NA	0.0000	-SN FZFG	0600	2920	0	0	0
2017/06/29 15:46:00	BASE	5.13	128	6.22	140	-3.9	97	-4.3	4	10	961.1	NA	0.0000	-SN FZFG	0600	2530	3150	0	0
2017/06/29 15:47:00	BASE	4.76	127	6.22	140	-4.0	97	-4.4	4	10	961.2	NA	0.0000	-SN FZFG	0550	2760	0	0	0
2017/06/29 15:48:00	BASE	4.65	128	6.22	140	-4.0	97	-4.4	4	10	961.2	NA	0.0000	-SN FZFG	0550	1310	3020	0	0
2017/06/29 15:49:00	BASE	4.99	128	6.07	128	-4.1	97	-4.5	4	11	961.2	NA	0.0000	-SN FZFG	0550	920	0	0	0
2017/06/29 15:50:00	BASE	5.59	129	6.38	136	-4.1	97	-4.5	4	11	961.1	NA	0.0000	-SN FZFG	0550	1050	2990	0	0
2017/06/29 15:51:00	BASE	6.10	130	6.64	130	-4.2	97	-4.6	4	11	961.1	NA	0.0000	-SN FZFG	0550	2070	0	0	0
2017/06/29 15:52:00	BASE	6.16	128	6.64	130	-4.2	97	-4.6	4	12	961.1	NA	0.0000	-SN FZFG	0550	2850	0	0	0
2017/06/29 15:53:00	BASE	6.25	125	7.00	120	-4.3	97	-4.7	4	12	961.1	NA	0.0000	-SN FZFG	0550	2920	0	0	0
2017/06/29 15:54:00	BASE	6.36	122	7.00	117	-4.3	97	-4.7	4	12	961.1	NA	0.0000	FZFG	0600	3020	0	0	0
2017/06/29 15:55:00	BASE	5.97	120	7.00	117	-4.3	97	-4.7	4	13	961.2	NA	0.0000	FZFG	0600	3180	0	0	0
2017/06/29 15:56:00	BASE	5.37	120	7.00	117	-4.3	97	-4.7	4	13	961.2	NA	0.0000	FZFG	0600	3050	0	0	0
2017/06/29 15:57:00	BASE	4.86	121	7.00	117	-4.2	97	-4.6	5	13	961.2	NA	0.0000	FZFG	0650	3120	0	0	0
2017/06/29 15:58:00	BASE	4.57	124	7.00	117	-4.2	97	-4.6	5	13	961.3	NA	0.0000	FZFG	0650	2720	0	0	0
2017/06/29 15:59:00	BASE	4.35	126	7.00	117	-4.2	97	-4.6	5	13	961.4	NA	0.0000	FZFG	0700	3150	0	0	0
2017/06/29 16:00:00	BASE	4.21	122	7.00	117	-4.2	97	-4.6	5	13	961.4	NA	0.0000	FZFG	0700	2950	0	0	0
2017/06/29 16:01:00	BASE	3.91	118	7.00	117	-4.2	97	-4.6	4	13	961.4	NA	0.0000	FZFG	0700	2300	2950	0	0
2017/06/29 16:02:00	BASE	3.56	114	7.00	117	-4.2	97	-4.6	4	13	961.4	NA	0.0000	FZFG	0800	2920	0	0	0
2017/06/29 16:03:00	BASE	3.89	117	7.00	117	-4.2	97	-4.6	4	13	961.4	NA	0.0000	FZFG	0800	1610	0	0	0
2017/06/29 16:04:00	BASE	4.92	123	6.38	115	-4.2	97	-4.6	4	13	961.3	NA	0.0000	FZFG	0800	2890	0	0	0
2017/06/29 16:05:00	BASE	4.92	124	6.28	127	-4.2	97	-4.6	4	13	961.4	NA	0.0000	FZFG	0900	1120	2920	0	0
2017/06/29 16:06:00	BASE	4.63	121	6.28	127	-4.2	97	-4.6	4	13	961.3	NA	0.0000	FZFG	0900	980	0	0	0
2017/06/29 16:07:00	BASE	5.13	120	6.28	127	-4.2	97	-4.6	4	13	961.3	NA	0.0000	FZFG	1000	790	0	0	0
2017/06/29 16:08:00	BASE	5.64	121	6.33	124	-4.2	97	-4.6	4	14	961.3	NA	0.0000	FZFG	1000	2790	0	0	0
2017/06/29 16:09:00	BASE	5.73	123	6.33	124	-4.2	97	-4.6	4	14	961.4	NA	0.0000	FZFG	1000	1570	0	0	0
2017/06/29 16:10:00	BASE	5.19	125	6.33	124	-4.3	97	-4.7	4	13	961.4	NA	0.0000	BR	1000	1380	0	0	0
2017/06/29 16:11:00	BASE	4.94	127	6.33	124	-4.3	97	-4.7	5	13	961.4	NA	0.0000	BR	0900	750	0	0	0
2017/06/29 16:12:00	BASE	5.35	125	6.38	121	-4.4	97	-4.8	5	13	961.3	NA	0.0000	BR	0900	560	2690	0	0
2017/06/29 16:13:00	BASE	5.56	120	6.38	119	-4.4	97	-4.8	5	13	961.4	NA	0.0000	BR	1000	460	2400	0	0
2017/06/29 16:14:00	BASE	5.38	119	6.38	119	-4.4	97	-4.8	5	13	961.4	NA	0.0000	BR	0900	460	0	0	0
2017/06/29 16:15:00	BASE	5.07	123	6.38	119	-4.4	97	-4.8	5	13	961.4	NA	0.0000	-SN BR	0800	390	2200	0	0
2017/06/29 16:16:00	BASE	4.69	126	6.38	119	-4.3	97	-4.7	5	13	961.4	NA	0.0000	-SN BR	0650	360	2070	0	0
2017/06/29 16:17:00	BASE	4.77	126	6.38	119	-4.2	97	-4.7	5	14	961.4	NA	0.0000	-SN FZFG	0550	390	1970	0	0
2017/06/29 16:18:00	BASE	5.01	127	6.38	119	-4.2	97	-4.6	5	13	961.4	NA	0.0000	-SN FZFG	0550	430	0	0	0
2017/06/29 16:19:00	BASE	5.05	126	6.38	119	-4.1	97	-4.5	4	13	961.4	NA	0.0000	-SN FZFG	0550	850	2230	0	0
2017/06/29 16:20:00	BASE	5.17	122	6.38	119	-4.1	97	-4.5	4	13	961.4	NA	0.0000	-SN FZFG	0500	490	0	0	0
2017/06/29 16:21:00	BASE	4.87	117	6.38	119	-4.1	97	-4.5	4	14	961.5	NA	0.0000	-SN FZFG	0500	460	0	0	0
2017/06/29 16:22:00	BASE	4.57	110	6.38	119	-4.1	97	-4.5	4	14	961.4	NA	0.0000	-SN FZFG	0500	2130	0	0	0
2017/06/29 16:23:00	BASE	4.68	111	5.92	119	-4.1	97	-4.6	5	15	961.4	NA	0.0000	-SN FZFG	0500	2360	2990	0	0
2017/06/29 16:24:00	BASE	4.54	113	5.71	122	-4.2	97	-4.6	5	16	961.5	NA	0.0000	-SN FZFG	0500	1020	0	0	0
2017/06/29 16:25:00	BASE	4.33	116	5.71	122	-4.2	97	-4.6	6	17	961.5	NA	0.0000	-SN FZFG	0500	620	0	0	0
2017/06/29 16:26:00	BASE	4.14	121	5.71	122	-4.2	97	-4.6	6	17	961.5	NA	0.0000	-SN FZFG	0500	590	0	0	0
2017/06/29 16:27:00	BASE	4.59	117	5.71	122	-4.2	97	-4.6	6	17	961.5	NA	0.0000	-SN FZFG	0500	460	2950	0	0
2017/06/29 16:28:00	BASE	5.05	110	5.71	122	-4.3	97	-4.7	6	17	961.5	NA	0.0000	-SN FZFG	0500	0	0	0	4460
2017/06/29 16:29:00	BASE	4.72	110	5.66	122	-4.3	97	-4.7	5	16	961.5	NA	0.0000	-SN FZFG	0550	0	0	0	4070
2017/06/29 16:30:00	BASE	4.29	111	5.56	114	-4.3	97	-4.8	5	16	961.5	NA	0.0000	-SN FZFG	0600	0	0	0	3380
2017/06/29 16:31:00	BASE	3.83	115	5.56	114	-4.4	97	-4.8	5	16	961.5	NA	0.0000	-SN FZFG	0650	0	0	0	3310
2017/06/29 16:32:00	BASE	3.84	119	5.56	114	-4.4	97	-4.8	5	17	961.5	NA	0.0000	-SN FZFG	0750	0	0	0	3670
2017/06/29 16:33:00	BASE	4.07	117	5.40	110	-4.4	97	-4.8	5	16	961.6	NA	0.0000	-SN FZFG	0800	0	0	0	3280
2017/06/29 16:34:00	BASE	3.60	115	5.40	110	-4.4	97	-4.8	5	16	961.6	NA	0.0000	-SN FZFG	0800	330	0	0	0
2017/06/29 16:35:00	BASE	3.46	116	5.40	110	-4.4	97	-4.8	6	16	961.5	NA	0.0000	-SN FZFG	0900	360	0	0	0
2017/06/29 16:36:00	BASE	4.19	114	5.40	110	-4.4	97	-4.8	6	17	961.5	NA	0.0000	-SN FZFG	1000	390	0	0	0
2017/06/29 16:37:00	BASE	4.86	108	5.71	103	-4.4	97	-4.8	6	17	961.5	NA	0.0000	-SN FZFG	1100	360	0	0	0
2017/06/29 16:38:00	BASE	4.76	105	5.71	103	-4.4	97	-4.8	6	17	961.5	NA	0.0000	-SN FZFG	1300	360	1740	0	0
2017/06/29 16:39:00	BASE	4.34	108	5.71	103	-4.5	97	-4.9	6	17	961.5	NA	0.0000	-SN BR	1500	330	1250	0	0
2017/06/29 16:40:00	BASE	4.32	106	5.71	103	-4.5	97	-4.9	7	18	961.5	NA	0.0000	-SN BR	1200	330	0	0	0
2017/06/29 16:41:00	BASE	4.49	99	5.71	103	-4.5	97	-4.9	7	18	961.5	NA	0.0000	-SN BR	1100	0	0	0	3150
2017/06/29 16:42:00	BASE	4.24	97	5.71	103	-4.5	97	-5.0	7	19	961.5	NA	0.0000	-SN BR	1300	0	0	0	3080
2017/06/29 16:43:00	BASE	3.35	97	5.71	103	-4.5	97	-4.9	7	20	961.5	NA	0.0000	-SN BR	1500	360	0	0	0
2017/06/29 16:44:00	BASE	3.37	99	5.71	103	-4.5	97	-4.9	8	21	961.4	NA	0.0000	-SN BR	1900	390	0	0	0
2017/06/29 16:45:00	BASE	3.95	104	5.71	103	-4.5	97	-4.9	8	21	961.5	NA	0.0000	-SN BR	2100	360	0	0	0
2017/06/29 16:46:00	BASE	4.07	109	5.71	103	-4.5	97	-4.9	8	22	961.6	NA	0.0000	-SN BR	1500	0	0	0	4530
2017/06/29 16:47:00	BASE	3.73	113	5.61	105	-4.5	97	-4.9	8	22	961.6	NA	0.0000	-SN BR	1200	0	0	0	4590
2017/06/29 16:48:00	BASE	3.28	116	5.61	105	-4.5	97	-4.9	8	21	961.6	NA	0.0000	-SN BR	1000	0	0	0	2400
2017/06/29 16:49:00	BASE	3.46	117	5.61	105	-4.5	97	-4.9	7	20	961.7	NA	0.0000	-SN BR	1300	0	0	0	790
2017/06/29 16:50:00	BASE	3.27	115	5.61	105	-4.5	97	-4.9	7	19	961.7	NA	0.0000	-SN BR	1700	0	0	0	5090
2017/06/29 16:51:00	BASE	3.04	114	4.73	101	-4.5	97	-4.9	6	18	961.7	NA	0.0000	-SN BR	2200	0	0	0	4530
2017/06/29 16:52:00	BASE	3.61	116	4.73	101	-4.5	97	-4.9	6	17	961.7	NA	0.0000	-SN BR	2100	0	0	0	4270
2017/06/29 16:53:00	BASE	4.08	118	4.73	101	-4.6	97	-5.0	6	16	961.7	NA	0.0000	-SN BR	2700	460	0	0	0
2017/06/29 16:54:00	BASE	3.80	117	4.53	119	-4.6	97	-5.0	6	16	961.7	NA	0.0000	-SN BR	5000	430	0	0	0
2017/06/29 16:55:00	BASE	3.41	116	4.53	119	-4.6	97	-5.0	6	17	961.7	NA	0.0000	-SN BR	9000	430	0	0	0
2017/06/29 16:56:00	BASE	3.86	115	4.68	110	-4.6	97	-5.0	6	17	961.7	NA	0.0000	-SN BR	9999	390	0	0	0
2017/06/29 16:57:00	BASE	4.06	110	4.68	110	-4.6	97	-5.0	6	18	961.8	NA	0.0000	-SN BR	9999	330	2950	0	0
2017/06/29 16:58:00	BASE	3.52	109	4.68	110	-4.5	97	-4.9	6	18	961.8	NA	0.0000	-SN BR	5000	300	0	0	0
2017/06/29 16:59:00	BASE	3.70	106	4.99	99	-4.5	97	-4.9	6	17	961.8	NA	0.0000	-SN BR	2900	300	0	0	0
2017/06/29 17:00:00	BASE	3.78	98	4.99	99	-4.5	97	-4.9	7	18	961.8	NA	0.0000	-SN BR	2300	360	0	0	0
2017/06/29 17:01:00	BASE	3.75	97	4.99	99	-4.5	97	-4.9	8	19	961.8	NA	0.0000	-SN BR	2400	430	0	0	0
2017/06/29 17:02:00	BASE	3.70	99	4.99	99	-4.5	97	-4.9	9	21	961.8	NA	0.0000	-SN BR	3600	390	0	0	0
2017/06/29 17:03:00	BASE	3.09	99	4.99	99	-4.5	97	-4.9	10	22	961.8	NA	0.0000	-SN BR	5000	330	0	0	0
2017/06/29 17:04:00	BASE	2.79	92	4.99	99	-4.5	97	-4.9	10	23	961.8	NA	0.0000	-SN BR	3100	260	0	0	0
2017/06/29 17:05:00	BASE	2.75	82	4.99	99	-4.5	97	-4.9	11	24	961.8	NA	0.0000	-SN BR	1600	260	0	0	0
2017/06/29 17:06:00	BASE	3.46	84	4.99	99	-4.5	97	-4.9	12	24	961.7	NA	0.0000	-SN BR	1400	0	0	0	2170
2017/06/29 17:07:00	BASE	4.26	86	4.99	99	-4.5	97	-4.9	12	24	961.7	NA	0.0000	-SN BR	1500	0	0	0	2300
2017/06/29 17:08:00	BASE	4.32	82	4.99	99	-4.5	97	-4.9	12	24	961.7	NA	0.0000	-SN BR	2300	6630	0	0	0
2017/06/29 17:09:00	BASE	4.13	81	4.68	84	-4.6	97	-5.0	12	24	961.8	NA	0.0000	-SN BR	3100	5970	0	0	0
2017/06/29 17:10:00	BASE	3.58	82	4.68	84	-4.6	97	-5.0	11	23	961.9	NA	0.0000	-SN BR	9999	5350	0	0	0
2017/06/29 17:11:00	BASE	3.13	84	4.68	84	-4.7	97	-5.1	10	22	962.0	NA	0.0000	-SN BR	9999	5150	0	0	0
2017/06/29 17:12:00	BASE	2.97	87	4.68	84	-4.7	97	-5.1	9	20	962.0	NA	0.0000	-SN BR	9999	1440	0	0	0
2017/06/29 17:13:00	BASE	2.69	93	4.68	84	-4.7	97	-5.1	9	19	962.1	NA	0.0000	-SN BR	9999	4890	0	0	0
2017/06/29 17:14:00	BASE	2.30	102	4.68	84	-4.7	97	-5.1	8	16	962.2	NA	0.0000	-SN BR	9999	0	0	0	4720
2017/06/29 17:15:00	BASE	1.92	115	4.68	84	-4.6	97	-5.0	7	14	962.2	NA	0.0000	-SN BR	9999	0	0	0	3770
2017/06/29 17:16:00	BASE	1.87	122	4.68	84	-4.6	97	-5.0	6	12	962.3	NA	0.0000	-SN BR	9999	750	0	0	0
2017/06/29 17:17:00	BASE	2.23	129	4.68	84	-4.5	97	-4.9	6	11	962.3	NA	0.0000	-SN BR	9999	0	0	0	2760
2017/06/29 17:18:00	BASE	2.68	136	4.37	81	-4.5	97	-4.9	5	10	962.3	NA	0.0000	-SN	9999	490	0	0	0
2017/06/29 17:19:00	BASE	2.76	136	3.65	90	-4.5	97	-4.9	6	10	962.3	NA	0.0000	-SN	9999	360	0	0	0
2017/06/29 17:20:00	BASE	2.34	128	3.65	90	-4.5	97	-4.9	6	11	962.3	NA	0.0000		9999	300	0	0	0
2017/06/29 17:21:00	BASE	2.00	126	3.19	96	-4.5	97	-4.9	6	11	962.4	NA	0.0000		5000	260	0	0	0
2017/06/29 17:22:00	BASE	1.57	125	3.09	135	-4.4	97	-4.9	6	10	962.5	NA	0.0000	-SN BR	1300	0	0	0	1180
2017/06/29 17:23:00	BASE	0.66	117	3.09	135	-4.4	97	-4.8	6	10	962.5	NA	0.0000	-SN BR	0700	0	0	0	950
2017/06/29 17:24:00	BASE	0.05	96	3.09	135	-4.4	97	-4.8	6	11	962.5	NA	0.0000	-SN BR	0600	0	0	0	850
2017/06/29 17:25:00	BASE	0.00	63	3.09	135	-4.4	97	-4.8	6	12	962.5	NA	0.0000	-SN BR	0500	0	0	0	720
2017/06/29 17:26:00	BASE	0.63	28	3.09	135	-4.4	97	-4.8	6	12	962.5	NA	0.0000	-SN BR	0500	0	0	0	820
2017/06/29 17:27:00	BASE	1.75	11	3.09	135	-4.3	97	-4.7	6	11	962.5	NA	0.0000	+SN BR	0600	0	0	0	950
2017/06/29 17:28:00	BASE	2.30	0	2.88	140	-4.3	97	-4.7	6	11	962.6	NA	0.0000	+SN BR	1500	0	0	0	950
2017/06/29 17:29:00	BASE	2.91	353	5.04	345	-4.2	97	-4.6	6	11	962.6	NA	0.0000	-SN BR	1800	0	0	0	820
2017/06/29 17:30:00	BASE	3.87	343	5.71	331	-4.2	97	-4.6	6	10	962.6	NA	0.0000	-SN FZFG	1500	0	0	0	790
2017/06/29 17:31:00	BASE	3.91	330	5.71	331	-4.1	97	-4.5	6	11	962.7	NA	0.0000	-SN FZFG	2200	0	0	0	720
2017/06/29 17:32:00	BASE	3.91	328	5.71	331	-4.1	97	-4.5	6	10	962.7	NA	0.0000	-SN BR	2600	0	0	0	790
2017/06/29 17:33:00	BASE	4.44	311	5.71	331	-4.0	97	-4.4	5	9	962.8	NA	0.0000	-SN BR	3600	0	0	0	1180
2017/06/29 17:34:00	BASE	5.14	298	7.82	295	-4.0	97	-4.4	5	8	962.8	NA	0.0000	-SN BR	2500	0	0	0	890
2017/06/29 17:35:00	BASE	5.73	289	7.82	295	-3.9	97	-4.3	4	7	962.8	NA	0.0000	-SN BR	2300	0	0	0	1710
2017/06/29 17:36:00	BASE	5.26	273	7.82	295	-3.9	97	-4.3	4	7	962.9	NA	0.0000	-SN BR	2700	0	0	0	1480
2017/06/29 17:37:00	BASE	3.96	285	7.82	295	-3.9	97	-4.3	4	6	962.9	NA	0.0000	-SN BR	2000	0	0	0	1210
2017/06/29 17:38:00	BASE	3.46	293	7.82	295	-3.9	97	-4.3	4	7	962.9	NA	0.0000	-SN BR	1900	0	0	0	1380
2017/06/29 17:39:00	BASE	5.22	281	8.28	273	-3.9	98	-4.2	5	7	962.9	NA	0.0000	-SN BR	2300	0	0	0	1380
2017/06/29 17:40:00	BASE	6.16	263	8.28	273	-3.9	98	-4.2	5	8	962.9	NA	0.0000	-SN BR	3500	0	0	0	1710
2017/06/29 17:41:00	BASE	5.00	249	8.28	273	-3.9	98	-4.2	5	9	963.0	NA	0.0000	-SN BR	4900	300	1350	0	0
2017/06/29 17:42:00	BASE	5.42	246	8.28	273	-3.9	98	-4.2	5	8	963.0	NA	0.0000	-SN BR	6000	300	0	0	0
2017/06/29 17:43:00	BASE	8.03	237	12.35	223	-3.9	98	-4.2	4	6	963.1	NA	0.0000	-SN BR	4900	330	1570	0	0
2017/06/29 17:44:00	BASE	9.09	233	12.35	223	-4.0	98	-4.3	4	6	963.1	NA	0.0000	-SN BR	5000	1150	0	0	0
2017/06/29 17:45:00	BASE	9.49	235	13.48	228	-4.0	97	-4.3	4	6	963.1	NA	0.0000	-SN BR	9000	330	1740	0	0
2017/06/29 17:46:00	BASE	10.82	231	14.04	221	-4.0	97	-4.4	3	5	963.2	NA	0.0000	-SN BR	5000	300	0	0	0
2017/06/29 17:47:00	BASE	10.45	224	14.04	221	-4.0	97	-4.4	3	5	963.3	NA	0.0000	-SN BR	4500	1210	0	0	0
2017/06/29 17:48:00	BASE	9.70	223	14.04	221	-4.0	97	-4.4	3	4	963.3	NA	0.0000	-SN BR	4800	330	0	0	0
2017/06/29 17:49:00	BASE	10.28	225	14.04	221	-4.1	97	-4.5	3	4	963.3	NA	0.0000	-SN BR	4000	330	0	0	0
2017/06/29 17:50:00	BASE	10.55	228	14.04	221	-4.1	97	-4.5	3	4	963.3	NA	0.0000	-SN BR	5000	330	0	0	0
2017/06/29 17:51:00	BASE	9.75	227	14.04	221	-4.2	97	-4.6	3	3	963.4	NA	0.0000	-SN BR	6000	1120	0	0	0
2017/06/29 17:52:00	BASE	10.03	222	14.04	221	-4.2	97	-4.6	3	3	963.4	NA	0.0000	-SN BR	9999	1020	0	0	0
2017/06/29 17:53:00	BASE	10.97	224	14.04	221	-4.2	97	-4.6	2	2	963.4	NA	0.0000	-SN BR	9999	1350	0	0	0
2017/06/29 17:54:00	BASE	11.23	226	14.04	221	-4.2	97	-4.6	2	2	963.4	NA	0.0000	-SN BR	9999	1350	0	0	0
2017/06/29 17:55:00	BASE	12.41	229	14.76	231	-4.2	97	-4.6	2	2	963.4	NA	0.0000	-SN BR	9999	1350	0	0	0
2017/06/29 17:56:00	BASE	12.32	229	14.76	231	-4.2	97	-4.7	3	3	963.5	NA	0.0000	-SN BR	9999	1350	0	0	0
2017/06/29 17:57:00	BASE	11.58	228	14.76	231	-4.3	96	-4.8	3	4	963.5	NA	0.0000	-SN BR	9999	1410	0	0	0
2017/06/29 17:58:00	BASE	12.57	230	15.12	230	-4.3	96	-4.9	3	4	963.5	NA	0.0000	-SN BR	9999	1480	0	0	0
2017/06/29 17:59:00	BASE	12.39	227	15.12	230	-4.3	95	-5.0	4	3	963.6	NA	0.0000	-SN	9999	1540	0	0	0
2017/06/29 18:00:00	BASE	11.46	224	15.12	230	-4.3	95	-5.0	4	5	963.6	NA	0.0000	-SN	9999	1740	0	0	0
2017/06/29 18:01:00	BASE	11.62	228	15.12	230	-4.4	95	-5.1	4	5	963.6	NA	0.0000	-SN	9999	1480	0	0	0
2017/06/29 18:02:00	BASE	11.40	228	15.12	230	-4.4	94	-5.1	4	6	963.7	NA	0.0000	-SN	9999	2030	3480	0	0
2017/06/29 18:03:00	BASE	10.55	227	15.12	230	-4.4	94	-5.2	4	4	963.8	NA	0.0000		9999	1540	0	0	0
2017/06/29 18:04:00	BASE	10.36	229	15.12	230	-4.4	94	-5.2	4	4	963.8	NA	0.0000		9999	1610	0	0	0
2017/06/29 18:05:00	BASE	11.10	229	15.12	230	-4.5	93	-5.4	4	5	963.8	NA	0.0000		9999	1640	0	0	0
2017/06/29 18:06:00	BASE	11.57	232	15.12	230	-4.5	93	-5.5	5	4	963.9	NA	0.0000		9999	1640	0	0	0
2017/06/29 18:07:00	BASE	12.13	234	15.12	230	-4.5	93	-5.5	5	5	963.8	NA	0.0000		9999	1540	0	0	0
2017/06/29 18:08:00	BASE	11.84	233	14.25	230	-4.5	92	-5.6	5	4	963.9	NA	0.0000		9999	1570	0	0	0
2017/06/29 18:09:00	BASE	11.02	231	14.25	230	-4.5	92	-5.6	5	5	963.9	NA	0.0000		9999	1640	0	0	0
2017/06/29 18:10:00	BASE	10.84	229	14.25	230	-4.5	92	-5.6	5	5	963.9	NA	0.0000		9999	1840	0	0	0
2017/06/29 18:11:00	BASE	10.77	229	14.25	230	-4.5	92	-5.6	5	5	964.0	NA	0.0000		9999	1570	0	0	0
2017/06/29 18:12:00	BASE	11.05	232	14.25	230	-4.5	92	-5.6	5	4	964.0	NA	0.0000		9999	1570	0	0	0
2017/06/29 18:13:00	BASE	11.75	234	14.25	230	-4.5	92	-5.6	5	5	964.0	NA	0.0000		9999	1570	0	0	0
2017/06/29 18:14:00	BASE	12.41	237	14.25	230	-4.5	92	-5.7	5	5	963.9	NA	0.0000		9999	1710	5450	0	0
2017/06/29 18:15:00	BASE	12.20	237	14.25	230	-4.5	92	-5.7	5	5	964.0	NA	0.0000		9999	5320	0	0	0
2017/06/29 18:16:00	BASE	11.77	235	14.04	230	-4.5	92	-5.7	5	5	964.0	NA	0.0000		9999	1770	5380	0	0
2017/06/29 18:17:00	BASE	11.66	232	13.79	226	-4.5	91	-5.7	5	4	964.1	NA	0.0000		9999	5380	0	0	0
2017/06/29 18:18:00	BASE	11.37	231	13.79	226	-4.5	91	-5.7	5	4	964.1	NA	0.0000		9999	1710	5450	0	0
2017/06/29 18:19:00	BASE	11.27	233	13.79	226	-4.6	91	-5.8	5	4	964.1	NA	0.0000		9999	1800	5410	0	0
2017/06/29 18:20:00	BASE	12.02	237	14.30	237	-4.6	91	-5.8	5	4	964.0	NA	0.0000		9999	5480	0	0	0
2017/06/29 18:21:00	BASE	13.16	240	14.71	246	-4.6	91	-5.8	4	3	964.0	NA	0.0000		9999	6140	0	0	0
2017/06/29 18:22:00	BASE	13.69	239	14.76	236	-4.6	91	-5.8	4	3	964.1	NA	0.0000		9999	1710	6430	0	0
2017/06/29 18:23:00	BASE	13.35	235	14.76	236	-4.6	91	-5.8	4	3	964.2	NA	0.0000		9999	1640	5610	0	0
2017/06/29 18:24:00	BASE	13.15	235	14.76	236	-4.6	91	-5.8	4	3	964.2	NA	0.0000		9999	6000	0	0	0
2017/06/29 18:25:00	BASE	12.85	235	14.76	236	-4.6	91	-5.8	4	2	964.2	NA	0.0000		9999	1610	5680	0	0
2017/06/29 18:26:00	BASE	12.99	235	15.12	236	-4.6	91	-5.8	3	2	964.2	NA	0.0000		9999	1670	5610	0	0
2017/06/29 18:27:00	BASE	13.31	238	15.12	236	-4.7	91	-5.9	3	3	964.2	NA	0.0000		9999	1740	5680	0	0
2017/06/29 18:28:00	BASE	13.34	237	15.12	236	-4.7	91	-6.0	3	2	964.3	NA	0.0000	-SN	9999	1770	5740	0	0
2017/06/29 18:29:00	BASE	13.25	234	15.12	236	-4.7	90	-6.1	3	3	964.3	NA	0.0000	-SN	9999	5710	0	0	0
2017/06/29 18:30:00	BASE	12.75	235	15.12	236	-4.7	89	-6.2	2	1	964.4	NA	0.0000	-SN	9999	5640	0	0	0
2017/06/29 18:31:00	BASE	12.29	236	15.12	236	-4.8	89	-6.3	2	2	964.4	NA	0.0000	-SN	9999	5640	0	0	0
2017/06/29 18:32:00	BASE	12.76	234	15.64	235	-4.8	89	-6.4	2	2	964.4	NA	0.0000	-SN	9999	5680	0	0	0
2017/06/29 18:33:00	BASE	12.40	232	15.64	235	-4.8	89	-6.4	2	2	964.5	NA	0.0000	-SN	9999	5710	0	0	0
2017/06/29 18:34:00	BASE	12.04	234	15.64	235	-4.8	89	-6.4	2	1	964.4	NA	0.0000	-SN	9999	5770	0	0	0
2017/06/29 18:35:00	BASE	13.05	236	15.64	235	-4.8	88	-6.4	2	2	964.5	NA	0.0000	-SN	9999	5810	0	0	0
2017/06/29 18:36:00	BASE	12.73	235	15.64	235	-4.8	88	-6.5	2	1	964.5	NA	0.0000	-SN	9999	5680	0	0	0
2017/06/29 18:37:00	BASE	12.34	236	15.64	235	-4.8	88	-6.5	2	0	964.5	NA	0.0000	-SN	9999	5770	0	0	0
2017/06/29 18:38:00	BASE	12.74	238	15.64	235	-4.8	88	-6.5	2	0	964.6	NA	0.0000		9999	1770	5870	0	0
2017/06/29 18:39:00	BASE	12.26	241	15.64	235	-4.8	88	-6.5	2	1	964.6	NA	0.0000		9999	1710	5910	0	0
2017/06/29 18:40:00	BASE	12.70	238	15.64	235	-4.8	88	-6.5	2	0	964.6	NA	0.0000		9999	1710	5940	0	0
2017/06/29 18:41:00	BASE	12.82	232	15.64	235	-4.8	88	-6.6	1	0	964.7	NA	0.0000		9999	5840	0	0	0
2017/06/29 18:42:00	BASE	12.32	230	15.48	226	-4.8	87	-6.6	1	0	964.7	NA	0.0000		9999	6000	0	0	0
2017/06/29 18:43:00	BASE	12.74	228	15.48	226	-4.9	87	-6.7	1	0	964.8	NA	0.0000		9999	6040	0	0	0
2017/06/29 18:44:00	BASE	12.97	229	15.48	226	-4.9	86	-6.8	1	0	964.8	NA	0.0000		9999	5910	6430	0	0
2017/06/29 18:45:00	BASE	12.59	231	15.48	226	-4.9	86	-6.9	1	0	964.9	NA	0.0000		9999	5910	0	0	0
2017/06/29 18:46:00	BASE	12.02	229	15.48	226	-4.9	86	-6.8	1	0	965.0	NA	0.0000		9999	5940	0	0	0
2017/06/29 18:47:00	BASE	12.21	232	15.48	226	-4.9	86	-6.8	1	0	965.0	NA	0.0000		9999	5940	0	0	0
2017/06/29 18:48:00	BASE	12.54	233	15.48	226	-4.9	87	-6.8	1	0	965.0	NA	0.0000		9999	5940	0	0	0
2017/06/29 18:49:00	BASE	12.88	233	15.48	226	-4.9	87	-6.8	1	0	965.1	NA	0.0000		9999	2170	5970	0	0
2017/06/29 18:50:00	BASE	12.39	233	14.97	229	-4.9	86	-6.8	1	0	965.1	NA	0.0000		9999	1840	0	0	0
2017/06/29 18:51:00	BASE	10.66	231	14.97	229	-4.8	87	-6.7	1	0	965.2	NA	0.0000		9999	1800	6070	0	0
2017/06/29 18:52:00	BASE	10.23	227	14.97	229	-4.8	87	-6.7	1	0	965.2	NA	0.0000		9999	1900	6140	0	0
2017/06/29 18:53:00	BASE	11.79	226	14.97	229	-4.8	86	-6.8	1	0	965.2	NA	0.0000		9999	1800	0	0	0
2017/06/29 18:54:00	BASE	11.85	227	14.97	229	-4.8	86	-6.7	1	0	965.3	NA	0.0000		9999	1970	6100	0	0
2017/06/29 18:55:00	BASE	10.69	231	14.97	229	-4.8	86	-6.7	1	0	965.4	NA	0.0000		9999	1970	6170	0	0
2017/06/29 18:56:00	BASE	10.90	230	14.97	229	-4.9	86	-6.9	1	0	965.4	NA	0.0000		9999	1940	0	0	0
2017/06/29 18:57:00	BASE	11.47	228	14.97	229	-4.9	86	-6.9	1	0	965.4	NA	0.0000		9999	1840	6330	0	0
2017/06/29 18:58:00	BASE	11.67	232	13.99	227	-4.9	86	-6.9	1	0	965.5	NA	0.0000		9999	1870	0	0	0
2017/06/29 18:59:00	BASE	11.90	234	13.99	227	-4.9	86	-7.0	1	0	965.5	NA	0.0000		9999	2000	0	0	0
2017/06/29 19:00:00	BASE	12.19	236	13.99	227	-5.0	86	-7.0	1	0	965.5	NA	0.0000		9999	2100	6560	0	0
2017/06/29 19:01:00	BASE	12.05	234	13.99	227	-5.0	86	-7.1	1	0	965.6	NA	0.0000		9999	2030	0	0	0
2017/06/29 19:02:00	BASE	12.08	235	13.99	237	-5.1	85	-7.2	1	0	965.6	NA	0.0000		9999	2070	0	0	0
2017/06/29 19:03:00	BASE	12.63	237	14.30	235	-5.1	85	-7.2	1	0	965.7	NA	0.0000		9999	1940	0	0	0
2017/06/29 19:04:00	BASE	12.55	236	14.30	235	-5.1	85	-7.2	1	0	965.7	NA	0.0000		9999	2000	0	0	0
2017/06/29 19:05:00	BASE	12.13	233	14.30	235	-5.2	85	-7.3	1	0	965.7	NA	0.0000		9999	2000	0	0	0
2017/06/29 19:06:00	BASE	11.42	230	14.30	235	-5.2	85	-7.3	0	0	965.9	NA	0.0000		9999	2260	6170	0	0
2017/06/29 19:07:00	BASE	11.46	228	14.30	235	-5.2	84	-7.4	0	0	965.9	NA	0.0000		9999	2400	6200	0	0
2017/06/29 19:08:00	BASE	11.38	229	14.30	235	-5.2	84	-7.5	0	0	965.9	NA	0.0000		9999	2170	6330	0	0
2017/06/29 19:09:00	BASE	10.84	228	14.30	235	-5.1	83	-7.5	0	0	966.0	NA	0.0000		9999	2170	6300	0	0
2017/06/29 19:10:00	BASE	11.42	227	14.30	235	-5.1	83	-7.6	0	0	966.0	NA	0.0000		9999	6200	0	0	0
2017/06/29 19:11:00	BASE	12.34	231	14.30	235	-5.2	83	-7.7	0	0	966.0	NA	0.0000		9999	6170	0	0	0
2017/06/29 19:12:00	BASE	12.60	235	14.30	235	-5.2	83	-7.7	0	0	966.0	NA	0.0000		9999	6170	0	0	0
2017/06/29 19:13:00	BASE	12.07	235	13.79	235	-5.2	83	-7.6	0	0	966.0	NA	0.0000		9999	6330	0	0	0
2017/06/29 19:14:00	BASE	11.47	231	13.79	235	-5.2	83	-7.6	0	0	966.1	NA	0.0000		9999	2200	6370	0	0
2017/06/29 19:15:00	BASE	11.24	228	13.89	221	-5.1	83	-7.5	0	0	966.2	NA	0.0000		9999	6300	0	0	0
2017/06/29 19:16:00	BASE	11.48	226	13.89	221	-5.1	83	-7.5	0	0	966.2	NA	0.0000		9999	6400	0	0	0
2017/06/29 19:17:00	BASE	11.57	229	13.89	221	-5.1	83	-7.6	0	0	966.2	NA	0.0000		9999	6330	0	0	0
2017/06/29 19:18:00	BASE	11.21	232	13.89	221	-5.2	82	-7.8	0	0	966.3	NA	0.0000		9999	6330	0	0	0
2017/06/29 19:19:00	BASE	11.00	231	13.89	221	-5.2	81	-7.9	0	0	966.3	NA	0.0000		9999	2260	6330	0	0
2017/06/29 19:20:00	BASE	10.54	231	13.89	221	-5.2	81	-7.9	0	0	966.3	NA	0.0000		9999	2200	0	0	0
2017/06/29 19:21:00	BASE	10.42	235	13.89	221	-5.2	82	-7.8	0	0	966.3	NA	0.0000		9999	2170	0	0	0
2017/06/29 19:22:00	BASE	11.08	238	13.89	221	-5.1	83	-7.6	0	0	966.3	NA	0.0000		9999	2130	0	0	0
2017/06/29 19:23:00	BASE	11.82	239	13.89	221	-5.0	83	-7.5	0	0	966.3	NA	0.0000		9999	2070	0	0	0
2017/06/29 19:24:00	BASE	11.76	239	13.89	221	-5.0	83	-7.5	0	0	966.4	NA	0.0000		9999	2130	6630	0	0
2017/06/29 19:25:00	BASE	11.13	238	13.79	238	-5.0	83	-7.5	0	0	966.4	NA	0.0000		9999	2070	0	0	0
2017/06/29 19:26:00	BASE	11.27	240	13.79	238	-5.1	82	-7.6	0	0	966.5	NA	0.0000		9999	2070	0	0	0
2017/06/29 19:27:00	BASE	11.87	238	13.79	238	-5.1	82	-7.7	0	0	966.5	NA	0.0000		9999	2300	0	0	0
2017/06/29 19:28:00	BASE	12.32	238	13.79	238	-5.1	82	-7.7	0	0	966.5	NA	0.0000		9999	2170	0	0	0
2017/06/29 19:29:00	BASE	12.40	239	13.79	238	-5.1	82	-7.6	0	0	966.6	NA	0.0000		9999	2260	6860	0	0
2017/06/29 19:30:00	BASE	11.88	237	13.79	238	-5.1	83	-7.6	0	0	966.7	NA	0.0000		9999	2200	6820	0	0
2017/06/29 19:31:00	BASE	11.19	235	13.79	238	-5.1	83	-7.5	0	0	966.7	NA	0.0000		9999	2230	6990	0	0
2017/06/29 19:32:00	BASE	11.57	235	13.89	238	-5.1	83	-7.6	0	0	966.7	NA	0.0000		9999	2200	0	0	0
2017/06/29 19:33:00	BASE	11.90	237	13.89	238	-5.2	82	-7.7	0	0	966.8	NA	0.0000		9999	2330	6690	0	0
2017/06/29 19:34:00	BASE	11.06	241	13.89	238	-5.2	82	-7.7	0	0	966.9	NA	0.0000		9999	2260	6760	0	0
2017/06/29 19:35:00	BASE	10.01	243	13.89	238	-5.2	82	-7.7	0	0	966.9	NA	0.0000		9999	2330	6860	0	0
2017/06/29 19:36:00	BASE	9.78	241	13.89	238	-5.2	82	-7.7	0	0	966.9	NA	0.0000		9999	0	0	0	0
2017/06/29 19:37:00	BASE	10.44	237	13.89	238	-5.1	83	-7.6	0	0	966.9	NA	0.0000		9999	0	0	0	0
2017/06/29 19:38:00	BASE	10.69	235	13.89	238	-5.1	83	-7.6	0	0	967.0	NA	0.0000		9999	2170	0	0	0
2017/06/29 19:39:00	BASE	10.77	235	13.89	238	-5.1	83	-7.5	0	0	967.0	NA	0.0000		9999	2200	0	0	0
2017/06/29 19:40:00	BASE	11.35	231	13.89	238	-5.1	83	-7.6	0	0	967.0	NA	0.0000		9999	2300	0	0	0
2017/06/29 19:41:00	BASE	11.74	229	13.89	238	-5.2	82	-7.7	0	0	967.0	NA	0.0000		9999	0	0	0	0
2017/06/29 19:42:00	BASE	11.24	232	13.17	229	-5.3	82	-7.9	0	0	967.1	NA	0.0000		9999	0	0	0	0
2017/06/29 19:43:00	BASE	10.58	234	13.17	229	-5.3	81	-8.0	0	0	967.1	NA	0.0000		9999	0	0	0	0
2017/06/29 19:44:00	BASE	10.65	234	13.17	229	-5.3	81	-8.1	0	0	967.1	NA	0.0000		9999	0	0	0	0
2017/06/29 19:45:00	BASE	11.15	232	13.17	229	-5.3	81	-8.1	0	0	967.1	NA	0.0000		9999	0	0	0	0
2017/06/29 19:46:00	BASE	11.38	232	13.17	229	-5.4	80	-8.2	0	0	967.2	NA	0.0000		9999	0	0	0	0
2017/06/29 19:47:00	BASE	10.79	234	13.17	229	-5.4	80	-8.2	0	0	967.3	NA	0.0000		9999	0	0	0	0
2017/06/29 19:48:00	BASE	10.31	240	13.17	229	-5.3	80	-8.2	0	0	967.3	NA	0.0000		9999	0	0	0	0
2017/06/29 19:49:00	BASE	10.20	244	13.17	229	-5.3	80	-8.2	0	0	967.3	NA	0.0000		9999	2460	0	0	0
2017/06/29 19:50:00	BASE	9.42	240	13.17	229	-5.3	80	-8.1	0	0	967.3	NA	0.0000		9999	2430	0	0	0
2017/06/29 19:51:00	BASE	9.83	238	13.17	239	-5.2	80	-8.1	0	0	967.3	NA	0.0000		9999	0	0	0	0
2017/06/29 19:52:00	BASE	11.46	239	13.22	237	-5.2	80	-8.1	0	0	967.3	NA	0.0000		9999	0	0	0	0
2017/06/29 19:53:00	BASE	11.65	234	13.22	237	-5.2	79	-8.3	0	0	967.4	NA	0.0000		9999	0	0	0	0
2017/06/29 19:54:00	BASE	11.24	230	13.22	237	-5.3	79	-8.4	0	0	967.5	NA	0.0000		9999	0	0	0	0
2017/06/29 19:55:00	BASE	10.79	228	13.22	237	-5.4	78	-8.6	0	0	967.5	NA	0.0000		9999	0	0	0	0
2017/06/29 19:56:00	BASE	10.16	226	13.22	237	-5.4	77	-8.7	0	0	967.6	NA	0.0000		9999	0	0	0	0
2017/06/29 19:57:00	BASE	10.36	227	13.74	224	-5.4	77	-8.7	0	0	967.6	NA	0.0000		9999	0	0	0	0
2017/06/29 19:58:00	BASE	10.54	225	13.74	224	-5.4	77	-8.7	0	0	967.6	NA	0.0000		9999	0	0	0	0
2017/06/29 19:59:00	BASE	10.00	226	13.74	224	-5.3	78	-8.6	0	0	967.7	NA	0.0000		9999	0	0	0	0
2017/06/29 20:00:00	BASE	9.47	227	13.74	224	-5.3	78	-8.5	0	0	967.7	NA	0.0000		9999	0	0	0	0
2017/06/29 20:01:00	BASE	9.74	228	13.74	224	-5.3	78	-8.5	0	0	967.7	NA	0.0000		9999	0	0	0	0
2017/06/29 20:02:00	BASE	10.25	230	13.74	224	-5.3	78	-8.6	0	0	967.8	NA	0.0000		9999	0	0	0	0
2017/06/29 20:03:00	BASE	10.12	230	13.74	224	-5.4	78	-8.7	0	0	967.7	NA	0.0000		9999	0	0	0	0
2017/06/29 20:04:00	BASE	10.23	230	13.74	224	-5.4	77	-8.8	0	0	967.8	NA	0.0000		9999	0	0	0	0
2017/06/29 20:05:00	BASE	9.98	231	13.74	224	-5.4	76	-8.9	0	0	967.9	NA	0.0000		9999	0	0	0	0
2017/06/29 20:06:00	BASE	9.76	234	13.74	224	-5.4	76	-9.0	0	0	967.9	NA	0.0000		9999	0	0	0	0
2017/06/29 20:07:00	BASE	10.00	231	12.55	227	-5.4	76	-9.0	0	0	968.0	NA	0.0000		9999	0	0	0	0
2017/06/29 20:08:00	BASE	9.96	226	12.04	221	-5.4	76	-9.0	0	0	968.0	NA	0.0000		9999	0	0	0	0
2017/06/29 20:09:00	BASE	9.65	226	12.04	221	-5.4	75	-9.1	0	0	968.1	NA	0.0000		9999	0	0	0	0
2017/06/29 20:10:00	BASE	8.85	227	12.04	221	-5.4	75	-9.1	0	0	968.2	NA	0.0000		9999	0	0	0	0
2017/06/29 20:11:00	BASE	8.68	226	12.04	221	-5.4	75	-9.1	0	0	968.2	NA	0.0000		9999	0	0	0	0
2017/06/29 20:12:00	BASE	8.87	229	12.04	221	-5.4	75	-9.1	0	0	968.3	NA	0.0000		9999	0	0	0	0
2017/06/29 20:13:00	BASE	8.32	233	12.04	221	-5.4	76	-8.9	0	0	968.3	NA	0.0000		9999	2660	0	0	0
2017/06/29 20:14:00	BASE	8.72	231	12.04	221	-5.4	77	-8.8	0	0	968.2	NA	0.0000		9999	2590	0	0	0
2017/06/29 20:15:00	BASE	9.74	229	12.04	221	-5.3	77	-8.7	0	0	968.2	NA	0.0000		9999	0	0	0	0
2017/06/29 20:16:00	BASE	10.31	229	12.04	221	-5.3	77	-8.8	0	0	968.3	NA	0.0000		9999	0	0	0	0
2017/06/29 20:17:00	BASE	10.02	227	11.94	224	-5.3	76	-8.9	0	0	968.3	NA	0.0000		9999	0	0	0	0
2017/06/29 20:18:00	BASE	9.66	227	11.88	234	-5.3	75	-9.0	0	0	968.3	NA	0.0000		9999	0	0	0	0
2017/06/29 20:19:00	BASE	9.70	227	11.88	234	-5.4	74	-9.2	0	0	968.3	NA	0.0000		9999	0	0	0	0
2017/06/29 20:20:00	BASE	9.42	230	11.88	234	-5.4	74	-9.3	0	0	968.3	NA	0.0000		9999	0	0	0	0
2017/06/29 20:21:00	BASE	8.76	233	11.88	234	-5.4	74	-9.2	0	0	968.4	NA	0.0000		9999	0	0	0	0
2017/06/29 20:22:00	BASE	8.59	231	11.88	234	-5.4	74	-9.2	0	0	968.4	NA	0.0000		9999	0	0	0	0
2017/06/29 20:23:00	BASE	9.54	232	11.88	234	-5.4	75	-9.2	0	0	968.4	NA	0.0000		9999	0	0	0	0
2017/06/29 20:24:00	BASE	9.98	234	11.88	234	-5.4	75	-9.2	0	0	968.5	NA	0.0000		9999	0	0	0	0
2017/06/29 20:25:00	BASE	9.06	233	11.88	234	-5.4	75	-9.2	0	0	968.5	NA	0.0000		9999	0	0	0	0
2017/06/29 20:26:01	BASE	9.40	234	11.32	231	-5.4	74	-9.2	0	0	968.5	NA	0.0000		9999	0	0	0	0
2017/06/29 20:27:00	BASE	9.66	234	11.32	231	-5.4	74	-9.2	0	0	968.5	NA	0.0000		9999	11060	0	0	0
2017/06/29 20:28:00	BASE	8.68	233	11.32	231	-5.4	74	-9.2	0	0	968.6	NA	0.0000		9999	0	0	0	0
2017/06/29 20:29:00	BASE	8.24	230	11.32	231	-5.3	75	-9.0	0	0	968.6	NA	0.0000		9999	0	0	0	0
2017/06/29 20:30:00	BASE	7.95	225	11.32	231	-5.3	76	-8.9	0	0	968.7	NA	0.0000		9999	0	0	0	0
2017/06/29 20:31:00	BASE	8.37	220	11.32	231	-5.3	76	-8.8	0	0	968.7	NA	0.0000		9999	0	0	0	0
2017/06/29 20:32:00	BASE	8.73	215	11.32	231	-5.2	76	-8.8	0	0	968.7	NA	0.0000		9999	0	0	0	0
2017/06/29 20:33:00	BASE	8.67	216	11.32	231	-5.2	76	-8.8	0	0	968.7	NA	0.0000		9999	2590	0	0	0
2017/06/29 20:34:00	BASE	8.77	217	11.32	231	-5.3	75	-9.1	0	0	968.7	NA	0.0000		9999	0	0	0	0
2017/06/29 20:35:00	BASE	8.24	220	11.32	231	-5.2	74	-9.1	0	0	968.8	NA	0.0000		9999	2590	0	0	0
2017/06/29 20:36:00	BASE	8.29	228	10.34	212	-5.2	74	-9.1	0	0	968.8	NA	0.0000		9999	2660	0	0	0
2017/06/29 20:37:00	BASE	8.84	232	10.34	212	-5.3	74	-9.1	0	0	968.9	NA	0.0000		9999	0	0	0	0
2017/06/29 20:38:00	BASE	8.34	232	10.34	212	-5.3	75	-9.1	0	0	968.9	NA	0.0000		9999	0	0	0	0
2017/06/29 20:39:00	BASE	7.77	234	10.34	212	-5.3	75	-9.0	0	0	968.9	NA	0.0000		9999	0	0	0	0
2017/06/29 20:40:00	BASE	7.74	235	10.34	212	-5.4	76	-9.0	0	0	969.0	NA	0.0000		9999	0	0	0	0
2017/06/29 20:41:00	BASE	8.13	236	10.24	234	-5.4	75	-9.1	0	0	969.0	NA	0.0000		9999	2690	0	0	0
2017/06/29 20:42:00	BASE	7.98	237	10.24	234	-5.4	75	-9.1	0	0	969.0	NA	0.0000		9999	2530	0	0	0
2017/06/29 20:43:00	BASE	7.26	239	10.24	234	-5.4	75	-9.1	0	0	969.0	NA	0.0000		9999	0	0	0	0
2017/06/29 20:44:00	BASE	7.17	235	10.24	234	-5.3	75	-9.0	0	0	969.0	NA	0.0000		9999	0	0	0	0
2017/06/29 20:45:00	BASE	7.22	226	10.24	234	-5.3	75	-9.0	0	0	969.1	NA	0.0000		9999	0	0	0	0
2017/06/29 20:46:00	BASE	7.15	223	10.24	234	-5.3	75	-9.0	0	0	969.1	NA	0.0000		9999	0	0	0	0
2017/06/29 20:47:00	BASE	7.62	224	10.24	234	-5.3	75	-9.1	0	0	969.1	NA	0.0000		9999	0	0	0	0
2017/06/29 20:48:00	BASE	7.83	224	10.24	234	-5.3	75	-9.1	0	0	969.1	NA	0.0000		9999	0	0	0	0
2017/06/29 20:49:00	BASE	7.88	222	10.24	234	-5.3	74	-9.2	0	0	969.1	NA	0.0000		9999	2690	0	0	0
2017/06/29 20:50:00	BASE	8.11	221	10.44	219	-5.3	74	-9.3	0	0	969.1	NA	0.0000		9999	2720	0	0	0
2017/06/29 20:51:00	BASE	8.04	226	10.44	219	-5.3	74	-9.2	0	0	969.2	NA	0.0000		9999	0	0	0	0
2017/06/29 20:52:00	BASE	8.03	234	10.44	219	-5.2	74	-9.2	0	0	969.2	NA	0.0000		9999	0	0	0	0
2017/06/29 20:53:00	BASE	8.06	231	10.44	219	-5.2	73	-9.2	0	0	969.2	NA	0.0000		9999	0	0	0	0
2017/06/29 20:54:00	BASE	7.70	225	10.44	219	-5.2	73	-9.3	0	0	969.3	NA	0.0000		9999	0	0	0	0
2017/06/29 20:55:00	BASE	6.86	225	10.44	219	-5.3	73	-9.4	0	0	969.3	NA	0.0000		9999	0	0	0	0
2017/06/29 20:56:00	BASE	6.55	232	10.44	219	-5.3	73	-9.5	0	0	969.3	NA	0.0000		9999	0	0	0	0
2017/06/29 20:57:00	BASE	6.38	237	10.44	219	-5.3	73	-9.5	0	0	969.4	NA	0.0000		9999	0	0	0	0
2017/06/29 20:58:00	BASE	6.52	238	10.44	219	-5.3	73	-9.5	0	0	969.4	NA	0.0000		9999	0	0	0	0
2017/06/29 20:59:00	BASE	6.62	239	10.44	219	-5.3	73	-9.3	0	0	969.5	NA	0.0000		9999	2760	0	0	0
2017/06/29 21:00:00	BASE	6.30	226	8.95	225	-5.3	74	-9.2	0	0	969.5	NA	0.0000		9999	0	0	0	0
2017/06/29 21:01:00	BASE	6.95	216	8.90	217	-5.2	74	-9.1	0	0	969.6	NA	0.0000		9999	2820	0	0	0
2017/06/29 21:02:00	BASE	7.23	220	8.90	217	-5.2	74	-9.2	0	0	969.6	NA	0.0000		9999	3020	11020	13620	0
2017/06/29 21:03:00	BASE	7.20	226	8.75	216	-5.2	73	-9.2	0	0	969.7	NA	0.0000		9999	10890	13620	0	0
2017/06/29 21:04:00	BASE	7.71	227	8.75	216	-5.2	72	-9.4	0	0	969.7	NA	0.0000		9999	13680	0	0	0
2017/06/29 21:05:00	BASE	7.37	222	8.75	216	-5.2	72	-9.5	0	0	969.8	NA	0.0000		9999	13650	0	0	0
2017/06/29 21:06:01	BASE	6.68	222	8.75	216	-5.2	71	-9.7	0	0	969.8	NA	0.0000		9999	13750	0	0	0
2017/06/29 21:07:00	BASE	6.83	225	8.75	216	-5.2	70	-9.8	0	0	969.8	NA	0.0000		9999	0	0	0	0
2017/06/29 21:08:00	BASE	7.04	227	8.75	216	-5.3	70	-9.8	0	0	969.8	NA	0.0000		9999	0	0	0	0
2017/06/29 21:09:00	BASE	6.94	226	8.75	216	-5.3	71	-9.8	0	0	969.8	NA	0.0000		9999	0	0	0	0
2017/06/29 21:10:00	BASE	6.46	224	8.75	216	-5.3	71	-9.7	0	0	969.8	NA	0.0000		9999	0	0	0	0
2017/06/29 21:11:00	BASE	6.46	230	8.75	216	-5.3	71	-9.7	0	0	969.8	NA	0.0000		9999	2850	0	0	0
2017/06/29 21:12:00	BASE	6.44	237	8.69	219	-5.3	72	-9.5	0	0	969.8	NA	0.0000		9999	2760	0	0	0
2017/06/29 21:13:00	BASE	6.45	234	8.69	219	-5.2	72	-9.5	0	0	969.8	NA	0.0000		9999	2690	0	0	0
2017/06/29 21:14:00	BASE	6.75	232	8.54	219	-5.2	73	-9.3	0	0	969.8	NA	0.0000		9999	2690	0	0	0
2017/06/29 21:15:00	BASE	6.19	239	8.54	219	-5.2	73	-9.3	0	0	969.9	NA	0.0000		9999	2760	0	0	0
2017/06/29 21:16:00	BASE	5.64	247	8.54	219	-5.2	73	-9.2	0	0	969.9	NA	0.0000		9999	2760	0	0	0
2017/06/29 21:17:00	BASE	5.30	247	8.54	219	-5.2	73	-9.3	0	0	969.9	NA	0.0000		9999	9350	0	0	0
2017/06/29 21:18:00	BASE	5.50	237	7.72	219	-5.2	73	-9.2	0	0	969.9	NA	0.0000		9999	2790	0	0	0
2017/06/29 21:19:00	BASE	6.20	231	7.61	234	-5.1	73	-9.2	0	0	969.9	NA	0.0000		9999	2950	0	0	0
2017/06/29 21:20:00	BASE	7.05	234	8.59	240	-5.1	73	-9.3	0	0	969.9	NA	0.0000		9999	8860	0	0	0
2017/06/29 21:21:00	BASE	6.88	234	8.59	240	-5.2	72	-9.5	0	0	969.9	NA	0.0000		9999	8690	0	0	0
2017/06/29 21:22:00	BASE	6.28	233	8.59	240	-5.2	71	-9.6	0	0	969.9	NA	0.0000		9999	8400	0	0	0
2017/06/29 21:23:00	BASE	6.14	236	8.59	240	-5.2	70	-9.7	0	0	969.9	NA	0.0000		9999	3050	0	0	0
2017/06/29 21:24:00	BASE	6.40	235	8.59	240	-5.2	70	-9.9	0	0	969.9	NA	0.0000		9999	7580	0	0	0
2017/06/29 21:25:00	BASE	6.96	230	8.59	240	-5.2	70	-9.8	0	0	969.9	NA	0.0000		9999	0	0	0	0
2017/06/29 21:26:00	BASE	7.02	228	8.59	240	-5.2	70	-9.8	0	0	969.9	NA	0.0000		9999	0	0	0	0
2017/06/29 21:27:00	BASE	6.73	229	8.59	240	-5.2	69	-9.9	0	0	969.9	NA	0.0000		9999	9120	0	0	0
2017/06/29 21:28:00	BASE	5.83	228	8.59	240	-5.2	69	-9.9	0	0	969.9	NA	0.0000		9999	9060	0	0	0
2017/06/29 21:29:00	BASE	5.60	230	8.59	240	-5.2	70	-9.9	0	0	969.9	NA	0.0000		9999	8990	0	0	0
2017/06/29 21:30:00	BASE	5.86	235	8.23	232	-5.3	70	-10.0	0	0	969.9	NA	0.0000		9999	8790	0	0	0
2017/06/29 21:31:00	BASE	5.70	235	8.23	232	-5.3	70	-9.9	0	0	969.9	NA	0.0000		9999	8660	0	0	0
2017/06/29 21:32:00	BASE	5.54	231	8.23	232	-5.3	70	-9.8	0	0	969.9	NA	0.0000		9999	8660	0	0	0
2017/06/29 21:33:00	BASE	5.03	236	8.23	232	-5.3	71	-9.7	0	0	970.0	NA	0.0000		9999	8630	0	0	0
2017/06/29 21:34:00	BASE	4.33	241	8.03	226	-5.3	71	-9.7	0	0	970.1	NA	0.0000		9999	8760	0	0	0
2017/06/29 21:35:00	BASE	4.07	239	7.51	233	-5.3	72	-9.5	0	0	970.1	NA	0.0000		9999	8760	0	0	0
2017/06/29 21:36:00	BASE	4.12	239	6.94	227	-5.2	73	-9.3	0	0	970.1	NA	0.0000		9999	8690	0	0	0
2017/06/29 21:37:00	BASE	5.13	242	7.10	236	-5.2	74	-9.2	0	0	970.0	NA	0.0000		9999	8730	0	0	0
2017/06/29 21:38:00	BASE	5.42	247	7.10	236	-5.2	74	-9.1	0	0	970.0	NA	0.0000		9999	8760	0	0	0
2017/06/29 21:39:00	BASE	4.67	254	7.10	236	-5.1	74	-9.1	0	0	970.1	NA	0.0000		9999	8730	0	0	0
2017/06/29 21:40:00	BASE	5.01	256	7.10	236	-5.1	74	-9.1	0	0	970.1	NA	0.0000		9999	8600	0	0	0
2017/06/29 21:41:00	BASE	5.61	246	7.10	236	-5.1	73	-9.1	0	0	970.1	NA	0.0000		9999	9150	0	0	0
2017/06/29 21:42:00	BASE	6.19	240	7.25	236	-5.1	73	-9.2	0	0	970.2	NA	0.0000		9999	8920	0	0	0
2017/06/29 21:43:00	BASE	6.79	241	8.18	241	-5.0	73	-9.2	0	0	970.2	NA	0.0000		9999	8690	0	0	0
2017/06/29 21:44:00	BASE	6.84	239	8.18	241	-5.0	72	-9.3	0	0	970.2	NA	0.0000		9999	6860	0	0	0
2017/06/29 21:45:00	BASE	6.79	235	8.18	241	-5.0	72	-9.3	0	0	970.2	NA	0.0000		9999	8660	0	0	0
2017/06/29 21:46:00	BASE	6.70	236	8.18	241	-5.0	72	-9.4	0	0	970.2	NA	0.0000		9999	9060	0	0	0
2017/06/29 21:47:00	BASE	5.79	245	8.18	241	-5.1	71	-9.4	0	0	970.3	NA	0.0000		9999	9060	0	0	0
2017/06/29 21:48:00	BASE	5.04	247	8.18	241	-5.1	71	-9.5	0	0	970.2	NA	0.0000		9999	8920	0	0	0
2017/06/29 21:49:00	BASE	5.10	246	8.18	241	-5.1	72	-9.4	0	0	970.3	NA	0.0000		9999	8890	0	0	0
2017/06/29 21:50:00	BASE	5.48	242	8.18	241	-5.0	72	-9.3	0	0	970.2	NA	0.0000		9999	7120	0	0	0
2017/06/29 21:51:00	BASE	6.12	238	8.18	241	-5.0	72	-9.3	0	0	970.2	NA	0.0000		9999	8830	0	0	0
2017/06/29 21:52:00	BASE	6.30	240	8.18	241	-5.0	72	-9.2	0	0	970.2	NA	0.0000		9999	8790	0	0	0
2017/06/29 21:53:00	BASE	5.90	246	7.97	230	-5.0	73	-9.2	0	0	970.2	NA	0.0000		9999	8660	0	0	0
2017/06/29 21:54:00	BASE	5.47	248	7.97	230	-5.0	72	-9.2	0	0	970.2	NA	0.0000		9999	8990	0	0	0
2017/06/29 21:55:00	BASE	5.08	250	7.72	236	-5.0	72	-9.3	0	0	970.2	NA	0.0000		9999	9020	0	0	0
2017/06/29 21:56:00	BASE	5.38	255	7.72	236	-5.1	72	-9.4	0	0	970.2	NA	0.0000		9999	8960	0	0	0
2017/06/29 21:57:00	BASE	6.16	260	7.72	236	-5.1	71	-9.5	0	0	970.2	NA	0.0000		9999	8400	0	0	0
2017/06/29 21:58:00	BASE	5.79	258	7.72	236	-5.1	71	-9.6	0	0	970.2	NA	0.0000		9999	8100	0	0	0
2017/06/29 21:59:00	BASE	5.51	255	7.72	236	-5.1	71	-9.5	0	0	970.2	NA	0.0000		9999	9020	0	0	0
2017/06/29 22:00:00	BASE	5.69	256	7.61	238	-5.0	71	-9.5	0	0	970.3	NA	0.0000		9999	8300	0	0	0
2017/06/29 22:01:00	BASE	5.73	259	7.15	240	-5.0	71	-9.4	0	0	970.3	NA	0.0000		9999	7640	8530	0	0
2017/06/29 22:02:00	BASE	5.81	265	6.84	261	-5.0	71	-9.4	0	0	970.3	NA	0.0000		9999	7120	8560	0	0
2017/06/29 22:03:00	BASE	5.69	265	6.84	261	-5.0	72	-9.3	0	0	970.3	NA	0.0000		9999	6760	7810	0	0
2017/06/29 22:04:00	BASE	5.43	259	6.84	261	-5.0	72	-9.3	0	0	970.4	NA	0.0000		9999	8170	0	0	0
2017/06/29 22:05:00	BASE	4.75	258	6.84	261	-5.0	72	-9.3	0	0	970.4	NA	0.0000		9999	7710	0	0	0
2017/06/29 22:06:00	BASE	4.73	254	6.84	261	-5.0	72	-9.2	0	0	970.4	NA	0.0000		9999	7190	8240	0	0
2017/06/29 22:07:00	BASE	5.20	250	6.69	259	-5.0	72	-9.2	0	0	970.4	NA	0.0000		9999	8200	0	0	0
2017/06/29 22:08:00	BASE	4.89	255	6.69	259	-5.0	72	-9.2	0	0	970.4	NA	0.0000		9999	8600	0	0	0
2017/06/29 22:09:00	BASE	4.40	257	6.69	259	-5.0	72	-9.2	0	0	970.4	NA	0.0000		9999	7120	0	0	0
2017/06/29 22:10:00	BASE	4.85	255	6.69	259	-5.0	72	-9.2	0	0	970.4	NA	0.0000		9999	6820	0	0	0
2017/06/29 22:11:00	BASE	5.03	259	6.38	257	-5.0	72	-9.2	0	0	970.4	NA	0.0000		9999	8830	0	0	0
2017/06/29 22:12:00	BASE	4.90	257	6.38	257	-5.0	72	-9.3	0	0	970.4	NA	0.0000		9999	5220	0	0	0
2017/06/29 22:13:00	BASE	4.77	251	6.38	257	-5.0	72	-9.3	0	0	970.6	NA	0.0000		9999	2660	0	0	0
2017/06/29 22:14:00	BASE	4.55	253	6.38	257	-4.9	72	-9.3	0	0	970.6	NA	0.0000		9999	2560	0	0	0
2017/06/29 22:15:00	BASE	4.25	258	6.38	257	-5.0	72	-9.2	0	0	970.6	NA	0.0000		9999	2490	0	0	0
2017/06/29 22:16:00	BASE	3.94	262	6.17	261	-5.0	72	-9.2	0	0	970.6	NA	0.0000		9999	2430	0	0	0
2017/06/29 22:17:00	BASE	4.13	263	6.17	261	-5.0	73	-9.1	0	0	970.7	NA	0.0000		9999	2430	0	0	0
2017/06/29 22:18:00	BASE	4.23	252	6.17	261	-4.9	73	-9.0	0	0	970.7	NA	0.0000		9999	2430	0	0	0
2017/06/29 22:19:00	BASE	4.60	243	6.17	261	-4.9	73	-9.0	0	0	970.8	NA	0.0000		9999	2400	0	0	0
2017/06/29 22:20:00	BASE	4.86	241	5.81	244	-4.9	73	-8.9	0	0	970.8	NA	0.0000		9999	2430	0	0	0
2017/06/29 22:21:00	BASE	5.00	242	5.92	243	-4.9	73	-9.0	0	0	970.8	NA	0.0000		9999	2360	0	0	0
2017/06/29 22:22:00	BASE	4.60	241	5.92	243	-4.9	73	-8.9	0	0	970.8	NA	0.0000		9999	2460	0	0	0
2017/06/29 22:23:00	BASE	3.52	243	5.92	243	-4.8	74	-8.8	0	0	970.8	NA	0.0000		9999	2530	0	0	0
2017/06/29 22:24:00	BASE	3.58	247	5.92	243	-4.8	74	-8.8	0	0	970.8	NA	0.0000		9999	2490	0	0	0
2017/06/29 22:25:00	BASE	4.65	241	5.92	243	-4.8	74	-8.7	0	0	970.8	NA	0.0000		9999	2300	0	0	0
2017/06/29 22:26:00	BASE	4.84	239	5.92	243	-4.8	74	-8.7	0	0	970.8	NA	0.0000		9999	2330	0	0	0
2017/06/29 22:27:00	BASE	4.18	242	5.92	243	-4.8	74	-8.7	0	0	970.8	NA	0.0000		9999	2330	0	0	0
2017/06/29 22:28:00	BASE	3.80	243	5.92	243	-4.9	74	-8.7	0	0	970.8	NA	0.0000		9999	2300	0	0	0
2017/06/29 22:29:00	BASE	3.95	235	5.92	243	-4.9	74	-8.7	0	0	970.8	NA	0.0000		9999	2330	0	0	0
2017/06/29 22:30:00	BASE	3.68	229	5.92	243	-4.9	75	-8.7	0	0	970.8	NA	0.0000		9999	2300	0	0	0
2017/06/29 22:31:00	BASE	3.01	229	5.45	234	-4.9	75	-8.7	0	0	970.8	NA	0.0000		9999	2300	0	0	0
2017/06/29 22:32:00	BASE	2.70	238	5.45	234	-4.9	76	-8.6	0	0	970.9	NA	0.0000		9999	2300	0	0	0
2017/06/29 22:33:00	BASE	3.24	244	5.45	234	-4.9	76	-8.5	0	0	970.9	NA	0.0000		9999	2360	0	0	0
2017/06/29 22:34:00	BASE	4.24	241	5.45	234	-4.9	76	-8.5	0	0	970.8	NA	0.0000		9999	2400	0	0	0
2017/06/29 22:35:00	BASE	4.18	242	5.14	242	-4.9	76	-8.5	0	0	970.8	NA	0.0000		9999	2460	0	0	0
2017/06/29 22:36:00	BASE	3.91	246	5.14	242	-4.9	76	-8.5	0	0	970.9	NA	0.0000		9999	2760	0	0	0
2017/06/29 22:37:00	BASE	4.04	252	5.14	242	-4.8	75	-8.5	0	0	970.9	NA	0.0000		9999	2790	0	0	0
2017/06/29 22:38:00	BASE	3.94	257	5.14	242	-4.8	75	-8.6	0	0	970.8	NA	0.0000		9999	3250	8760	0	0
2017/06/29 22:39:00	BASE	3.75	257	5.14	242	-4.8	74	-8.7	0	0	970.8	NA	0.0000		9999	2920	0	0	0
2017/06/29 22:40:00	BASE	3.33	254	5.14	242	-4.8	74	-8.7	0	0	970.8	NA	0.0000		9999	2920	7870	0	0
2017/06/29 22:41:00	BASE	2.94	259	5.14	242	-4.8	74	-8.7	0	0	970.8	NA	0.0000		9999	2790	7510	0	0
2017/06/29 22:42:00	BASE	2.82	263	5.14	242	-4.8	75	-8.6	0	0	970.8	NA	0.0000		9999	2590	7450	0	0
2017/06/29 22:43:00	BASE	3.02	270	5.14	242	-4.8	75	-8.6	0	0	970.8	NA	0.0000		9999	2530	0	0	0
2017/06/29 22:44:00	BASE	3.13	275	4.89	247	-4.8	75	-8.6	0	0	970.8	NA	0.0000		9999	2560	0	0	0
2017/06/29 22:45:00	BASE	3.09	277	4.89	247	-4.9	75	-8.7	0	0	970.8	NA	0.0000		9999	2360	0	0	0
2017/06/29 22:46:00	BASE	3.09	276	4.89	247	-4.9	74	-8.7	0	0	970.9	NA	0.0000		9999	2560	0	0	0
2017/06/29 22:47:00	BASE	2.55	278	4.89	247	-4.9	74	-8.7	0	0	970.9	NA	0.0000		9999	2530	0	0	0
2017/06/29 22:48:00	BASE	2.26	285	4.89	247	-4.9	75	-8.7	0	0	971.0	NA	0.0000		9999	2260	0	0	0
2017/06/29 22:49:00	BASE	2.90	280	4.27	263	-4.9	75	-8.6	0	0	971.0	NA	0.0000		9999	2360	0	0	0
2017/06/29 22:50:00	BASE	3.58	265	4.32	257	-4.8	75	-8.5	0	0	970.9	NA	0.0000		9999	2170	0	0	0
2017/06/29 22:51:00	BASE	3.47	267	4.32	257	-4.8	76	-8.4	0	0	971.0	NA	0.0000		9999	2200	0	0	0
2017/06/29 22:52:00	BASE	2.99	282	4.32	257	-4.8	76	-8.3	0	0	971.0	NA	0.0000		9999	2300	0	0	0
2017/06/29 22:53:00	BASE	2.63	288	4.32	257	-4.8	76	-8.3	0	0	971.0	NA	0.0000		9999	2260	0	0	0
2017/06/29 22:54:00	BASE	2.28	290	4.32	257	-4.8	77	-8.3	0	0	970.9	NA	0.0000		9999	2230	0	0	0
2017/06/29 22:55:00	BASE	2.38	294	4.32	257	-4.8	77	-8.2	0	0	970.9	NA	0.0000		9999	2230	0	0	0
2017/06/29 22:56:00	BASE	2.43	299	4.32	257	-4.9	77	-8.2	0	0	970.9	NA	0.0000		9999	2260	0	0	0
2017/06/29 22:57:00	BASE	2.05	312	4.32	257	-4.9	78	-8.2	0	0	970.8	NA	0.0000		9999	1840	0	0	0
2017/06/29 22:58:00	BASE	1.66	323	4.32	257	-4.9	78	-8.1	0	0	970.8	NA	0.0000		9999	1870	4130	0	0
2017/06/29 22:59:00	BASE	1.39	332	4.32	257	-4.9	78	-8.1	0	0	970.7	NA	0.0000		9999	1840	4560	0	0
2017/06/29 23:00:00	BASE	1.59	337	3.45	280	-4.9	78	-8.1	0	0	970.6	NA	0.0000		9999	1710	4000	0	0
2017/06/29 23:01:00	BASE	1.74	337	3.09	279	-4.9	78	-8.1	0	0	970.6	NA	0.0000		9999	1380	3940	0	0
2017/06/29 23:02:00	BASE	1.62	340	2.83	296	-4.9	78	-8.1	0	0	970.6	NA	0.0000		9999	1210	2330	0	0
2017/06/29 23:03:00	BASE	1.67	341	2.78	297	-4.9	78	-8.1	0	0	970.6	NA	0.0000	-SN	9999	1180	2300	0	0
2017/06/29 23:04:00	BASE	1.78	342	2.78	297	-4.9	78	-8.1	0	0	970.6	NA	0.0000	-SN	9999	1940	0	0	0
2017/06/29 23:05:00	BASE	1.79	342	2.73	306	-4.9	78	-8.2	0	0	970.6	NA	0.0000	-SN	9999	980	5640	0	0
2017/06/29 23:06:00	BASE	1.62	340	2.42	343	-4.9	78	-8.2	0	0	970.6	NA	0.0000	-SN	9999	790	3640	0	0
2017/06/29 23:07:00	BASE	1.46	336	2.42	343	-4.9	78	-8.2	0	0	970.6	NA	0.0000	-SN	9999	950	5770	0	0
2017/06/29 23:08:00	BASE	1.62	337	2.42	343	-4.9	78	-8.1	0	0	970.6	NA	0.0000	-SN	9999	4000	5710	0	0
2017/06/29 23:09:00	BASE	2.02	344	2.57	339	-4.9	78	-8.1	0	0	970.6	NA	0.0000	-SN	9999	3970	5840	0	0
2017/06/29 23:10:00	BASE	2.40	338	2.88	327	-4.9	79	-8.1	0	0	970.6	NA	0.0000	-SN	9999	2170	5940	0	0
2017/06/29 23:11:00	BASE	2.49	334	2.88	327	-4.9	79	-8.0	0	0	970.5	NA	0.0000	-SN	9999	2170	0	0	0
2017/06/29 23:12:00	BASE	2.22	332	2.88	327	-4.9	79	-8.0	0	0	970.6	NA	0.0000	-SN	9999	2230	5250	0	0
2017/06/29 23:13:00	BASE	1.95	336	2.88	327	-4.9	79	-8.0	0	0	970.6	NA	0.0000	-SN	9999	4860	0	0	0
2017/06/29 23:14:00	BASE	2.05	339	2.88	327	-4.9	79	-8.0	0	0	970.6	NA	0.0000	-SN	9999	4690	0	0	0
2017/06/29 23:15:00	BASE	2.12	325	2.88	327	-4.9	79	-8.0	0	0	970.6	NA	0.0000	-SN	9999	4530	5020	0	0
2017/06/29 23:16:00	BASE	1.90	320	2.88	327	-4.9	79	-8.0	0	0	970.6	NA	0.0000	-SN	9999	4460	0	0	0
2017/06/29 23:17:00	BASE	1.62	323	2.88	327	-4.9	79	-8.0	0	0	970.7	NA	0.0000	-SN	9999	4200	5050	0	0
2017/06/29 23:18:00	BASE	1.62	318	2.88	327	-4.9	79	-8.0	0	0	970.8	NA	0.0000	-SN	9999	4040	0	0	0
2017/06/29 23:19:00	BASE	1.97	309	2.88	327	-4.9	79	-8.0	0	0	970.8	NA	0.0000		9999	3970	0	0	0
2017/06/29 23:20:00	BASE	2.56	300	3.19	301	-4.9	79	-8.0	0	0	970.8	NA	0.0000		9999	2530	3940	0	0
2017/06/29 23:21:00	BASE	3.04	295	3.24	294	-4.9	79	-8.0	0	0	970.8	NA	0.0000		9999	2490	3870	0	0
2017/06/29 23:22:00	BASE	3.11	295	3.24	293	-4.9	79	-8.0	0	0	970.8	NA	0.0000		9999	2720	3710	0	0
2017/06/29 23:23:00	BASE	2.89	296	3.24	293	-4.8	79	-8.0	0	0	970.8	NA	0.0000		9999	3350	0	0	0
2017/06/29 23:24:00	BASE	2.95	299	3.55	298	-4.8	79	-8.0	0	0	970.8	NA	0.0000		9999	3120	0	0	0
2017/06/29 23:25:00	BASE	3.18	302	3.55	298	-4.8	78	-8.0	0	0	970.8	NA	0.0000		9999	2760	0	0	0
2017/06/29 23:26:00	BASE	2.89	312	3.55	298	-4.8	78	-8.0	0	0	970.8	NA	0.0000		9999	2430	0	0	0
2017/06/29 23:27:00	BASE	2.60	320	3.55	298	-4.8	78	-8.0	0	0	970.8	NA	0.0000		9999	1940	0	0	0
2017/06/29 23:28:00	BASE	2.59	322	3.55	298	-4.8	79	-7.9	0	0	970.8	NA	0.0000		9999	1900	0	0	0
2017/06/29 23:29:00	BASE	2.49	326	3.55	298	-4.8	79	-7.9	0	0	970.7	NA	0.0000		9999	1670	0	0	0
2017/06/29 23:30:00	BASE	2.57	329	3.55	298	-4.8	79	-7.9	0	0	970.7	NA	0.0000		9999	1740	0	0	0
2017/06/29 23:31:00	BASE	2.74	329	3.55	298	-4.8	79	-7.8	0	0	970.7	NA	0.0000		9999	1840	0	0	0
2017/06/29 23:32:00	BASE	2.96	329	3.65	330	-4.8	79	-7.8	0	0	970.8	NA	0.0000		9999	2100	0	0	0
2017/06/29 23:33:00	BASE	3.26	330	3.65	330	-4.7	80	-7.7	0	0	970.8	NA	0.0000		9999	0	0	0	3480
2017/06/29 23:34:00	BASE	2.97	338	3.65	330	-4.7	80	-7.7	0	0	970.8	NA	0.0000		9999	0	0	0	3280
2017/06/29 23:35:00	BASE	2.81	351	3.65	330	-4.7	80	-7.7	0	0	970.8	NA	0.0000		9999	0	0	0	3310
2017/06/29 23:36:00	BASE	3.44	1	4.27	360	-4.7	80	-7.7	0	0	970.8	NA	0.0000		9999	0	0	0	3310
2017/06/29 23:37:00	BASE	3.98	5	4.48	5	-4.7	80	-7.7	0	0	970.8	NA	0.0000		9999	520	0	0	0
2017/06/29 23:38:00	BASE	3.84	7	4.48	5	-4.8	80	-7.7	0	0	970.7	NA	0.0000	-SN	9999	360	0	0	0
2017/06/29 23:39:00	BASE	4.04	10	4.99	6	-4.9	80	-7.7	0	0	970.7	NA	0.0000	-SN	9999	390	0	0	0
2017/06/29 23:40:00	BASE	4.60	11	5.61	5	-5.0	81	-7.7	0	0	970.7	NA	0.0000	-SN	9999	0	0	0	2790
2017/06/29 23:41:00	BASE	4.69	8	5.61	5	-5.1	81	-7.8	0	0	970.7	NA	0.0000	-SN	9999	360	0	0	0
2017/06/29 23:42:00	BASE	5.03	6	5.81	4	-5.1	82	-7.8	0	0	970.7	NA	0.0000	-SN	9999	360	0	0	0
2017/06/29 23:43:00	BASE	5.40	4	5.81	4	-5.2	82	-7.8	0	0	970.7	NA	0.0000	-SN	9999	300	0	0	0
2017/06/29 23:44:00	BASE	5.26	4	5.81	4	-5.2	83	-7.7	0	0	970.7	NA	0.0000	-SN	9999	300	0	0	0
2017/06/29 23:45:00	BASE	5.30	6	5.92	6	-5.2	83	-7.6	0	0	970.7	NA	0.0000	-SN	9999	0	0	0	3450
2017/06/29 23:46:00	BASE	5.41	6	5.92	6	-5.2	84	-7.5	0	0	970.7	NA	0.0000	-SN	9999	0	0	0	4000
2017/06/29 23:47:00	BASE	5.44	8	5.92	6	-5.2	84	-7.5	0	0	970.7	NA	0.0000	-SN	9999	0	0	0	4170
2017/06/29 23:48:00	BASE	5.33	9	5.92	6	-5.2	84	-7.5	0	0	970.7	NA	0.0000	-SN	9000	0	0	0	4040
2017/06/29 23:49:00	BASE	5.19	11	5.92	6	-5.3	85	-7.4	0	0	970.7	NA	0.0000	-SN	9999	0	0	0	4360
2017/06/29 23:50:00	BASE	5.20	13	5.92	6	-5.3	85	-7.4	0	0	970.7	NA	0.0000	-SN	9999	0	0	0	5120
2017/06/29 23:51:00	BASE	5.29	12	5.92	6	-5.3	85	-7.4	0	0	970.7	NA	0.0000	-SN	9999	0	0	0	5410
2017/06/29 23:52:00	BASE	5.52	10	6.07	11	-5.3	85	-7.5	0	0	970.7	NA	0.0000	-SN	9999	0	0	0	5450
2017/06/29 23:53:00	BASE	5.33	7	6.07	11	-5.3	85	-7.5	0	0	970.8	NA	0.0000	-SN	9999	0	0	0	5740
2017/06/29 23:54:00	BASE	5.09	4	6.07	11	-5.3	85	-7.5	0	0	970.8	NA	0.0000	-SN	9999	0	0	0	5940
2017/06/29 23:55:00	BASE	5.04	5	6.07	11	-5.3	85	-7.5	0	0	970.8	NA	0.0000	-SN	9999	3220	0	0	0
2017/06/29 23:56:00	BASE	4.98	6	6.07	11	-5.3	85	-7.5	0	0	970.8	NA	0.0000	-SN	9999	2490	0	0	0
2017/06/29 23:57:00	BASE	4.95	6	6.07	11	-5.3	84	-7.5	0	0	970.8	NA	0.0000	-SN	9999	2990	0	0	0
2017/06/29 23:58:00	BASE	5.17	5	6.07	11	-5.3	84	-7.6	0	0	970.8	NA	0.0000	-SN	9999	2990	0	0	0
2017/06/29 23:59:00	BASE	5.37	5	6.07	11	-5.3	83	-7.6	0	0	970.7	NA	0.0000	-SN	9999	390	0	0	0